Provisional Data: Catatonk Creek near Spencer, NY


Please select a monitoring station.
Please select start date.
Please select start date.

Toggle Unit: C/F Toggle Unit: C/F
Sample Time Temperature (C) Temperature (F) Specific Conductivity (mS/cm) pH   Turbidity (NTU+) DO (mg/L)
8/9/2021 12:00:00 AM 20.59 69.062 0.39 7.63 8.39 5.26
8/9/2021 12:15:00 AM 20.58 69.044 0.389 7.63 8.54 5.51
8/9/2021 12:30:00 AM 20.44 68.792 0.39 7.62 8.63 5.57
8/9/2021 12:45:00 AM 20.4 68.72 0.39 7.61 8.57 5.21
8/9/2021 1:00:00 AM 20.38 68.684 0.391 7.61 8.9 5.28
8/9/2021 1:15:00 AM 20.28 68.504 0.39 7.6 8.85 5.39
8/9/2021 1:30:00 AM 20.17 68.306 0.392 7.59 8.98 5.39
8/9/2021 1:45:00 AM 20.17 68.306 0.391 7.59 8.98 5.33
8/9/2021 2:00:00 AM 20.09 68.162 0.391 7.58 9.03 5.37
8/9/2021 2:15:00 AM 20.04 68.07201 0.392 7.58 8.95 5.18
8/9/2021 2:30:00 AM 19.98 67.964 0.392 7.56 9.38 5.3
8/9/2021 2:45:00 AM 19.81 67.658 0.393 7.57 10.13 5.19
8/9/2021 3:00:00 AM 19.95 67.91 0.39 7.58 9.44 5.34
8/9/2021 3:15:00 AM 19.79 67.622 0.393 7.57 8.8 5.11
8/9/2021 3:30:00 AM 19.83 67.694 0.39 7.57 8.99 5.32
8/9/2021 3:45:00 AM 19.7 67.46 0.391 7.56 8.72 5.18
8/9/2021 4:00:00 AM 19.61 67.298 0.391 7.56 9.08 5.19
8/9/2021 4:15:00 AM 19.59 67.262 0.393 7.56 9.14 5.22
8/9/2021 4:30:00 AM 19.51 67.118 0.393 7.56 8.95 5.29
8/9/2021 4:45:00 AM 19.4 66.92 0.394 7.55 8.92 5.37
8/9/2021 5:00:00 AM 19.42 66.956 0.393 7.56 9.05 5.37
8/9/2021 5:15:00 AM 19.35 66.83 0.393 7.55 9.52 5.29
8/9/2021 5:30:00 AM 19.31 66.758 0.394 7.55 10.08 5.39
8/9/2021 5:45:00 AM 19.24 66.632 0.395 7.55 9.83 5.25
8/9/2021 6:00:00 AM 19.19 66.542 0.395 7.55 10.05 5.32
8/9/2021 6:15:00 AM 19.19 66.542 0.394 7.56 11.57 5.57
8/9/2021 6:30:00 AM 18.99 66.182 0.398 7.54 12.46 5.11
8/9/2021 6:45:00 AM 19.05 66.29 0.396 7.55 27.04 5.69
8/9/2021 7:00:00 AM 19.02 66.236 0.395 7.55 11.96 5.68
8/9/2021 7:15:00 AM 19.03 66.254 0.394 7.56 9.71 5.73
8/9/2021 7:30:00 AM 18.98 66.164 0.394 7.55 21.45 5.8
8/9/2021 7:45:00 AM 18.98 66.164 0.395 7.56 10.57 5.77
8/9/2021 8:00:00 AM 18.96 66.128 0.394 7.57 8.84 5.72
8/9/2021 8:15:00 AM 18.89 66.002 0.395 7.56 8.76 5.73
8/9/2021 8:30:00 AM 18.85 65.93 0.396 7.57 8.32 5.8
8/9/2021 8:45:00 AM 18.85 65.93 0.396 7.58 8.34 5.71
8/9/2021 9:00:00 AM 18.88 65.984 0.396 7.59 8.35 6.12
8/9/2021 9:15:00 AM 18.82 65.876 0.397 7.59 8.09 5.75
8/9/2021 9:30:00 AM 18.88 65.984 0.397 7.61 8.82 6.25
8/9/2021 9:45:00 AM 18.87 65.966 0.398 7.61 7.86 6.14
8/9/2021 10:00:00 AM 18.91 66.038 0.398 7.61 7.57 5.99
8/9/2021 10:15:00 AM 19.05 66.29 0.395 7.65 7.54 6.77
8/9/2021 10:30:00 AM 19.15 66.47 0.393 7.68 8.26 7.05
8/9/2021 10:45:00 AM 19.14 66.452 0.395 7.69 7.76 6.96
8/9/2021 11:00:00 AM 19.09 66.362 0.398 7.69 7.77 6.76
8/9/2021 11:15:00 AM 19.17 66.506 0.398 7.7 8.28 6.96
8/9/2021 11:30:00 AM 19.13 66.434 0.401 7.71 7.38 7.35
8/9/2021 11:45:00 AM 19.49 67.082 0.394 7.76 7.3 7.79
8/9/2021 12:00:00 PM 19.67 67.406 0.392 7.78 7.44 7.97
8/9/2021 12:15:00 PM 19.83 67.694 0.392 7.8 7.55 7.95
8/9/2021 12:30:00 PM 19.94 67.892 0.393 7.81 7.33 7.82
8/9/2021 12:45:00 PM 20 68 0.395 7.81 7.29 7.76
8/9/2021 1:00:00 PM 20.21 68.378 0.393 7.83 7.09 7.91
8/9/2021 1:15:00 PM 20.4 68.72 0.392 7.85 7.3 8.51
8/9/2021 1:30:00 PM 20.49 68.882 0.392 7.85 7.36 8.37
8/9/2021 1:45:00 PM 20.69 69.242 0.393 7.86 8.02 8.2
8/9/2021 2:00:00 PM 20.93 69.674 0.391 7.89 8.09 8.48
8/9/2021 2:15:00 PM 20.91 69.638 0.394 7.87 7.77 8.39
8/9/2021 2:30:00 PM 20.97 69.746 0.394 7.87 7.71 8.25
8/9/2021 2:45:00 PM 21.16 70.088 0.392 7.87 7.37 8.04
8/9/2021 3:00:00 PM 21.25 70.25 0.393 7.89 7.08 8.28
8/9/2021 3:15:00 PM 21.34 70.412 0.394 7.89 7.29 7.98
8/9/2021 3:30:00 PM 21.51 70.718 0.392 7.9 11.81 8.22
8/9/2021 3:45:00 PM 21.76 71.168 0.39 7.92 8.04 8.27
8/9/2021 4:00:00 PM 21.75 71.15 0.391 7.93 7.57 8.41
8/9/2021 4:15:00 PM 21.82 71.276 0.391 7.92 7.64 7.85
8/9/2021 4:30:00 PM 21.9 71.42 0.392 7.94 7.43 7.99
8/9/2021 4:45:00 PM 21.92 71.456 0.391 7.94 7.46 8.15
8/9/2021 5:00:00 PM 22 71.6 0.389 7.91 7.43 7.9
8/9/2021 5:15:00 PM 21.92 71.456 0.391 7.89 7.37 7.58
8/9/2021 5:30:00 PM 21.84 71.312 0.392 7.9 9.94 7.62
8/9/2021 5:45:00 PM 22 71.6 0.389 7.93 8.15 7.82
8/9/2021 6:00:00 PM 21.86 71.348 0.391 7.92 7.75 7.58
8/9/2021 6:15:00 PM 22.01 71.618 0.389 7.92 8 7.88
8/9/2021 6:30:00 PM 21.92 71.456 0.391 7.91 8.17 7.66
8/9/2021 6:45:00 PM 21.95 71.51 0.391 7.9 8.98 7.77
8/9/2021 7:00:00 PM 21.92 71.456 0.391 7.88 15.2 7.34
8/9/2021 7:15:00 PM 22.02 71.636 0.389 7.88 11.54 7.3
8/9/2021 7:30:00 PM 22.01 71.618 0.39 7.87 8.37 7.12
8/9/2021 7:45:00 PM 22.01 71.618 0.389 7.86 7.96 6.87
8/9/2021 8:00:00 PM 21.89 71.402 0.392 7.83 8.53 6.81
8/9/2021 8:15:00 PM 21.93 71.474 0.39 7.83 8.47 6.61
8/9/2021 8:30:00 PM 21.88 71.384 0.392 7.8 8.17 6.47
8/9/2021 8:45:00 PM 21.59 70.862 0.396 7.75 37.59 6.37
8/9/2021 9:00:00 PM 21.74 71.132 0.393 7.77 13.37 6.25
8/9/2021 9:15:00 PM 21.72 71.096 0.394 7.75 10.55 6.26
8/9/2021 9:30:00 PM 21.73 71.114 0.393 7.74 9.65 6.01
8/9/2021 9:45:00 PM 21.65 70.97 0.394 7.73 8.94 5.91
8/9/2021 10:00:00 PM 21.6 70.88 0.395 7.71 8.8 5.84
8/9/2021 10:15:00 PM 21.56 70.808 0.395 7.7 8.88 5.75
8/9/2021 10:30:00 PM 21.32 70.376 0.398 7.67 8.52 5.6
8/9/2021 10:45:00 PM 21.41 70.538 0.396 7.68 8.48 5.64
8/9/2021 11:00:00 PM 21.32 70.376 0.397 7.66 8.49 5.55
8/9/2021 11:15:00 PM 21.23 70.214 0.398 7.65 9.03 5.45
8/9/2021 11:30:00 PM 21.16 70.088 0.399 7.64 8.82 5.29
8/9/2021 11:45:00 PM 21.11 69.998 0.399 7.64 8.37 5.34
8/10/2021 12:00:00 AM 21.06 69.908 0.399 7.62 8.64 5.43
8/10/2021 12:15:00 AM 21.03 69.854 0.398 7.62 8.64 5.34
8/10/2021 12:30:00 AM 20.79 69.422 0.402 7.61 8.65 5.01
8/10/2021 12:45:00 AM 20.75 69.35 0.402 7.6 8.69 5.12
8/10/2021 1:00:00 AM 20.78 69.404 0.4 7.6 8.49 5.18
8/10/2021 1:15:00 AM 20.79 69.422 0.399 7.6 8.35 5.17
8/10/2021 1:30:00 AM 20.74 69.332 0.399 7.6 8.58 5.36
8/10/2021 1:45:00 AM 20.64 69.152 0.401 7.59 9.66 5.4
8/10/2021 2:00:00 AM 20.63 69.134 0.399 7.59 8.9 5.18
8/10/2021 2:15:00 AM 20.51 68.918 0.4 7.58 8.55 5.07
8/10/2021 2:30:00 AM 20.47 68.846 0.4 7.58 8.24 5.07
8/10/2021 2:45:00 AM 20.39 68.702 0.4 7.58 8.54 5.22
8/10/2021 3:00:00 AM 20.28 68.504 0.401 7.57 10.02 5.11
8/10/2021 3:15:00 AM 20.3 68.54 0.4 7.57 9.24 5.24
8/10/2021 3:30:00 AM 20.24 68.432 0.399 7.57 9.14 5.27
8/10/2021 3:45:00 AM 20.13 68.234 0.4 7.57 8.98 5.3
8/10/2021 4:00:00 AM 20.1 68.18 0.399 7.57 8.87 5.42
8/10/2021 4:15:00 AM 20.05 68.09 0.399 7.57 11.1 5.43
8/10/2021 4:30:00 AM 19.92 67.856 0.4 7.56 11.92 5.33
8/10/2021 4:45:00 AM 19.85 67.73 0.4 7.56 12.94 5.4
8/10/2021 5:00:00 AM 19.74 67.532 0.401 7.55 11.46 5.36
8/10/2021 5:15:00 AM 19.68 67.424 0.402 7.55 10.88 5.49
8/10/2021 5:30:00 AM 19.61 67.298 0.403 7.55 10.64 5.48
8/10/2021 5:45:00 AM 19.62 67.316 0.4 7.55 11.71 5.49
8/10/2021 6:00:00 AM 19.6 67.28 0.399 7.55 11.35 5.52
8/10/2021 6:15:00 AM 19.56 67.208 0.399 7.55 10.79 5.48
8/10/2021 6:30:00 AM 19.5 67.1 0.399 7.55 11.44 5.61
8/10/2021 6:45:00 AM 19.23 66.614 0.405 7.54 11.32 5.36
8/10/2021 7:00:00 AM 19.27 66.686 0.403 7.54 11.22 5.49
8/10/2021 7:15:00 AM 19.26 66.668 0.402 7.55 10.37 5.76
8/10/2021 7:30:00 AM 19.25 66.65 0.402 7.55 10.13 5.55
8/10/2021 7:45:00 AM 19.32 66.776 0.401 7.57 10.68 6.04
8/10/2021 8:00:00 AM 19.31 66.758 0.403 7.57 10.64 6.19
8/10/2021 8:15:00 AM 19.31 66.758 0.401 7.58 9.78 6.24
8/10/2021 8:30:00 AM 19.36 66.848 0.401 7.59 10.04 6.44
8/10/2021 8:45:00 AM 19.41 66.938 0.401 7.6 15.25 6.64
8/10/2021 9:00:00 AM 19.43 66.974 0.401 7.61 10.65 6.81
8/10/2021 9:15:00 AM 19.45 67.01 0.402 7.62 9.43 6.57
8/10/2021 9:30:00 AM 19.55 67.19 0.401 7.63 9.53 6.93
8/10/2021 9:45:00 AM 19.62 67.316 0.399 7.66 9.71 7.23
8/10/2021 10:00:00 AM 19.63 67.334 0.4 7.67 9.18 7.37
8/10/2021 10:15:00 AM 19.63 67.334 0.401 7.67 8.69 7.2
8/10/2021 10:30:00 AM 19.67 67.406 0.4 7.68 8.24 7.29
8/10/2021 10:45:00 AM 19.7 67.46 0.399 7.69 8.28 7.26
8/10/2021 11:00:00 AM 19.78 67.604 0.397 7.71 8.35 7.51
8/10/2021 11:15:00 AM 19.86 67.748 0.397 7.73 8.07 7.82
8/10/2021 11:30:00 AM 19.87 67.766 0.399 7.74 8.67 7.85
8/10/2021 11:45:00 AM 20.02 68.036 0.397 7.77 8.44 8.09
8/10/2021 12:00:00 PM 20.08 68.144 0.397 7.77 8.14 8.05
8/10/2021 12:15:00 PM 20.19 68.342 0.396 7.79 9.24 8.25
8/10/2021 12:30:00 PM 20.22 68.396 0.397 7.79 8.51 8.17
8/10/2021 12:45:00 PM 20.36 68.648 0.396 7.81 8.34 8.24
8/10/2021 1:00:00 PM 20.53 68.954 0.396 7.83 8.31 8.55
8/10/2021 1:15:00 PM 20.46 68.828 0.401 7.82 19.2 8.61
8/10/2021 1:30:00 PM 20.77 69.386 0.395 7.87 9.86 8.96
8/10/2021 1:45:00 PM 20.92 69.656 0.393 7.89 8.63 9.13
8/10/2021 2:00:00 PM 20.98 69.764 0.393 7.9 8.37 9.19
8/10/2021 2:15:00 PM 21.05 69.89 0.393 7.91 8.12 8.93
8/10/2021 2:30:00 PM 21.15 70.07 0.394 7.92 8.05 9.02
8/10/2021 2:45:00 PM 21.21 70.17799 0.395 7.92 7.96 9
8/10/2021 3:00:00 PM 21.29 70.32201 0.394 7.92 8.23 8.8
8/10/2021 3:15:00 PM 21.42 70.556 0.392 7.94 8.05 8.89
8/10/2021 3:30:00 PM 21.49 70.682 0.394 7.93 8.05 9.15
8/10/2021 3:45:00 PM 21.73 71.114 0.391 7.97 8.07 9.09
8/10/2021 4:00:00 PM 21.82 71.276 0.391 7.96 7.92 9.03
8/10/2021 4:15:00 PM 21.95 71.51 0.39 7.99 8.06 9.45
8/10/2021 4:30:00 PM 21.97 71.546 0.39 7.98 7.92 9.08
8/10/2021 4:45:00 PM 21.95 71.51 0.391 7.98 7.92 8.74
8/10/2021 5:00:00 PM 22.03 71.654 0.39 7.98 8.16 8.87
8/10/2021 5:15:00 PM 22.04 71.672 0.39 7.97 8.12 8.67
8/10/2021 5:30:00 PM 22.07 71.726 0.39 7.97 8.43 8.87
8/10/2021 5:45:00 PM 21.99 71.582 0.392 7.95 8.44 8.34
8/10/2021 6:00:00 PM 22.01 71.618 0.391 7.95 8.17 8.25
8/10/2021 6:15:00 PM 22 71.6 0.391 7.95 8.41 8.31
8/10/2021 6:30:00 PM 21.92 71.456 0.393 7.94 8.4 8.05
8/10/2021 6:45:00 PM 21.97 71.546 0.392 7.93 8.02 7.96
8/10/2021 7:00:00 PM 21.98 71.564 0.392 7.92 8.22 7.96
8/10/2021 7:15:00 PM 21.98 71.564 0.391 7.91 8.54 7.79
8/10/2021 7:30:00 PM 21.84 71.312 0.393 7.88 9.41 7.56
8/10/2021 7:45:00 PM 21.86 71.348 0.393 7.87 11.63 7.55
8/10/2021 8:00:00 PM 21.73 71.114 0.395 7.84 9.25 7.13
8/10/2021 8:15:00 PM 21.52 70.736 0.399 7.81 8.48 6.92
8/10/2021 8:30:00 PM 21.68 71.024 0.395 7.81 9.69 7.05
8/10/2021 8:45:00 PM 21.64 70.952 0.395 7.8 8.93 6.75
8/10/2021 9:00:00 PM 21.54 70.772 0.396 7.77 8.92 6.6
8/10/2021 9:15:00 PM 21.54 70.772 0.396 7.76 8.97 6.49
8/10/2021 9:30:00 PM 21.43 70.574 0.398 7.73 8.94 6.15
8/10/2021 9:45:00 PM 21.47 70.646 0.397 7.73 9.3 6.19
8/10/2021 10:00:00 PM 21.46 70.628 0.397 7.72 9.33 6.13
8/10/2021 10:15:00 PM 21.4 70.52 0.398 7.71 10.03 6.22
8/10/2021 10:30:00 PM 21.22 70.196 0.402 7.69 9.16 5.92
8/10/2021 10:45:00 PM 21.25 70.25 0.4 7.68 9.38 5.98
8/10/2021 11:00:00 PM 21.22 70.196 0.4 7.67 9.1 5.8
8/10/2021 11:15:00 PM 21.2 70.16 0.401 7.66 9.2 5.75
8/10/2021 11:30:00 PM 21.16 70.088 0.402 7.66 9.43 5.57
8/10/2021 11:45:00 PM 21.1 69.98 0.403 7.64 8.98 5.57
8/11/2021 12:00:00 AM 21.06 69.908 0.403 7.64 9.22 5.53
8/11/2021 12:15:00 AM 21.06 69.908 0.403 7.63 9.36 5.53
8/11/2021 12:30:00 AM 21.05 69.89 0.404 7.63 9.77 5.51
8/11/2021 12:45:00 AM 21.04 69.872 0.403 7.63 9.19 5.55
8/11/2021 1:00:00 AM 21.05 69.89 0.402 7.63 9.43 5.46
8/11/2021 1:15:00 AM 20.84 69.512 0.407 7.61 10.06 5.33
8/11/2021 1:30:00 AM 20.89 69.602 0.405 7.61 9.46 5.41
8/11/2021 1:45:00 AM 20.81 69.458 0.405 7.61 10.28 5.26
8/11/2021 2:00:00 AM 20.78 69.404 0.405 7.6 9.37 5.28
8/11/2021 2:15:00 AM 20.63 69.134 0.408 7.59 9 5.29
8/11/2021 2:30:00 AM 20.6 69.08 0.408 7.59 8.99 5.24
8/11/2021 2:45:00 AM 20.58 69.044 0.408 7.59 8.95 5.15
8/11/2021 3:00:00 AM 20.57 69.026 0.407 7.58 9.14 5.18
8/11/2021 3:15:00 AM 20.57 69.026 0.406 7.58 9.34 5.22
8/11/2021 3:30:00 AM 20.54 68.972 0.407 7.58 9.46 5.18
8/11/2021 3:45:00 AM 20.43 68.774 0.409 7.58 9.44 5.24
8/11/2021 4:00:00 AM 20.38 68.684 0.409 7.58 9.24 5.02
8/11/2021 4:15:00 AM 20.35 68.63 0.409 7.57 9.39 5.09
8/11/2021 4:30:00 AM 20.33 68.594 0.408 7.58 9.42 5.29
8/11/2021 4:45:00 AM 20.28 68.504 0.407 7.57 11.01 5.25
8/11/2021 5:00:00 AM 20.23 68.414 0.409 7.57 10.19 5.18
8/11/2021 5:15:00 AM 20.16 68.288 0.41 7.56 9.81 5.11
8/11/2021 5:30:00 AM 20.14 68.252 0.41 7.57 9.45 5.21
8/11/2021 5:45:00 AM 20.08 68.144 0.41 7.55 12.94 5.08
8/11/2021 6:00:00 AM 20.07 68.126 0.41 7.57 12.81 5.4
8/11/2021 6:15:00 AM 19.95 67.91 0.411 7.56 11.36 5.32
8/11/2021 6:30:00 AM 19.95 67.91 0.411 7.57 11.52 5.41
8/11/2021 6:45:00 AM 19.93 67.874 0.411 7.57 11.13 5.52
8/11/2021 7:00:00 AM 19.9 67.82 0.411 7.57 10.03 5.5
8/11/2021 7:15:00 AM 19.9 67.82 0.411 7.57 9.3 5.54
8/11/2021 7:30:00 AM 19.9 67.82 0.411 7.58 9.03 5.59
8/11/2021 7:45:00 AM 19.85 67.73 0.412 7.58 9.14 5.6
8/11/2021 8:00:00 AM 19.85 67.73 0.412 7.58 8.77 5.67
8/11/2021 8:15:00 AM 19.87 67.766 0.412 7.59 8.68 5.79
8/11/2021 8:30:00 AM 19.9 67.82 0.412 7.6 8.71 5.97
8/11/2021 8:45:00 AM 19.9 67.82 0.412 7.6 8.81 5.95
8/11/2021 9:00:00 AM 19.95 67.91 0.412 7.61 9.64 6.2
8/11/2021 9:15:00 AM 20.01 68.018 0.412 7.63 8.98 6.3
8/11/2021 9:30:00 AM 20.05 68.09 0.411 7.64 9.68 6.64
8/11/2021 9:45:00 AM 20.14 68.252 0.411 7.66 10.07 6.69
8/11/2021 10:00:00 AM 20.18 68.324 0.411 7.66 8.69 6.78
8/11/2021 10:15:00 AM 20.25 68.45 0.411 7.68 8.2 6.99
8/11/2021 10:30:00 AM 20.34 68.612 0.411 7.69 7.8 7.06
8/11/2021 10:45:00 AM 20.15 68.27 0.419 7.66 7.63 6.93
8/11/2021 11:00:00 AM 20.47 68.846 0.41 7.72 12.85 7.48
8/11/2021 11:15:00 AM 20.61 69.098 0.408 7.74 9.15 7.52
8/11/2021 11:30:00 AM 20.67 69.206 0.408 7.75 8.13 7.48
8/11/2021 11:45:00 AM 20.85 69.53 0.407 7.78 54.33 7.92
8/11/2021 12:00:00 PM 20.85 69.53 0.408 7.78 14.66 8.13
8/11/2021 12:15:00 PM 21.02 69.836 0.406 7.8 60.21 8.08
8/11/2021 12:30:00 PM 21.05 69.89 0.406 7.81 17.98 7.99
8/11/2021 12:45:00 PM 21.11 69.998 0.405 7.81 11.98 7.84
8/11/2021 1:00:00 PM 21.23 70.214 0.405 7.83 25 8.08
8/11/2021 1:15:00 PM 21.35 70.43 0.405 7.85 10.06 8.37
8/11/2021 1:30:00 PM 21.51 70.718 0.403 7.87 7.67 8.53
8/11/2021 1:45:00 PM 21.66 70.988 0.403 7.89 7.25 8.64
8/11/2021 2:00:00 PM 21.75 71.15 0.402 7.9 7.06 8.77
8/11/2021 2:15:00 PM 21.81 71.258 0.402 7.9 6.99 8.51
8/11/2021 2:30:00 PM 21.89 71.402 0.401 7.91 7.13 8.58
8/11/2021 2:45:00 PM 22.05 71.69 0.402 7.91 7.15 8.55
8/11/2021 3:00:00 PM 22.25 72.05 0.4 7.93 7.98 8.37
8/11/2021 3:15:00 PM 22.43 72.374 0.399 7.95 7.78 8.92
8/11/2021 3:30:00 PM 22.5 72.5 0.399 7.96 7.47 8.93
8/11/2021 3:45:00 PM 22.42 72.356 0.404 7.92 7.57 8.75
8/11/2021 4:00:00 PM 22.55 72.59 0.399 7.96 7.73 8.69
8/11/2021 4:15:00 PM 22.53 72.554 0.4 7.95 7.37 8.72
8/11/2021 4:30:00 PM 22.48 72.464 0.401 7.93 7.5 8.72
8/11/2021 4:45:00 PM 22.58 72.644 0.399 7.95 7.49 8.66
8/11/2021 5:00:00 PM 22.7 72.86 0.398 7.96 7.49 8.59
8/11/2021 5:15:00 PM 22.74 72.932 0.399 7.97 7.37 8.58
8/11/2021 5:30:00 PM 22.85 73.13 0.397 7.97 7.44 8.58
8/11/2021 5:45:00 PM 22.92 73.256 0.396 7.97 7.44 8.43
8/11/2021 6:00:00 PM 22.89 73.202 0.397 7.97 7.36 8.36
8/11/2021 6:15:00 PM 22.76 72.968 0.398 7.94 7.42 8.23
8/11/2021 6:30:00 PM 22.75 72.95 0.398 7.92 7.5 8
8/11/2021 6:45:00 PM 22.75 72.95 0.399 7.91 7.47 7.83
8/11/2021 7:00:00 PM 22.58 72.644 0.402 7.88 7.46 7.57
8/11/2021 7:15:00 PM 22.65 72.77 0.399 7.88 7.71 7.33
8/11/2021 7:30:00 PM 22.7 72.86 0.398 7.86 7.89 7.29
8/11/2021 7:45:00 PM 22.59 72.662 0.401 7.84 7.67 7.17
8/11/2021 8:00:00 PM 22.46 72.42799 0.403 7.83 7.72 6.93
8/11/2021 8:15:00 PM 22.57 72.626 0.4 7.83 7.8 6.89
8/11/2021 8:30:00 PM 22.52 72.536 0.401 7.81 7.73 6.58
8/11/2021 8:45:00 PM 22.31 72.158 0.404 7.76 7.97 6.28
8/11/2021 9:00:00 PM 22.26 72.068 0.405 7.76 8.15 6.35
8/11/2021 9:15:00 PM 22.25 72.05 0.404 7.74 10.17 6.14
8/11/2021 9:30:00 PM 22.24 72.032 0.405 7.71 8.62 5.84
8/11/2021 9:45:00 PM 22.28 72.104 0.403 7.73 8.3 5.77
8/11/2021 10:00:00 PM 22.2 71.96 0.403 7.71 8.66 5.82
8/11/2021 10:15:00 PM 22.07 71.726 0.406 7.69 8.48 5.67
8/11/2021 10:30:00 PM 22.19 71.942 0.404 7.69 8.38 5.69
8/11/2021 10:45:00 PM 21.92 71.456 0.41 7.66 8.06 5.33
8/11/2021 11:00:00 PM 21.98 71.564 0.406 7.66 7.9 5.21
8/11/2021 11:15:00 PM 21.98 71.564 0.405 7.66 7.95 5.28
8/11/2021 11:30:00 PM 21.87 71.366 0.406 7.64 8.18 5.31
8/11/2021 11:45:00 PM 21.83 71.294 0.407 7.64 8.85 5.26
8/12/2021 12:00:00 AM 21.8 71.24 0.407 7.63 8.29 5.18
8/12/2021 12:15:00 AM 21.66 70.988 0.408 7.62 8.21 5.08
8/12/2021 12:30:00 AM 21.68 71.024 0.408 7.61 8.18 5.19
8/12/2021 12:45:00 AM 21.54 70.772 0.41 7.6 7.98 5.18
8/12/2021 1:00:00 AM 21.39 70.502 0.411 7.59 8.16 5.22
8/12/2021 1:15:00 AM 21.54 70.772 0.408 7.6 8.83 5.02
8/12/2021 1:30:00 AM 21.6 70.88 0.408 7.6 8.17 5.08
8/12/2021 1:45:00 AM 21.55 70.79 0.409 7.6 7.99 5.15
8/12/2021 2:00:00 AM 21.46 70.628 0.409 7.6 8.56 4.96
8/12/2021 2:15:00 AM 21.16 70.088 0.413 7.57 9.15 4.86
8/12/2021 2:30:00 AM 21.1 69.98 0.414 7.56 9.99 4.96
8/12/2021 2:45:00 AM 21.09 69.962 0.411 7.57 8.38 4.94
8/12/2021 3:00:00 AM 21.09 69.962 0.412 7.58 8.21 4.97
8/12/2021 3:15:00 AM 20.99 69.782 0.413 7.57 8.19 5.08
8/12/2021 3:30:00 AM 20.89 69.602 0.414 7.56 8.37 4.89
8/12/2021 3:45:00 AM 20.81 69.458 0.414 7.56 8.17 4.83
8/12/2021 4:00:00 AM 20.57 69.026 0.418 7.54 8.23 4.86
8/12/2021 4:15:00 AM 20.65 69.17 0.415 7.55 8.32 4.98
8/12/2021 4:30:00 AM 20.49 68.882 0.417 7.54 8.3 4.97
8/12/2021 4:45:00 AM 20.49 68.882 0.416 7.55 8.24 5.02
8/12/2021 5:00:00 AM 20.47 68.846 0.415 7.55 8.46 5.08
8/12/2021 5:15:00 AM 20.24 68.432 0.419 7.54 8.31 4.89
8/12/2021 5:30:00 AM 20 68 0.424 7.52 8.48 4.9
8/12/2021 5:45:00 AM 20.14 68.252 0.419 7.53 8.92 4.87
8/12/2021 6:00:00 AM 20.1 68.18 0.419 7.53 21.04 4.96
8/12/2021 6:15:00 AM 20 68 0.419 7.53 11.19 4.96
8/12/2021 6:30:00 AM 19.87 67.766 0.421 7.52 8.57 4.9
8/12/2021 6:45:00 AM 19.7 67.46 0.425 7.51 8.56 4.91
8/12/2021 7:00:00 AM 19.58 67.244 0.425 7.5 15.49 4.96
8/12/2021 7:15:00 AM 19.44 66.992 0.428 7.5 19.51 4.8
8/12/2021 7:30:00 AM 19.55 67.19 0.423 7.52 10.38 4.83
8/12/2021 7:45:00 AM 19.84 67.712 0.417 7.54 13.18 5.16
8/12/2021 8:00:00 AM 19.66 67.388 0.42 7.53 8.84 5.15
8/12/2021 8:15:00 AM 19.74 67.532 0.419 7.55 7.82 5.26
8/12/2021 8:30:00 AM 19.78 67.604 0.419 7.56 7.48 5.23
8/12/2021 8:45:00 AM 19.82 67.676 0.417 7.56 7.61 5.48
8/12/2021 9:00:00 AM 19.96 67.92799 0.414 7.59 7.77 5.8
8/12/2021 9:15:00 AM 19.68 67.424 0.42 7.57 7.28 5.71
8/12/2021 9:30:00 AM 19.93 67.874 0.415 7.6 7.55 5.79
8/12/2021 9:45:00 AM 19.89 67.802 0.416 7.6 7.54 5.98
8/12/2021 10:00:00 AM 20.01 68.018 0.416 7.62 7.09 6.01
8/12/2021 10:15:00 AM 20.1 68.18 0.417 7.63 6.97 6.22
8/12/2021 10:30:00 AM 19.99 67.982 0.421 7.62 7.04 6.1
8/12/2021 10:45:00 AM 20.36 68.648 0.416 7.66 7.08 6.74
8/12/2021 11:00:00 AM 20.33 68.594 0.418 7.65 8.78 6.63
8/12/2021 11:15:00 AM 20.38 68.684 0.418 7.68 7.45 6.64
8/12/2021 11:30:00 AM 20.37 68.666 0.42 7.69 6.7 6.7
8/12/2021 11:45:00 AM 20.45 68.81 0.421 7.68 6.89 6.96
8/12/2021 12:00:00 PM 20.47 68.846 0.417 7.69 7.15 6.92
8/12/2021 12:15:00 PM 20.62 69.116 0.414 7.72 7.05 7.18
8/12/2021 12:30:00 PM 20.58 69.044 0.418 7.72 7.4 7.24
8/12/2021 12:45:00 PM 20.77 69.386 0.415 7.72 6.93 7.2
8/12/2021 1:00:00 PM 20.95 69.71 0.414 7.74 6.7 7.55
8/12/2021 1:15:00 PM 21.14 70.052 0.414 7.77 6.61 7.56
8/12/2021 1:30:00 PM 21.24 70.232 0.413 7.78 6.69 7.65
8/12/2021 1:45:00 PM 21.25 70.25 0.413 7.79 6.88 7.69
8/12/2021 2:00:00 PM 21.6 70.88 0.41 7.83 7.8 7.79
8/12/2021 2:15:00 PM 21.34 70.412 0.417 7.76 6.91 7.77
8/12/2021 2:30:00 PM 21.39 70.502 0.418 7.8 6.8 7.86
8/12/2021 2:45:00 PM 21.63 70.934 0.414 7.82 6.66 7.95
8/12/2021 3:00:00 PM 21.65 70.97 0.413 7.82 6.66 8
8/12/2021 3:15:00 PM 21.52 70.736 0.416 7.81 6.78 7.78
8/12/2021 3:30:00 PM 21.63 70.934 0.412 7.81 6.74 7.74
8/12/2021 3:45:00 PM 21.71 71.078 0.41 7.8 6.88 7.5
8/12/2021 4:00:00 PM 21.43 70.574 0.414 7.75 6.65 7.26
8/12/2021 4:15:00 PM 21.67 71.006 0.413 7.8 7.1 7.48
8/12/2021 4:30:00 PM 21.73 71.114 0.413 7.8 6.77 7.4
8/12/2021 4:45:00 PM 21.67 71.006 0.416 7.79 6.7 7.38
8/12/2021 5:00:00 PM 21.89 71.402 0.411 7.84 9.54 7.47
8/12/2021 5:15:00 PM 21.44 70.592 0.417 7.74 7.51 7.41
8/12/2021 5:30:00 PM 21.54 70.772 0.418 7.79 6.86 7.4
8/12/2021 5:45:00 PM 21.96 71.528 0.409 7.82 6.98 7.48
8/12/2021 6:00:00 PM 22.02 71.636 0.406 7.82 7.24 7.14
8/12/2021 6:15:00 PM 21.88 71.384 0.408 7.78 6.89 7.17
8/12/2021 6:30:00 PM 21.76 71.168 0.41 7.77 7.15 7.15
8/12/2021 6:45:00 PM 21.75 71.15 0.41 7.75 7.02 6.95
8/12/2021 7:00:00 PM 21.65 70.97 0.412 7.74 7.23 6.68
8/12/2021 7:15:00 PM 21.69 71.042 0.412 7.76 7.15 6.75
8/12/2021 7:30:00 PM 21.62 70.916 0.412 7.73 7.07 6.56
8/12/2021 7:45:00 PM 21.47 70.646 0.414 7.69 7.04 6.46
8/12/2021 8:00:00 PM 21.41 70.538 0.416 7.68 7.3 6.35
8/12/2021 8:15:00 PM 21.25 70.25 0.419 7.69 7.35 6.17
8/12/2021 8:30:00 PM 21.68 71.024 0.411 7.72 7.51 6.27
8/12/2021 8:45:00 PM 21.53 70.754 0.414 7.69 7.31 6.15
8/12/2021 9:00:00 PM 21.5 70.7 0.413 7.66 7.56 6.03
8/12/2021 9:15:00 PM 21.58 70.844 0.413 7.67 7.72 5.94
8/12/2021 9:30:00 PM 21.44 70.592 0.414 7.64 7.64 5.87
8/12/2021 9:45:00 PM 21.33 70.394 0.416 7.64 7.41 5.68
8/12/2021 10:00:00 PM 21.46 70.628 0.413 7.64 7.63 5.59
8/12/2021 10:15:00 PM 21.22 70.196 0.417 7.63 7.67 5.57
8/12/2021 10:30:00 PM 21.1 69.98 0.42 7.6 7.49 5.48
8/12/2021 10:45:00 PM 21.09 69.962 0.419 7.59 7.6 5.34
8/12/2021 11:00:00 PM 21.4 70.52 0.413 7.61 7.7 5.41
8/12/2021 11:15:00 PM 21.34 70.412 0.413 7.61 8.26 5.4
8/12/2021 11:30:00 PM 21.16 70.088 0.416 7.58 7.89 5.22
8/12/2021 11:45:00 PM 21.22 70.196 0.414 7.59 7.55 5.27
8/13/2021 12:00:00 AM 21.11 69.998 0.415 7.58 7.67 5.28
8/13/2021 12:15:00 AM 20.73 69.314 0.424 7.54 9.72 5.12
8/13/2021 12:30:00 AM 21.06 69.908 0.417 7.57 8.19 5.28
8/13/2021 12:45:00 AM 21.07 69.926 0.416 7.57 8.16 5.19
8/13/2021 1:00:00 AM 20.94 69.692 0.418 7.56 7.94 5.12
8/13/2021 1:15:00 AM 20.69 69.242 0.424 7.56 7.56 5.09
8/13/2021 1:30:00 AM 20.81 69.458 0.42 7.55 8.22 5.07
8/13/2021 1:45:00 AM 20.77 69.386 0.419 7.55 7.69 5.09
8/13/2021 2:00:00 AM 20.7 69.26 0.423 7.54 7.7 5.02
8/13/2021 2:15:00 AM 20.29 68.522 0.429 7.52 7.72 5.07
8/13/2021 2:30:00 AM 20.68 69.224 0.42 7.55 7.73 4.99
8/13/2021 2:45:00 AM 20.23 68.414 0.429 7.52 8.68 4.89
8/13/2021 3:00:00 AM 20.22 68.396 0.427 7.53 8.57 4.98
8/13/2021 3:15:00 AM 20.29 68.522 0.426 7.52 7.98 4.98
8/13/2021 3:30:00 AM 20.31 68.558 0.424 7.54 8.12 4.96
8/13/2021 3:45:00 AM 20.14 68.252 0.426 7.52 7.49 4.99
8/13/2021 4:00:00 AM 20.08 68.144 0.428 7.51 7.8 4.96
8/13/2021 4:15:00 AM 20.01 68.018 0.429 7.52 7.73 5.01
8/13/2021 4:30:00 AM 20.09 68.162 0.426 7.51 7.69 5.05
8/13/2021 4:45:00 AM 19.81 67.658 0.432 7.5 7.82 5.06
8/13/2021 5:00:00 AM 19.98 67.964 0.425 7.52 7.88 5.16
8/13/2021 5:15:00 AM 19.76 67.568 0.428 7.5 7.82 4.94
8/13/2021 5:30:00 AM 19.65 67.37 0.43 7.5 8.69 4.85
8/13/2021 5:45:00 AM 19.9 67.82 0.424 7.53 25.61 4.79
8/13/2021 6:00:00 AM 19.68 67.424 0.428 7.51 14.82 4.89
8/13/2021 6:15:00 AM 19.63 67.334 0.429 7.52 10.08 4.92
8/13/2021 6:30:00 AM 19.63 67.334 0.428 7.49 14.6 4.83
8/13/2021 6:45:00 AM 19.61 67.298 0.427 7.5 8.54 5.04
8/13/2021 7:00:00 AM 19.59 67.262 0.426 7.51 7.18 5.16
8/13/2021 7:15:00 AM 19.72 67.496 0.426 7.53 6.89 5.22
8/13/2021 7:30:00 AM 19.49 67.082 0.43 7.51 6.7 5.12
8/13/2021 7:45:00 AM 19.7 67.46 0.423 7.54 8.3 5.17
8/13/2021 8:00:00 AM 19.56 67.208 0.427 7.51 7.03 5.32
8/13/2021 8:15:00 AM 19.7 67.46 0.425 7.55 7.37 5.36
8/13/2021 8:30:00 AM 19.47 67.046 0.428 7.54 6.53 5.3
8/13/2021 8:45:00 AM 19.46 67.028 0.428 7.54 66.77 5.78
8/13/2021 9:00:00 AM 19.61 67.298 0.425 7.56 16.4 5.67
8/13/2021 9:15:00 AM 19.54 67.172 0.427 7.54 8.65 5.73
8/13/2021 9:30:00 AM 19.71 67.478 0.426 7.57 7.15 5.85
8/13/2021 9:45:00 AM 19.8 67.64 0.424 7.59 6.81 5.93
8/13/2021 10:00:00 AM 19.7 67.46 0.426 7.58 6.61 6.14
8/13/2021 10:15:00 AM 19.91 67.838 0.423 7.62 6.69 6.41
8/13/2021 10:30:00 AM 20.04 68.07201 0.422 7.63 6.45 6.54
8/13/2021 10:45:00 AM 19.98 67.964 0.427 7.61 6.41 6.67
8/13/2021 11:00:00 AM 20.16 68.288 0.426 7.64 6.44 6.83
8/13/2021 11:15:00 AM 20.16 68.288 0.425 7.65 6.61 6.98
8/13/2021 11:30:00 AM 20.45 68.81 0.42 7.69 6.49 7.22
8/13/2021 11:45:00 AM 20.49 68.882 0.423 7.7 6.78 7.24
8/13/2021 12:00:00 PM 20.62 69.116 0.422 7.7 6.52 7.42
8/13/2021 12:15:00 PM 20.54 68.972 0.426 7.67 6.46 7.32
8/13/2021 12:30:00 PM 20.64 69.152 0.427 7.7 6.58 7.34
8/13/2021 12:45:00 PM 20.7 69.26 0.428 7.71 6.46 7.41
8/13/2021 1:00:00 PM 20.75 69.35 0.427 7.7 6.22 7.39
8/13/2021 1:15:00 PM 21 69.8 0.425 7.73 9.16 7.71
8/13/2021 1:30:00 PM 21.39 70.502 0.421 7.78 7.39 8.01
8/13/2021 1:45:00 PM 21.56 70.808 0.419 7.8 7.5 8.13
8/13/2021 2:00:00 PM 21.71 71.078 0.419 7.81 7.24 8.11
8/13/2021 2:15:00 PM 21.53 70.754 0.424 7.77 6.64 7.86
8/13/2021 2:30:00 PM 21.8 71.24 0.421 7.78 7.04 8.04
8/13/2021 2:45:00 PM 21.76 71.168 0.422 7.77 6.88 8
8/13/2021 3:00:00 PM 21.85 71.33 0.422 7.76 8.52 7.95
8/13/2021 3:15:00 PM 21.93 71.474 0.423 7.81 6.9 8.1
8/13/2021 3:30:00 PM 21.95 71.51 0.425 7.81 6.41 8.15
8/13/2021 3:45:00 PM 22.2 71.96 0.42 7.8 6.67 8.14
8/13/2021 4:00:00 PM 22.16 71.888 0.421 7.81 7.15 8.15
8/13/2021 4:15:00 PM 22 71.6 0.417 7.81 9 7.98
8/13/2021 4:30:00 PM 22.01 71.618 0.412 7.83 11.18 7.58
8/13/2021 4:45:00 PM 22.03 71.654 0.407 7.79 9.93 7.64
8/13/2021 5:00:00 PM 22.07 71.726 0.41 7.79 8.94 7.61
8/13/2021 5:15:00 PM 22.23 72.014 0.409 7.8 8.07 7.66
8/13/2021 5:30:00 PM 22.05 71.69 0.413 7.76 7.88 7.2
8/13/2021 5:45:00 PM 22.36 72.248 0.407 7.82 8.61 7.34
8/13/2021 6:00:00 PM 22.14 71.852 0.409 7.79 8.66 7.19
8/13/2021 6:15:00 PM 21.98 71.564 0.41 7.75 8.35 6.89
8/13/2021 6:30:00 PM 22.2 71.96 0.404 7.78 8.79 6.83
8/13/2021 6:45:00 PM 21.95 71.51 0.406 7.74 9.09 6.69
8/13/2021 7:00:00 PM 21.8 71.24 0.408 7.74 9.02 6.79
8/13/2021 7:15:00 PM 21.79 71.222 0.405 7.73 8.64 6.61
8/13/2021 7:30:00 PM 21.81 71.258 0.405 7.72 8.46 6.48
8/13/2021 7:45:00 PM 21.76 71.168 0.406 7.69 7.86 6.32
8/13/2021 8:00:00 PM 21.75 71.15 0.407 7.7 7.67 6.34
8/13/2021 8:15:00 PM 21.87 71.366 0.405 7.7 8 6.04
8/13/2021 8:30:00 PM 21.58 70.844 0.414 7.66 7.97 6.07
8/13/2021 8:45:00 PM 21.67 71.006 0.412 7.64 7.82 5.94
8/13/2021 9:00:00 PM 21.72 71.096 0.411 7.63 8.17 5.85
8/13/2021 9:15:00 PM 21.68 71.024 0.409 7.62 8.13 5.79
8/13/2021 9:30:00 PM 21.78 71.204 0.408 7.64 7.8 5.7
8/13/2021 9:45:00 PM 21.67 71.006 0.408 7.61 8.02 5.54
8/13/2021 10:00:00 PM 21.3 70.34 0.416 7.57 8.2 5.36
8/13/2021 10:15:00 PM 21.37 70.466 0.414 7.58 8.06 5.23
8/13/2021 10:30:00 PM 21.6 70.88 0.41 7.57 7.91 5.11
8/13/2021 10:45:00 PM 21.57 70.826 0.411 7.56 8.04 5.07
8/13/2021 11:00:00 PM 21.44 70.592 0.415 7.56 7.86 5.09
8/13/2021 11:15:00 PM 21.56 70.808 0.412 7.57 8.1 4.95
8/13/2021 11:30:00 PM 21.57 70.826 0.411 7.57 8.09 4.99
8/13/2021 11:45:00 PM 21.53 70.754 0.411 7.57 32.57 5.01
8/14/2021 12:00:00 AM 20.32 68.576 0.399 7.23 7.13 4.78
8/14/2021 12:15:00 AM 21.05 69.89 0.416 7.5 8.08 4.95
8/14/2021 12:30:00 AM 21.02 69.836 0.419 7.53 7.54 4.89
8/14/2021 12:45:00 AM 21.14 70.052 0.415 7.55 7.76 4.9
8/14/2021 1:00:00 AM 21.31 70.358 0.413 7.55 7.44 4.89
8/14/2021 1:15:00 AM 21.01 69.818 0.418 7.55 7.12 4.89
8/14/2021 1:30:00 AM 21.16 70.088 0.414 7.55 7.31 4.87
8/14/2021 1:45:00 AM 21.01 69.818 0.414 7.53 7.45 4.89
8/14/2021 2:00:00 AM 20.81 69.458 0.418 7.53 7.64 4.92
8/14/2021 2:15:00 AM 20.85 69.53 0.415 7.54 7.51 4.92
8/14/2021 2:30:00 AM 20.94 69.692 0.413 7.54 7.39 4.94
8/14/2021 2:45:00 AM 21.05 69.89 0.41 7.56 8.01 4.98
8/14/2021 3:00:00 AM 20.99 69.782 0.41 7.56 7.6 5.08
8/14/2021 3:15:00 AM 20.97 69.746 0.41 7.56 8.27 5.01
8/14/2021 3:30:00 AM 20.84 69.512 0.412 7.55 7.62 4.99
8/14/2021 3:45:00 AM 20.81 69.458 0.412 7.55 7.86 5.08
8/14/2021 4:00:00 AM 20.75 69.35 0.411 7.55 8.04 5.09
8/14/2021 4:15:00 AM 20.61 69.098 0.415 7.54 8.26 4.95
8/14/2021 4:30:00 AM 20.78 69.404 0.41 7.55 8.11 5.07
8/14/2021 4:45:00 AM 20.62 69.116 0.412 7.54 8 5.03
8/14/2021 5:00:00 AM 20.52 68.936 0.413 7.54 7.49 5
8/14/2021 5:15:00 AM 20.43 68.774 0.415 7.53 7.72 5.01
8/14/2021 5:30:00 AM 20.45 68.81 0.414 7.54 9.91 5.04
8/14/2021 5:45:00 AM 20.34 68.612 0.414 7.53 8.43 5
8/14/2021 6:00:00 AM 20.4 68.72 0.413 7.55 81.32 5.02
8/14/2021 6:15:00 AM 20.42 68.756 0.412 7.55 20.54 5.17
8/14/2021 6:30:00 AM 20.38 68.684 0.411 7.55 10.78 5.17
8/14/2021 6:45:00 AM 20.21 68.378 0.414 7.52 8.41 4.89
8/14/2021 7:00:00 AM 20.17 68.306 0.413 7.54 8.51 4.98
8/14/2021 7:15:00 AM 20.09 68.162 0.414 7.53 7.88 4.92
8/14/2021 7:30:00 AM 20.09 68.162 0.411 7.54 8.05 5.2
8/14/2021 7:45:00 AM 20.12 68.216 0.41 7.55 8.13 5.18
8/14/2021 8:00:00 AM 20 68 0.411 7.55 8.18 5.07
8/14/2021 8:15:00 AM 20 68 0.411 7.54 8.98 4.81
8/14/2021 8:30:00 AM 20.01 68.018 0.409 7.55 8.54 5.03
8/14/2021 8:45:00 AM 19.7 67.46 0.413 7.53 104.82 4.95
8/14/2021 9:00:00 AM 19.59 67.262 0.413 7.54 22.61 5.13
8/14/2021 9:15:00 AM 19.58 67.244 0.415 7.54 10.35 5.28
8/14/2021 9:30:00 AM 19.41 66.938 0.417 7.54 9.25 5.28
8/14/2021 9:45:00 AM 19.68 67.424 0.411 7.56 8.32 5.47
8/14/2021 10:00:00 AM 19.57 67.226 0.413 7.57 8.2 5.42
8/14/2021 10:15:00 AM 19.69 67.442 0.408 7.59 7.72 5.84
8/14/2021 10:30:00 AM 19.24 66.632 0.417 7.56 7.83 5.45
8/14/2021 10:45:00 AM 19.46 67.028 0.411 7.59 8.64 5.82
8/14/2021 11:00:00 AM 19.32 66.776 0.413 7.57 8.09 5.67
8/14/2021 11:15:00 AM 19.52 67.136 0.409 7.6 7.98 5.68
8/14/2021 11:30:00 AM 19.52 67.136 0.409 7.62 7.88 5.86
8/14/2021 11:45:00 AM 19.53 67.154 0.408 7.65 8.56 6.09
8/14/2021 12:00:00 PM 19.61 67.298 0.409 7.65 7.8 6.42
8/14/2021 12:15:00 PM 19.63 67.334 0.408 7.66 7.6 6.25
8/14/2021 12:30:00 PM 19.63 67.334 0.41 7.68 7.6 6.69
8/14/2021 12:45:00 PM 19.68 67.424 0.41 7.68 7.67 6.89
8/14/2021 1:00:00 PM 19.8 67.64 0.411 7.68 7.52 6.97
8/14/2021 1:15:00 PM 19.87 67.766 0.406 7.73 7.71 6.87
8/14/2021 1:30:00 PM 19.82 67.676 0.41 7.7 7.62 6.99
8/14/2021 1:45:00 PM 19.91 67.838 0.409 7.71 7.68 6.92
8/14/2021 2:00:00 PM 19.75 67.55 0.417 7.68 7.58 6.96
8/14/2021 2:15:00 PM 19.69 67.442 0.417 7.67 7.63 7.12
8/14/2021 2:30:00 PM 20.03 68.054 0.412 7.75 7.49 7.44
8/14/2021 2:45:00 PM 20.26 68.468 0.411 7.79 8.07 7.6
8/14/2021 3:00:00 PM 20.24 68.432 0.413 7.73 8.4 7.55
8/14/2021 3:15:00 PM 20.34 68.612 0.408 7.75 45.96 7.19
8/14/2021 3:30:00 PM 20.57 69.026 0.408 7.78 13.71 7.88
8/14/2021 3:45:00 PM 20.83 69.494 0.405 7.82 7.97 8.28
8/14/2021 4:00:00 PM 20.65 69.17 0.41 7.77 7.54 7.81
8/14/2021 4:15:00 PM 20.96 69.728 0.404 7.84 7.33 8.15
8/14/2021 4:30:00 PM 20.92 69.656 0.404 7.82 6.87 8.03
8/14/2021 4:45:00 PM 20.94 69.692 0.406 7.82 6.91 7.83
8/14/2021 5:00:00 PM 20.77 69.386 0.409 7.82 6.87 7.82
8/14/2021 5:15:00 PM 20.67 69.206 0.413 7.77 7.42 7.45
8/14/2021 5:30:00 PM 20.95 69.71 0.405 7.84 10.25 8.17
8/14/2021 5:45:00 PM 21.03 69.854 0.404 7.83 8.49 7.72
8/14/2021 6:00:00 PM 20.65 69.17 0.413 7.77 7.27 7.4
8/14/2021 6:15:00 PM 20.75 69.35 0.408 7.75 7.05 7.44
8/14/2021 6:30:00 PM 20.72 69.296 0.41 7.77 7.29 7.4
8/14/2021 6:45:00 PM 20.55 68.99 0.411 7.74 7.01 7.04
8/14/2021 7:00:00 PM 20.65 69.17 0.406 7.76 7.07 6.99
8/14/2021 7:15:00 PM 20.48 68.864 0.41 7.76 7.23 7.13
8/14/2021 7:30:00 PM 20.32 68.576 0.411 7.74 6.98 6.68
8/14/2021 7:45:00 PM 20 68 0.415 7.69 7.13 6.37
8/14/2021 8:00:00 PM 20.19 68.342 0.41 7.71 7.23 6.38
8/14/2021 8:15:00 PM 20.06 68.108 0.41 7.69 7.15 6.41
8/14/2021 8:30:00 PM 19.74 67.532 0.418 7.63 7.6 5.99
8/14/2021 8:45:00 PM 19.94 67.892 0.412 7.69 7.94 6.18
8/14/2021 9:00:00 PM 19.87 67.766 0.411 7.66 8.02 5.97
8/14/2021 9:15:00 PM 19.86 67.748 0.41 7.66 8.12 5.88
8/14/2021 9:30:00 PM 19.78 67.604 0.41 7.64 7.82 6.08
8/14/2021 9:45:00 PM 19.46 67.028 0.419 7.62 7.86 5.68
8/14/2021 10:00:00 PM 19.38 66.884 0.421 7.59 7.93 5.48
8/14/2021 10:15:00 PM 19.44 66.992 0.414 7.62 7.84 5.58
8/14/2021 10:30:00 PM 19.56 67.208 0.41 7.63 7.77 5.58
8/14/2021 10:45:00 PM 19.46 67.028 0.412 7.61 8.21 5.46
8/14/2021 11:00:00 PM 19.58 67.244 0.407 7.62 8.2 5.61
8/14/2021 11:15:00 PM 19.27 66.686 0.413 7.59 7.79 5.3
8/14/2021 11:30:00 PM 19.16 66.488 0.415 7.57 7.87 5.21
8/14/2021 11:45:00 PM 19.42 66.956 0.407 7.62 7.91 5.47
8/15/2021 12:00:00 AM 19.05 66.29 0.414 7.59 7.94 5.2
8/15/2021 12:15:00 AM 19.17 66.506 0.413 7.58 7.95 5.33
8/15/2021 12:30:00 AM 19 66.2 0.413 7.57 7.8 5.44
8/15/2021 12:45:00 AM 18.85 65.93 0.415 7.56 7.88 5.22
8/15/2021 1:00:00 AM 18.67 65.606 0.421 7.56 7.56 5.01
8/15/2021 1:15:00 AM 18.54 65.372 0.422 7.54 7.62 5.16
8/15/2021 1:30:00 AM 18.63 65.534 0.418 7.55 7.76 5.26
8/15/2021 1:45:00 AM 18.37 65.066 0.42 7.52 7.68 4.84
8/15/2021 2:00:00 AM 18.41 65.138 0.419 7.55 8.01 5.15
8/15/2021 2:15:00 AM 18.26 64.868 0.423 7.54 7.75 5.24
8/15/2021 2:30:00 AM 18.26 64.868 0.42 7.55 7.71 5.31
8/15/2021 2:45:00 AM 18.33 64.994 0.417 7.57 7.88 5.42
8/15/2021 3:00:00 AM 18.06 64.508 0.422 7.54 8.53 5.24
8/15/2021 3:15:00 AM 18.1 64.58 0.416 7.56 8.03 5.14
8/15/2021 3:30:00 AM 18.17 64.706 0.414 7.57 8.21 5.46
8/15/2021 3:45:00 AM 17.81 64.058 0.422 7.53 7.94 5.24
8/15/2021 4:00:00 AM 17.83 64.094 0.422 7.54 8.39 5.29
8/15/2021 4:15:00 AM 17.69 63.842 0.421 7.53 8.09 5.25
8/15/2021 4:30:00 AM 17.5 63.5 0.424 7.54 8.2 5.37
8/15/2021 4:45:00 AM 17.51 63.518 0.423 7.53 8.07 5.33
8/15/2021 5:00:00 AM 17.37 63.266 0.424 7.53 7.78 5.43
8/15/2021 5:15:00 AM 17.32 63.176 0.424 7.54 7.99 5.4
8/15/2021 5:30:00 AM 17.21 62.978 0.423 7.54 7.67 5.34
8/15/2021 5:45:00 AM 17.1 62.78 0.425 7.54 7.91 5.32
8/15/2021 6:00:00 AM 17.02 62.636 0.424 7.54 8.04 5.27
8/15/2021 6:15:00 AM 16.75 62.15 0.431 7.5 8.29 5.24
8/15/2021 6:30:00 AM 16.83 62.294 0.429 7.52 8.3 5.45
8/15/2021 6:45:00 AM 16.8 62.24 0.422 7.55 8.3 5.5
8/15/2021 7:00:00 AM 16.47 61.646 0.438 7.52 8.17 5.28
8/15/2021 7:15:00 AM 16.41 61.538 0.433 7.51 8.24 5.44
8/15/2021 7:30:00 AM 16.63 61.934 0.424 7.55 8.21 5.54
8/15/2021 7:45:00 AM 16.68 62.024 0.422 7.57 8.82 5.85
8/15/2021 8:00:00 AM 16.66 61.988 0.42 7.57 9.11 5.85
8/15/2021 8:15:00 AM 16.58 61.844 0.424 7.57 9.48 5.88
8/15/2021 8:30:00 AM 16.6 61.88 0.42 7.58 8.59 5.92
8/15/2021 8:45:00 AM 16.45 61.61 0.426 7.57 8.39 5.98
8/15/2021 9:00:00 AM 16.58 61.844 0.422 7.58 8.48 6.11
8/15/2021 9:15:00 AM 16.47 61.646 0.43 7.56 11.32 6.26
8/15/2021 9:30:00 AM 16.65 61.97 0.422 7.6 8.46 6.41
8/15/2021 9:45:00 AM 16.73 62.114 0.42 7.62 23.68 6.71
8/15/2021 10:00:00 AM 16.64 61.952 0.425 7.6 9.7 6.3
8/15/2021 10:15:00 AM 16.59 61.862 0.43 7.6 7.47 6.43
8/15/2021 10:30:00 AM 16.33 61.394 0.437 7.56 7.06 6.11
8/15/2021 10:45:00 AM 16.75 62.15 0.432 7.6 7.13 6.56
8/15/2021 11:00:00 AM 17.06 62.708 0.426 7.64 7.49 7.01
8/15/2021 11:15:00 AM 17.03 62.654 0.432 7.62 7.18 7.02
8/15/2021 11:30:00 AM 17.41 63.338 0.422 7.69 7.07 7.53
8/15/2021 11:45:00 AM 16.98 62.564 0.44 7.6 6.84 6.91
8/15/2021 12:00:00 PM 16.86 62.348 0.44 7.58 6.79 6.7
8/15/2021 12:15:00 PM 17.24 63.032 0.437 7.65 7.02 7.12
8/15/2021 12:30:00 PM 17.59 63.662 0.429 7.67 6.81 7.16
8/15/2021 12:45:00 PM 17.52 63.536 0.431 7.66 6.79 6.71
8/15/2021 1:00:00 PM 17.91 64.238 0.426 7.71 6.93 7.55
8/15/2021 1:15:00 PM 17.81 64.058 0.428 7.69 7.11 7.47
8/15/2021 1:30:00 PM 18.11 64.598 0.424 7.75 8.87 7.58
8/15/2021 1:45:00 PM 18.03 64.454 0.43 7.72 7.32 7.32
8/15/2021 2:00:00 PM 18.03 64.454 0.438 7.72 7.25 7.92
8/15/2021 2:15:00 PM 18.32 64.976 0.427 7.73 6.94 7.91
8/15/2021 2:30:00 PM 18.56 65.408 0.425 7.75 6.92 8.14
8/15/2021 2:45:00 PM 18.54 65.372 0.426 7.77 6.81 8.09
8/15/2021 3:00:00 PM 18.91 66.038 0.421 7.81 7.48 8.27
8/15/2021 3:15:00 PM 18.56 65.408 0.432 7.8 7.33 7.9
8/15/2021 3:30:00 PM 18.91 66.038 0.421 7.79 7.56 8.01
8/15/2021 3:45:00 PM 18.82 65.876 0.425 7.78 7.39 7.94
8/15/2021 4:00:00 PM 18.67 65.606 0.429 7.72 7.2 7.69
8/15/2021 4:15:00 PM 18.82 65.876 0.427 7.77 7.24 7.71
8/15/2021 4:30:00 PM 19.14 66.452 0.423 7.78 7.01 8.13
8/15/2021 4:45:00 PM 19.05 66.29 0.423 7.81 7.04 8.1
8/15/2021 5:00:00 PM 18.93 66.074 0.424 7.76 7.07 7.93
8/15/2021 5:15:00 PM 18.56 65.408 0.435 7.73 7.31 7.77
8/15/2021 5:30:00 PM 18.88 65.984 0.425 7.76 7.22 7.48
8/15/2021 5:45:00 PM 18.81 65.858 0.427 7.8 7.32 7.77
8/15/2021 6:00:00 PM 18.67 65.606 0.432 7.81 7.82 7.47
8/15/2021 6:15:00 PM 18.55 65.39 0.436 7.75 7.54 7.51
8/15/2021 6:30:00 PM 18.49 65.282 0.441 7.7 7.27 7.28
8/15/2021 6:45:00 PM 18.43 65.174 0.438 7.76 7.26 7.02
8/15/2021 7:00:00 PM 18.73 65.714 0.434 7.77 7.33 7.14
8/15/2021 7:15:00 PM 18.85 65.93 0.43 7.78 7.3 7.16
8/15/2021 7:30:00 PM 18.44 65.192 0.435 7.74 7.28 6.76
8/15/2021 7:45:00 PM 18.82 65.876 0.428 7.73 7.31 6.91
8/15/2021 8:00:00 PM 18.65 65.57 0.432 7.75 7.34 6.41
8/15/2021 8:15:00 PM 18.37 65.066 0.434 7.68 6.95 6.42
8/15/2021 8:30:00 PM 18.73 65.714 0.43 7.73 10.85 6.8
8/15/2021 8:45:00 PM 18.58 65.444 0.428 7.67 8.01 6.25
8/15/2021 9:00:00 PM 18.43 65.174 0.433 7.65 7.59 6.24
8/15/2021 9:15:00 PM 18.33 64.994 0.436 7.66 7.77 6.03
8/15/2021 9:30:00 PM 18.2 64.76 0.436 7.65 7.55 5.71
8/15/2021 9:45:00 PM 17.93 64.274 0.44 7.64 7.62 5.59
8/15/2021 10:00:00 PM 18.12 64.616 0.432 7.6 8.01 5.56
8/15/2021 10:15:00 PM 18.36 65.048 0.428 7.64 8.09 5.9
8/15/2021 10:30:00 PM 17.87 64.166 0.436 7.58 7.7 5.47
8/15/2021 10:45:00 PM 18.14 64.652 0.432 7.61 7.97 5.57
8/15/2021 11:00:00 PM 17.88 64.184 0.441 7.62 7.97 5.49
8/15/2021 11:15:00 PM 17.82 64.076 0.438 7.61 7.72 5.32
8/15/2021 11:30:00 PM 17.66 63.788 0.442 7.56 7.61 5.24
8/15/2021 11:45:00 PM 17.75 63.95 0.434 7.57 7.48 5.05
8/16/2021 12:00:00 AM 17.66 63.788 0.442 7.57 7.3 5.06
8/16/2021 12:15:00 AM 17.84 64.112 0.433 7.57 8.48 5.36
8/16/2021 12:30:00 AM 17.68 63.824 0.434 7.56 7.56 5.28
8/16/2021 12:45:00 AM 17.79 64.022 0.432 7.59 7.52 5.44
8/16/2021 1:00:00 AM 17.72 63.896 0.434 7.57 7.84 5.07
8/16/2021 1:15:00 AM 17.62 63.716 0.434 7.57 8.42 5.21
8/16/2021 1:30:00 AM 17.19 62.942 0.442 7.53 8.02 4.85
8/16/2021 1:45:00 AM 17.28 63.104 0.436 7.53 8.41 5.04
8/16/2021 2:00:00 AM 17.4 63.32 0.434 7.56 7.95 5.2
8/16/2021 2:15:00 AM 17.03 62.654 0.439 7.51 7.55 4.97
8/16/2021 2:30:00 AM 17.3 63.14 0.435 7.52 7.45 4.92
8/16/2021 2:45:00 AM 16.99 62.582 0.439 7.54 7.35 4.95
8/16/2021 3:00:00 AM 16.87 62.366 0.439 7.52 7.64 4.84
8/16/2021 3:15:00 AM 16.9 62.42 0.438 7.52 10.33 4.86
8/16/2021 3:30:00 AM 16.77 62.186 0.443 7.51 8.33 4.97
8/16/2021 3:45:00 AM 16.66 61.988 0.443 7.52 7.81 5.01
8/16/2021 4:00:00 AM 16.56 61.808 0.446 7.51 7.71 4.77
8/16/2021 4:15:00 AM 16.18 61.124 0.452 7.5 7.49 4.83
8/16/2021 4:30:00 AM 16.53 61.754 0.441 7.51 7.7 4.69
8/16/2021 4:45:00 AM 16.14 61.052 0.451 7.48 85.4 4.47
8/16/2021 5:00:00 AM 16.14 61.052 0.453 7.48 20.02 4.71
8/16/2021 5:15:00 AM 16.18 61.124 0.445 7.48 9.67 4.74
8/16/2021 5:30:00 AM 16.07 60.926 0.45 7.48 8.16 4.9
8/16/2021 5:45:00 AM 16.31 61.358 0.445 7.53 15.48 4.82
8/16/2021 6:00:00 AM 15.95 60.71 0.442 7.49 18.86 5.12
8/16/2021 6:15:00 AM 15.85 60.53 0.451 7.46 22.58 4.58
8/16/2021 6:30:00 AM 15.91 60.638 0.449 7.5 33.6 4.89
8/16/2021 6:45:00 AM 16.12 61.016 0.445 7.52 28.97 5.19
8/16/2021 7:00:00 AM 15.78 60.404 0.45 7.49 12.11 5.07
8/16/2021 7:15:00 AM 15.93 60.674 0.439 7.49 9.74 4.95
8/16/2021 7:30:00 AM 15.93 60.674 0.44 7.49 8.26 5.22
8/16/2021 7:45:00 AM 15.85 60.53 0.441 7.51 8.55 5.16
8/16/2021 8:00:00 AM 15.68 60.224 0.447 7.51 9.32 5.29
8/16/2021 8:15:00 AM 15.65 60.17 0.45 7.52 8.36 5.34
8/16/2021 8:30:00 AM 16.04 60.872 0.437 7.56 8.39 5.7
8/16/2021 8:45:00 AM 16.13 61.034 0.434 7.54 8.09 5.54
8/16/2021 9:00:00 AM 15.99 60.782 0.436 7.55 9.4 5.72
8/16/2021 9:15:00 AM 15.72 60.296 0.449 7.54 7.75 5.82
8/16/2021 9:30:00 AM 15.99 60.782 0.438 7.57 7.39 5.87
8/16/2021 9:45:00 AM 16.11 60.998 0.436 7.58 8.23 5.92
8/16/2021 10:00:00 AM 15.98 60.764 0.445 7.58 7.73 6.18
8/16/2021 10:15:00 AM 16.22 61.196 0.439 7.6 7.85 6.14
8/16/2021 10:30:00 AM 16.35 61.43 0.436 7.6 7.61 6.14
8/16/2021 10:45:00 AM 16.51 61.718 0.433 7.62 7.73 6.53
8/16/2021 11:00:00 AM 16.72 62.096 0.432 7.66 7.51 7.03
8/16/2021 11:15:00 AM 16.96 62.528 0.429 7.69 7.33 7.24
8/16/2021 11:30:00 AM 16.84 62.312 0.434 7.66 7.36 7.18
8/16/2021 11:45:00 AM 17.01 62.618 0.428 7.68 7.43 7.32
8/16/2021 12:00:00 PM 16.64 61.952 0.443 7.62 7.47 7.02
8/16/2021 12:15:00 PM 17.13 62.834 0.43 7.71 7.37 7.52
8/16/2021 12:30:00 PM 16.73 62.114 0.444 7.67 7.07 7.17
8/16/2021 12:45:00 PM 16.98 62.564 0.44 7.68 7.03 7
8/16/2021 1:00:00 PM 17.4 63.32 0.431 7.74 7.05 7.51
8/16/2021 1:15:00 PM 17.26 63.068 0.435 7.68 6.75 7.28
8/16/2021 1:30:00 PM 17.19 62.942 0.44 7.71 7.24 7.24
8/16/2021 1:45:00 PM 17.23 63.014 0.442 7.7 7.12 7.69
8/16/2021 2:00:00 PM 17.35 63.23 0.436 7.68 6.84 7.48
8/16/2021 2:15:00 PM 17.38 63.284 0.439 7.68 6.9 7.04
8/16/2021 2:30:00 PM 17.33 63.194 0.439 7.71 7.23 7.33
8/16/2021 2:45:00 PM 17.52 63.536 0.439 7.72 7.11 7.3
8/16/2021 3:00:00 PM 17.49 63.482 0.436 7.68 8.18 7.1
8/16/2021 3:15:00 PM 17.62 63.716 0.432 7.74 7.34 7.56
8/16/2021 3:30:00 PM 17.51 63.518 0.438 7.74 7.11 7.35
8/16/2021 3:45:00 PM 17.53 63.554 0.436 7.74 7.08 7.11
8/16/2021 4:00:00 PM 17.5 63.5 0.437 7.71 7.06 7.23
8/16/2021 4:15:00 PM 17.5 63.5 0.438 7.67 7.04 6.89
8/16/2021 4:30:00 PM 17.86 64.148 0.429 7.72 7.07 7.46
8/16/2021 4:45:00 PM 17.69 63.842 0.435 7.73 7.02 7.29
8/16/2021 5:00:00 PM 17.37 63.266 0.442 7.65 7.9 7.09
8/16/2021 5:15:00 PM 17.61 63.698 0.436 7.7 7.4 7.22
8/16/2021 5:30:00 PM 17.85 64.13 0.43 7.74 7.62 7.26
8/16/2021 5:45:00 PM 17.61 63.698 0.434 7.71 26.35 7.29
8/16/2021 6:00:00 PM 17.34 63.212 0.444 7.66 10.78 6.79
8/16/2021 6:15:00 PM 17.86 64.148 0.431 7.75 10.41 7.34
8/16/2021 6:30:00 PM 17.78 64.004 0.432 7.72 8.65 7.11
8/16/2021 6:45:00 PM 17.67 63.806 0.437 7.72 7.42 6.69
8/16/2021 7:00:00 PM 17.53 63.554 0.441 7.68 8.61 6.36
8/16/2021 7:15:00 PM 17.49 63.482 0.442 7.65 7.53 6.35
8/16/2021 7:30:00 PM 17.8 64.04 0.435 7.67 7.69 6.45
8/16/2021 7:45:00 PM 17.74 63.932 0.435 7.65 7.34 6.6
8/16/2021 8:00:00 PM 17.68 63.824 0.437 7.63 7.17 5.95
8/16/2021 8:15:00 PM 17.4 63.32 0.442 7.6 7.11 5.79
8/16/2021 8:30:00 PM 17.67 63.806 0.435 7.65 7.42 6.14
8/16/2021 8:45:00 PM 17.76 63.968 0.436 7.62 8.46 6.2
8/16/2021 9:00:00 PM 17.72 63.896 0.433 7.63 7.67 6
8/16/2021 9:15:00 PM 17.64 63.752 0.437 7.6 7.27 5.93
8/16/2021 9:30:00 PM 17.56 63.608 0.437 7.58 7.66 5.78
8/16/2021 9:45:00 PM 17.66 63.788 0.436 7.58 7.77 5.79
8/16/2021 10:00:00 PM 17.59 63.662 0.438 7.59 7.69 5.44
8/16/2021 10:15:00 PM 17.78 64.004 0.436 7.62 8.13 5.75
8/16/2021 10:30:00 PM 17.68 63.824 0.438 7.59 7.55 5.61
8/16/2021 10:45:00 PM 17.73 63.914 0.436 7.58 7.79 5.42
8/16/2021 11:00:00 PM 17.53 63.554 0.443 7.58 7.67 5.45
8/16/2021 11:15:00 PM 17.76 63.968 0.434 7.58 7.35 5.55
8/16/2021 11:30:00 PM 17.69 63.842 0.434 7.57 7.61 5.4
8/16/2021 11:45:00 PM 17.6 63.68 0.436 7.53 7.76 5.23
8/17/2021 12:00:00 AM 17.95 64.31 0.431 7.57 7.78 5.4
8/17/2021 12:15:00 AM 17.71 63.878 0.438 7.57 7.73 5.14
8/17/2021 12:30:00 AM 17.71 63.878 0.436 7.55 7.8 5.2
8/17/2021 12:45:00 AM 17.38 63.284 0.444 7.55 7.43 5.13
8/17/2021 1:00:00 AM 17.59 63.662 0.441 7.57 7.56 5.16
8/17/2021 1:15:00 AM 17.64 63.752 0.438 7.54 7.4 5.11
8/17/2021 1:30:00 AM 17.63 63.734 0.439 7.54 7.2 5.27
8/17/2021 1:45:00 AM 17.41 63.338 0.446 7.54 7.53 5.07
8/17/2021 2:00:00 AM 17.69 63.842 0.438 7.53 7.36 5.02
8/17/2021 2:15:00 AM 17.37 63.266 0.449 7.52 7.22 5.19
8/17/2021 2:30:00 AM 17.57 63.626 0.44 7.54 7.52 5.21
8/17/2021 2:45:00 AM 17.14 62.852 0.448 7.49 7.29 4.72
8/17/2021 3:00:00 AM 17.31 63.158 0.446 7.52 7.45 4.95
8/17/2021 3:15:00 AM 17.39 63.302 0.444 7.54 9.9 5.19
8/17/2021 3:30:00 AM 17.47 63.446 0.445 7.53 8.11 5.27
8/17/2021 3:45:00 AM 17.63 63.734 0.438 7.51 7.69 5.17
8/17/2021 4:00:00 AM 17.56 63.608 0.439 7.52 7.8 5.29
8/17/2021 4:15:00 AM 17.52 63.536 0.438 7.53 7.83 5.21
8/17/2021 4:30:00 AM 17.3 63.14 0.447 7.52 7.78 5.12
8/17/2021 4:45:00 AM 17.48 63.464 0.442 7.51 7.91 5.13
8/17/2021 5:00:00 AM 17.42 63.356 0.446 7.53 7.95 5.22
8/17/2021 5:15:00 AM 17.47 63.446 0.442 7.52 8.25 5.03
8/17/2021 5:30:00 AM 17.35 63.23 0.445 7.52 8.48 5.14
8/17/2021 5:45:00 AM 17.5 63.5 0.44 7.52 8.34 5.24
8/17/2021 6:00:00 AM 17.38 63.284 0.442 7.51 13.14 5.12
8/17/2021 6:15:00 AM 17.46 63.428 0.439 7.52 9.72 5.05
8/17/2021 6:30:00 AM 17.34 63.212 0.442 7.51 8.94 5.02
8/17/2021 6:45:00 AM 17.23 63.014 0.447 7.5 10.25 5.13
8/17/2021 7:00:00 AM 17.27 63.086 0.442 7.49 9.04 5.01
8/17/2021 7:15:00 AM 17.29 63.122 0.44 7.51 9.12 5.19
8/17/2021 7:30:00 AM 17.37 63.266 0.436 7.52 8.65 4.97
8/17/2021 7:45:00 AM 17.32 63.176 0.437 7.53 8.79 5.3
8/17/2021 8:00:00 AM 17.53 63.554 0.43 7.53 9.32 5.46
8/17/2021 8:15:00 AM 17.43 63.374 0.431 7.53 8.69 5.18
8/17/2021 8:30:00 AM 17.34 63.212 0.44 7.53 8.81 5.21
8/17/2021 8:45:00 AM 17.47 63.446 0.436 7.55 9.01 5.61
8/17/2021 9:00:00 AM 17.61 63.698 0.433 7.57 8.41 5.56
8/17/2021 9:15:00 AM 17.68 63.824 0.433 7.55 8.37 5.47
8/17/2021 9:30:00 AM 17.55 63.59 0.439 7.56 8.47 5.74
8/17/2021 9:45:00 AM 17.94 64.292 0.427 7.6 8.33 6
8/17/2021 10:00:00 AM 17.84 64.112 0.428 7.58 8.08 6.04
8/17/2021 10:15:00 AM 17.84 64.112 0.43 7.58 7.98 6.18
8/17/2021 10:30:00 AM 18.03 64.454 0.426 7.59 8.31 6.18
8/17/2021 10:45:00 AM 17.97 64.346 0.428 7.58 8.12 6.04
8/17/2021 11:00:00 AM 18.01 64.418 0.431 7.61 8.33 6.41
8/17/2021 11:15:00 AM 17.76 63.968 0.44 7.6 7.96 6.38
8/17/2021 11:30:00 AM 17.92 64.256 0.435 7.6 8.18 6.37
8/17/2021 11:45:00 AM 18.21 64.778 0.429 7.64 7.9 6.5
8/17/2021 12:00:00 PM 18.32 64.976 0.426 7.68 9.59 6.87
8/17/2021 12:15:00 PM 18.07 64.526 0.436 7.64 8.58 6.71
8/17/2021 12:30:00 PM 18.39 65.102 0.429 7.66 8.64 6.98
8/17/2021 12:45:00 PM 18.51 65.318 0.429 7.67 8.25 6.87
8/17/2021 1:00:00 PM 18.55 65.39 0.429 7.68 8.14 7.19
8/17/2021 1:15:00 PM 18.75 65.75 0.425 7.71 8.32 7.31
8/17/2021 1:30:00 PM 18.81 65.858 0.425 7.7 8.38 7.38
8/17/2021 1:45:00 PM 18.92 66.056 0.423 7.69 8.33 7.56
8/17/2021 2:00:00 PM 18.92 66.056 0.426 7.72 8.22 7.51
8/17/2021 2:15:00 PM 19.08 66.344 0.423 7.72 8.22 7.68
8/17/2021 2:30:00 PM 19.12 66.416 0.425 7.71 8.49 7.64
8/17/2021 2:45:00 PM 19.23 66.614 0.42 7.72 8.58 7.32
8/17/2021 3:00:00 PM 19.25 66.65 0.422 7.75 8.09 7.64
8/17/2021 3:15:00 PM 19.07 66.326 0.429 7.74 8.27 7.48
8/17/2021 3:30:00 PM 19.38 66.884 0.424 7.77 8.02 8
8/17/2021 3:45:00 PM 19.67 67.406 0.417 7.78 8.18 8.11
8/17/2021 4:00:00 PM 20.15 68.27 0.41 7.86 8.18 8.59
8/17/2021 4:15:00 PM 19.87 67.766 0.414 7.81 7.89 8.27
8/17/2021 4:30:00 PM 19.88 67.784 0.413 7.76 8.13 7.87
8/17/2021 4:45:00 PM 20.01 68.018 0.412 7.79 8.31 7.64
8/17/2021 5:00:00 PM 19.97 67.946 0.415 7.78 8.08 8.03
8/17/2021 5:15:00 PM 19.77 67.586 0.417 7.74 8.09 7.88
8/17/2021 5:30:00 PM 19.81 67.658 0.421 7.75 7.82 7.85
8/17/2021 5:45:00 PM 20.07 68.126 0.413 7.78 8.17 7.9
8/17/2021 6:00:00 PM 20.2 68.36 0.41 7.83 8.09 7.79
8/17/2021 6:15:00 PM 20.06 68.108 0.411 7.82 7.96 7.69
8/17/2021 6:30:00 PM 20.14 68.252 0.411 7.83 7.97 7.63
8/17/2021 6:45:00 PM 20.21 68.378 0.407 7.81 8.11 7.69
8/17/2021 7:00:00 PM 20.24 68.432 0.409 7.79 7.84 7.51
8/17/2021 7:15:00 PM 20.06 68.108 0.413 7.76 7.96 7.02
8/17/2021 7:30:00 PM 20 68 0.414 7.76 8.98 6.99
8/17/2021 7:45:00 PM 20.1 68.18 0.409 7.75 7.93 7.24
8/17/2021 8:00:00 PM 19.98 67.964 0.411 7.74 7.96 6.95
8/17/2021 8:15:00 PM 20.1 68.18 0.409 7.75 8.02 6.88
8/17/2021 8:30:00 PM 20.19 68.342 0.407 7.75 8.08 6.83
8/17/2021 8:45:00 PM 20.21 68.378 0.404 7.74 8.27 6.8
8/17/2021 9:00:00 PM 19.93 67.874 0.41 7.69 8.61 6.31
8/17/2021 9:15:00 PM 20.13 68.234 0.405 7.72 8.71 6.53
8/17/2021 9:30:00 PM 20.17 68.306 0.404 7.7 8.24 6.16
8/17/2021 9:45:00 PM 19.95 67.91 0.409 7.67 8.63 6.44
8/17/2021 10:00:00 PM 20.08 68.144 0.402 7.67 8.44 6.12
8/17/2021 10:15:00 PM 20.25 68.45 0.398 7.69 8.51 6.1
8/17/2021 10:30:00 PM 19.98 67.964 0.403 7.65 8.6 5.65
8/17/2021 10:45:00 PM 20.12 68.216 0.402 7.64 8.44 5.98
8/17/2021 11:00:00 PM 20.05 68.09 0.401 7.62 8.55 5.82
8/17/2021 11:15:00 PM 19.89 67.802 0.404 7.61 8.17 5.66
8/17/2021 11:30:00 PM 20.18 68.324 0.395 7.64 8.3 6.08
8/17/2021 11:45:00 PM 20.35 68.63 0.392 7.65 8.39 5.81
8/18/2021 12:00:00 AM 20.08 68.144 0.401 7.61 8.41 5.64
8/18/2021 12:15:00 AM 20.16 68.288 0.395 7.62 8.67 5.72
8/18/2021 12:30:00 AM 19.69 67.442 0.408 7.57 8.63 5.46
8/18/2021 12:45:00 AM 20.07 68.126 0.396 7.61 8.59 5.39
8/18/2021 1:00:00 AM 19.62 67.316 0.405 7.57 8.47 5.45
8/18/2021 1:15:00 AM 19.99 67.982 0.396 7.59 8.44 5.43
8/18/2021 1:30:00 AM 19.7 67.46 0.4 7.54 8.96 5.2
8/18/2021 1:45:00 AM 19.7 67.46 0.401 7.55 9.65 5.17
8/18/2021 2:00:00 AM 20.19 68.342 0.388 7.6 9.51 5.75
8/18/2021 2:15:00 AM 19.67 67.406 0.4 7.54 8.72 5.42
8/18/2021 2:30:00 AM 19.87 67.766 0.392 7.57 8.46 5.33
8/18/2021 2:45:00 AM 19.68 67.424 0.397 7.56 8.66 5.56
8/18/2021 3:00:00 AM 19.58 67.244 0.396 7.55 8.35 5.37
8/18/2021 3:15:00 AM 19.42 66.956 0.397 7.54 8.32 5.08
8/18/2021 3:30:00 AM 19.18 66.524 0.404 7.52 8.42 5.33
8/18/2021 3:45:00 AM 19.38 66.884 0.396 7.53 9.01 5.35
8/18/2021 4:00:00 AM 19.56 67.208 0.389 7.55 8.57 5.45
8/18/2021 4:15:00 AM 19.26 66.668 0.396 7.53 8.83 5.4
8/18/2021 4:30:00 AM 19.41 66.938 0.388 7.54 9.13 5.47
8/18/2021 4:45:00 AM 18.98 66.164 0.398 7.5 8.88 5.16
8/18/2021 5:00:00 AM 18.96 66.128 0.396 7.49 8.91 5.06
8/18/2021 5:15:00 AM 18.99 66.182 0.395 7.5 8.9 5.37
8/18/2021 5:30:00 AM 18.66 65.588 0.403 7.49 8.65 5.21
8/18/2021 5:45:00 AM 18.93 66.074 0.393 7.5 8.71 5.5
8/18/2021 6:00:00 AM 19.11 66.398 0.387 7.52 8.56 5.71
8/18/2021 6:15:00 AM 18.81 65.858 0.395 7.51 8.6 5.33
8/18/2021 6:30:00 AM 18.99 66.182 0.391 7.53 20.22 5.63
8/18/2021 6:45:00 AM 18.88 65.984 0.387 7.49 11.22 5.38
8/18/2021 7:00:00 AM 18.63 65.534 0.388 7.49 9.86 5.34
8/18/2021 7:15:00 AM 18.69 65.642 0.391 7.5 9.74 5.5
8/18/2021 7:30:00 AM 19.08 66.344 0.382 7.53 9.1 5.82
8/18/2021 7:45:00 AM 19.02 66.236 0.381 7.52 10.5 5.63
8/18/2021 8:00:00 AM 19 66.2 0.383 7.53 9.3 5.8
8/18/2021 8:15:00 AM 19.12 66.416 0.379 7.55 9.33 6.01
8/18/2021 8:30:00 AM 19.03 66.254 0.379 7.53 10.06 5.95
8/18/2021 8:45:00 AM 18.98 66.164 0.381 7.53 9.13 5.93
8/18/2021 9:00:00 AM 19.09 66.362 0.379 7.54 8.91 5.86
8/18/2021 9:15:00 AM 19.21 66.578 0.376 7.56 8.86 6.08
8/18/2021 9:30:00 AM 19.06 66.308 0.382 7.55 10.73 6.16
8/18/2021 9:45:00 AM 19.33 66.794 0.375 7.57 8.53 6.34
8/18/2021 10:00:00 AM 19.54 67.172 0.368 7.61 8.53 6.55
8/18/2021 10:15:00 AM 19.53 67.154 0.367 7.61 11.3 6.68
8/18/2021 10:30:00 AM 19.88 67.784 0.356 7.65 15.74 7.08
8/18/2021 10:45:00 AM 20.45 68.81 0.336 7.69 54.92 7.47
8/18/2021 11:00:00 AM 20.87 69.566 0.305 7.71 170.54 7.57
8/18/2021 11:15:00 AM 20.9 69.62 0.249 7.62 242.75 7.51
8/18/2021 11:30:00 AM 20.47 68.846 0.191 7.46 897.82 7.54
8/18/2021 11:45:00 AM 20.17 68.306 0.157 7.33 509.54 7.59
8/18/2021 12:00:00 PM 19.93 67.874 0.133 7.23 340.83 7.68
8/18/2021 12:15:00 PM 19.75 67.55 0.114 7.17 324 7.75
8/18/2021 12:30:00 PM 19.64 67.352 0.101 7.12 315.24 7.79
8/18/2021 12:45:00 PM 19.57 67.226 0.091 7.05 338.6 7.82
8/18/2021 1:00:00 PM 19.54 67.172 0.085 7.01 376.48 7.84
8/18/2021 1:15:00 PM 19.53 67.154 0.081 6.99 482.96 7.84
8/18/2021 1:30:00 PM 19.54 67.172 0.079 6.99 432.93 7.84
8/18/2021 1:45:00 PM 19.55 67.19 0.07 6.96 456.05 7.81
8/18/2021 2:00:00 PM 19.57 67.226 0.076 7.01 371.48 7.8
8/18/2021 2:15:00 PM 19.6 67.28 0.078 7.01 283.94 7.82
8/18/2021 2:30:00 PM 19.64 67.352 0.079 6.99 245.43 7.82
8/18/2021 2:45:00 PM 19.68 67.424 0.08 7.04 228.95 7.8
8/18/2021 3:00:00 PM 19.72 67.496 0.082 7.06 232.39 7.79
8/18/2021 3:15:00 PM 19.76 67.568 0.084 7.09 208.46 7.79
8/18/2021 3:30:00 PM 19.78 67.604 0.085 7.07 209.17 7.75
8/18/2021 3:45:00 PM 19.8 67.64 0.079 7.11 178.99 7.76
8/18/2021 4:00:00 PM 19.82 67.676 0.086 7.12 173.16 7.78
8/18/2021 4:15:00 PM 19.84 67.712 0.089 7.12 166.26 7.77
8/18/2021 4:30:00 PM 19.86 67.748 0.09 7.15 216.98 7.77
8/18/2021 4:45:00 PM 19.87 67.766 0.09 7.14 793.87 7.76
8/18/2021 5:00:00 PM 19.88 67.784 0.091 7.14 241.18 7.78
8/18/2021 5:15:00 PM 19.88 67.784 0.092 7.16 150.25 7.79
8/18/2021 5:30:00 PM 19.89 67.802 0.093 7.14 134.69 7.79
8/18/2021 5:45:00 PM 19.89 67.802 0.089 7.16 169.68 7.77
8/18/2021 6:00:00 PM 19.9 67.82 0.092 7.18 143.63 7.78
8/18/2021 6:15:00 PM 19.91 67.838 0.096 7.22 132.33 7.78
8/18/2021 6:30:00 PM 19.92 67.856 0.097 7.21 116.43 7.78
8/18/2021 6:45:00 PM 19.92 67.856 0.099 7.21 109.45 7.78
8/18/2021 7:00:00 PM 19.93 67.874 0.101 7.21 104.14 7.78
8/18/2021 7:15:00 PM 19.94 67.892 0.103 7.22 106.15 7.77
8/18/2021 7:30:00 PM 19.95 67.91 0.105 7.23 95.49 7.76
8/18/2021 7:45:00 PM 19.95 67.91 0.108 7.24 93.09 7.78
8/18/2021 8:00:00 PM 19.97 67.946 0.11 7.26 95.93 7.79
8/18/2021 8:15:00 PM 19.99 67.982 0.111 7.28 91.56 7.8
8/18/2021 8:30:00 PM 20.02 68.036 0.113 7.3 127.59 7.84
8/18/2021 8:45:00 PM 20.05 68.09 0.115 7.3 95.28 7.87
8/18/2021 9:00:00 PM 20.1 68.18 0.118 7.33 87.12 7.86
8/18/2021 9:15:00 PM 20.16 68.288 0.12 7.34 82.02 7.89
8/18/2021 9:30:00 PM 20.2 68.36 0.121 7.34 85.73 7.87
8/18/2021 9:45:00 PM 20.24 68.432 0.123 7.35 90.72 7.87
8/18/2021 10:00:00 PM 20.26 68.468 0.124 7.34 165.65 7.86
8/18/2021 10:15:00 PM 20.28 68.504 0.125 7.34 114.5 7.84
8/18/2021 10:30:00 PM 20.27 68.486 0.128 7.34 86.78 7.81
8/18/2021 10:45:00 PM 20.29 68.522 0.123 7.33 87.69 7.84
8/18/2021 11:00:00 PM 20.26 68.468 0.131 7.32 87.66 7.83
8/18/2021 11:15:00 PM 20.25 68.45 0.13 7.32 170.54 7.78
8/18/2021 11:30:00 PM 20.23 68.414 0.12 7.31 7507.97 7.79
8/18/2021 11:45:00 PM 20.23 68.414 0.115 7.28 1297.4 7.74
8/19/2021 12:00:00 AM 20.18 68.324 0.114 7.21 382.22 7.72
8/19/2021 12:15:00 AM 20.09 68.162 0.114 7.2 1316.34 7.8
8/19/2021 12:30:00 AM 20.01 68.018 0.117 7.16 2186.89 7.46
8/19/2021 12:45:00 AM 19.96 67.92799 0.121 7.07 2255.72 3.07
8/19/2021 1:00:00 AM 19.95 67.91 0.233 6.94 584.47 5.33
8/19/2021 1:15:00 AM 19.94 67.892 0.153 6.69 589.69 3.59
8/19/2021 1:30:00 AM 19.93 67.874 0.08 6.64 523.6 6.32
8/19/2021 1:45:00 AM 19.92 67.856 0.058 6.43 424.87 7.37
8/19/2021 2:00:00 AM 19.9 67.82 0.059 6.51 380.44 7.54
8/19/2021 2:15:00 AM 19.9 67.82 0.053 6.49 405.34 7.53
8/19/2021 2:30:00 AM 19.9 67.82 0.048 6.52 524.78 7.51
8/19/2021 2:45:00 AM 19.92 67.856 0.044 6.47 495.43 7.46
8/19/2021 3:00:00 AM 19.94 67.892 0.041 6.43 508.73 7.41
8/19/2021 3:15:00 AM 19.95 67.91 0.04 6.4 530.28 7.39
8/19/2021 3:30:00 AM 19.96 67.92799 0.038 6.4 544.06 7.38
8/19/2021 3:45:00 AM 19.96 67.92799 0.037 6.41 553.68 7.37
8/19/2021 4:00:00 AM 19.96 67.92799 0.035 6.37 556.62 7.32
8/19/2021 4:15:00 AM 19.96 67.92799 0.042 6.31 564.83 7.31
8/19/2021 4:30:00 AM 19.96 67.92799 0.042 6.35 571.26 7.3
8/19/2021 4:45:00 AM 19.98 67.964 0.044 6.39 579.11 7.23
8/19/2021 5:00:00 AM 20.01 68.018 0.046 6.45 568.71 7.12
8/19/2021 5:15:00 AM 20.01 68.018 0.046 6.48 579.83 7.12
8/19/2021 5:30:00 AM 20.01 68.018 0.045 6.52 617.75 7.13
8/19/2021 5:45:00 AM 20.01 68.018 0.046 6.56 593.78 7.1
8/19/2021 6:00:00 AM 20.01 68.018 0.047 6.6 581.48 7.06
8/19/2021 6:15:00 AM 20.01 68.018 0.048 6.64 561.46 7.02
8/19/2021 6:30:00 AM 20 68 0.049 6.65 553.37 6.99
8/19/2021 6:45:00 AM 19.98 67.964 0.049 6.66 572.53 6.97
8/19/2021 7:00:00 AM 19.96 67.92799 0.05 6.66 515.29 6.95
8/19/2021 7:15:00 AM 19.94 67.892 0.051 6.66 508.69 6.92
8/19/2021 7:30:00 AM 19.93 67.874 0.052 6.67 487.71 6.89
8/19/2021 7:45:00 AM 19.92 67.856 0.053 6.67 474.57 6.87
8/19/2021 8:00:00 AM 19.91 67.838 0.053 6.68 454.1 6.85
8/19/2021 8:15:00 AM 19.9 67.82 0.054 6.7 429.78 6.84
8/19/2021 8:30:00 AM 19.9 67.82 0.054 6.73 420.96 6.85
8/19/2021 8:45:00 AM 19.9 67.82 0.055 6.76 404.8 6.84
8/19/2021 9:00:00 AM 19.89 67.802 0.056 6.8 379.56 6.86
8/19/2021 9:15:00 AM 19.89 67.802 0.056 6.84 367.74 6.87
8/19/2021 9:30:00 AM 19.89 67.802 0.057 6.88 347.89 6.89
8/19/2021 9:45:00 AM 19.9 67.82 0.058 6.9 330.13 6.89
8/19/2021 10:00:00 AM 19.9 67.82 0.059 6.92 316.45 6.91
8/19/2021 10:15:00 AM 19.91 67.838 0.059 6.93 303.18 6.94
8/19/2021 10:30:00 AM 19.92 67.856 0.06 6.95 294.3 6.95
8/19/2021 10:45:00 AM 19.94 67.892 0.06 6.96 281.62 6.97
8/19/2021 11:00:00 AM 19.96 67.92799 0.06 6.98 269 6.99
8/19/2021 11:15:00 AM 19.98 67.964 0.06 7 251.28 7.01
8/19/2021 11:30:00 AM 20.01 68.018 0.06 7 242.55 7.03
8/19/2021 11:45:00 AM 20.04 68.07201 0.059 7.01 235.42 7.06
8/19/2021 12:00:00 PM 20.07 68.126 0.056 7.02 223.31 7.07
8/19/2021 12:15:00 PM 20.1 68.18 0.054 7.03 210.84 7.09
8/19/2021 12:30:00 PM 20.13 68.234 0.051 7.03 206.11 7.11
8/19/2021 12:45:00 PM 20.16 68.288 0.085 7.03 202.16 7.14
8/19/2021 1:00:00 PM 20.19 68.342 0.091 7.04 187.45 7.15
8/19/2021 1:15:00 PM 20.2 68.36 0.092 7.04 178.47 7.16
8/19/2021 1:30:00 PM 20.21 68.378 0.092 7.05 175.5 7.18
8/19/2021 1:45:00 PM 20.22 68.396 0.092 7.05 166.59 7.2
8/19/2021 2:00:00 PM 20.25 68.45 0.093 7.05 159.95 7.19
8/19/2021 2:15:00 PM 20.26 68.468 0.093 7.05 154.79 7.21
8/19/2021 2:30:00 PM 20.28 68.504 0.094 7.06 148.49 7.21
8/19/2021 2:45:00 PM 20.31 68.558 0.094 7.06 147.55 7.2
8/19/2021 3:00:00 PM 20.34 68.612 0.094 7.07 141.18 7.22
8/19/2021 3:15:00 PM 20.37 68.666 0.095 7.07 137.27 7.21
8/19/2021 3:30:00 PM 20.4 68.72 0.096 7.07 133.15 7.22
8/19/2021 3:45:00 PM 20.44 68.792 0.096 7.07 131.71 7.2
8/19/2021 4:00:00 PM 20.46 68.828 0.097 7.08 126.88 7.21
8/19/2021 4:15:00 PM 20.48 68.864 0.097 7.08 123.71 7.2
8/19/2021 4:30:00 PM 20.49 68.882 0.098 7.08 120.35 7.19
8/19/2021 4:45:00 PM 20.5 68.9 0.098 7.09 120.06 7.2
8/19/2021 5:00:00 PM 20.53 68.954 0.099 7.09 117.68 7.19
8/19/2021 5:15:00 PM 20.54 68.972 0.1 7.1 115.06 7.19
8/19/2021 5:30:00 PM 20.55 68.99 0.1 7.1 113.27 7.19
8/19/2021 5:45:00 PM 20.56 69.008 0.101 7.1 111.5 7.18
8/19/2021 6:00:00 PM 20.58 69.044 0.101 7.11 122.15 7.18
8/19/2021 6:15:00 PM 20.59 69.062 0.102 7.12 108.88 7.19
8/19/2021 6:30:00 PM 20.59 69.062 0.102 7.12 112.11 7.18
8/19/2021 6:45:00 PM 20.58 69.044 0.103 7.12 103.59 7.19
8/19/2021 7:00:00 PM 20.57 69.026 0.103 7.12 102.46 7.18
8/19/2021 7:15:00 PM 20.56 69.008 0.104 7.13 101.03 7.18
8/19/2021 7:30:00 PM 20.53 68.954 0.105 7.12 100.63 7.17
8/19/2021 7:45:00 PM 20.49 68.882 0.105 7.12 101.63 7.16
8/19/2021 8:00:00 PM 20.46 68.828 0.106 7.12 97.31 7.15
8/19/2021 8:15:00 PM 20.42 68.756 0.107 7.11 98.06 7.13
8/19/2021 8:30:00 PM 20.38 68.684 0.107 7.12 97.03 7.12
8/19/2021 8:45:00 PM 20.35 68.63 0.108 7.12 94.12 7.11
8/19/2021 9:00:00 PM 20.31 68.558 0.108 7.12 94.36 7.09
8/19/2021 9:15:00 PM 20.28 68.504 0.109 7.12 91.28 7.09
8/19/2021 9:30:00 PM 20.24 68.432 0.109 7.12 92.42 7.08
8/19/2021 9:45:00 PM 20.21 68.378 0.11 7.11 90.19 7.06
8/19/2021 10:00:00 PM 20.18 68.324 0.111 7.12 91.46 7.06
8/19/2021 10:15:00 PM 20.14 68.252 0.112 7.12 89.48 7.05
8/19/2021 10:30:00 PM 20.11 68.198 0.113 7.11 92.05 7.04
8/19/2021 10:45:00 PM 20.07 68.126 0.113 7.1 89.74 7.05
8/19/2021 11:00:00 PM 20.03 68.054 0.114 7.12 87.38 7.05
8/19/2021 11:15:00 PM 19.99 67.982 0.114 7.12 87.48 7.06
8/19/2021 11:30:00 PM 19.94 67.892 0.115 7.12 85.99 7.08
8/19/2021 11:45:00 PM 19.91 67.838 0.116 7.12 83.3 7.09
8/20/2021 12:00:00 AM 19.86 67.748 0.116 7.13 82.9 7.09
8/20/2021 12:15:00 AM 19.83 67.694 0.117 7.13 82.6 7.1
8/20/2021 12:30:00 AM 19.78 67.604 0.118 7.13 81.82 7.12
8/20/2021 12:45:00 AM 19.75 67.55 0.119 7.13 80.14 7.13
8/20/2021 1:00:00 AM 19.71 67.478 0.119 7.13 77.14 7.14
8/20/2021 1:15:00 AM 19.68 67.424 0.12 7.14 78.77 7.15
8/20/2021 1:30:00 AM 19.64 67.352 0.121 7.14 78.09 7.17
8/20/2021 1:45:00 AM 19.6 67.28 0.121 7.15 76.07 7.18
8/20/2021 2:00:00 AM 19.57 67.226 0.122 7.13 76.19 7.2
8/20/2021 2:15:00 AM 19.53 67.154 0.123 7.15 77.03 7.22
8/20/2021 2:30:00 AM 19.5 67.1 0.123 7.16 75.05 7.23
8/20/2021 2:45:00 AM 19.47 67.046 0.124 7.16 74.72 7.25
8/20/2021 3:00:00 AM 19.43 66.974 0.125 7.16 74.49 7.26
8/20/2021 3:15:00 AM 19.4 66.92 0.126 7.16 73.15 7.26
8/20/2021 3:30:00 AM 19.36 66.848 0.127 7.16 70.65 7.28
8/20/2021 3:45:00 AM 19.33 66.794 0.126 7.17 73.03 7.29
8/20/2021 4:00:00 AM 19.3 66.74 0.127 7.17 69.06 7.31
8/20/2021 4:15:00 AM 19.26 66.668 0.128 7.18 67.66 7.32
8/20/2021 4:30:00 AM 19.23 66.614 0.128 7.18 74.31 7.33
8/20/2021 4:45:00 AM 19.2 66.56 0.129 7.18 69.21 7.35
8/20/2021 5:00:00 AM 19.16 66.488 0.129 7.18 67.59 7.36
8/20/2021 5:15:00 AM 19.12 66.416 0.13 7.18 65.49 7.37
8/20/2021 5:30:00 AM 19.09 66.362 0.131 7.19 65.12 7.39
8/20/2021 5:45:00 AM 19.05 66.29 0.131 7.19 66.05 7.4
8/20/2021 6:00:00 AM 19.02 66.236 0.132 7.2 66.73 7.41
8/20/2021 6:15:00 AM 18.98 66.164 0.133 7.2 66.23 7.41
8/20/2021 6:30:00 AM 18.95 66.11 0.133 7.2 62.75 7.42
8/20/2021 6:45:00 AM 18.92 66.056 0.133 7.19 63.44 7.45
8/20/2021 7:00:00 AM 18.89 66.002 0.134 7.2 63.98 7.45
8/20/2021 7:15:00 AM 18.86 65.948 0.134 7.21 63.84 7.48
8/20/2021 7:30:00 AM 18.83 65.894 0.135 7.21 62.76 7.48
8/20/2021 7:45:00 AM 18.8 65.84 0.135 7.21 63.66 7.5
8/20/2021 8:00:00 AM 18.77 65.786 0.136 7.21 62.93 7.5
8/20/2021 8:15:00 AM 18.76 65.768 0.136 7.22 61.35 7.53
8/20/2021 8:30:00 AM 18.73 65.714 0.137 7.22 60.48 7.54
8/20/2021 8:45:00 AM 18.73 65.714 0.138 7.22 390.91 7.55
8/20/2021 9:00:00 AM 18.72 65.696 0.138 7.23 119 7.56
8/20/2021 9:15:00 AM 18.72 65.696 0.139 7.23 66.53 7.58
8/20/2021 9:30:00 AM 18.74 65.732 0.139 7.24 69.5 7.6
8/20/2021 9:45:00 AM 18.75 65.75 0.139 7.24 66.23 7.62
8/20/2021 10:00:00 AM 18.77 65.786 0.14 7.25 78.04 7.64
8/20/2021 10:15:00 AM 18.81 65.858 0.14 7.26 79.81 7.64
8/20/2021 10:30:00 AM 18.84 65.912 0.141 7.26 84.19 7.65
8/20/2021 10:45:00 AM 18.87 65.966 0.142 7.26 68.45 7.66
8/20/2021 11:00:00 AM 18.92 66.056 0.143 7.27 66.2 7.66
8/20/2021 11:15:00 AM 18.99 66.182 0.144 7.28 294.89 7.66
8/20/2021 11:30:00 AM 19.05 66.29 0.145 7.28 98.37 7.66
8/20/2021 11:45:00 AM 17.7 63.86 0.135 6.75 57.66 7.12
8/20/2021 12:00:00 PM 18.98 66.164 0.146 7.23 57.69 7.6
8/20/2021 12:15:00 PM 19.2 66.56 0.147 7.29 58.87 7.68
8/20/2021 12:30:00 PM 19.25 66.65 0.15 7.31 58.5 7.68
8/20/2021 12:45:00 PM 19.31 66.758 0.151 7.31 57.59 7.67
8/20/2021 1:00:00 PM 19.42 66.956 0.151 7.32 59.03 7.68
8/20/2021 1:15:00 PM 19.5 67.1 0.152 7.33 58.21 7.69
8/20/2021 1:30:00 PM 19.54 67.172 0.156 7.33 57.1 7.67
8/20/2021 1:45:00 PM 19.62 67.316 0.155 7.33 57.34 7.66
8/20/2021 2:00:00 PM 19.69 67.442 0.156 7.34 58.76 7.69
8/20/2021 2:15:00 PM 19.76 67.568 0.157 7.34 56.36 7.66
8/20/2021 2:30:00 PM 19.82 67.676 0.158 7.35 54.77 7.66
8/20/2021 2:45:00 PM 19.91 67.838 0.159 7.35 56.63 7.67
8/20/2021 3:00:00 PM 19.99 67.982 0.159 7.35 56.62 7.65
8/20/2021 3:15:00 PM 20.04 68.07201 0.16 7.36 56.47 7.64
8/20/2021 3:30:00 PM 20.09 68.162 0.161 7.36 56.23 7.65
8/20/2021 3:45:00 PM 20.14 68.252 0.162 7.36 56.73 7.61
8/20/2021 4:00:00 PM 20.18 68.324 0.164 7.37 56.44 7.59
8/20/2021 4:15:00 PM 20.23 68.414 0.164 7.37 55.64 7.58
8/20/2021 4:30:00 PM 20.21 68.378 0.167 7.37 56.22 7.54
8/20/2021 4:45:00 PM 20.29 68.522 0.164 7.36 55.41 7.57
8/20/2021 5:00:00 PM 20.31 68.558 0.165 7.37 55.12 7.57
8/20/2021 5:15:00 PM 20.31 68.558 0.166 7.37 54.43 7.53
8/20/2021 5:30:00 PM 20.31 68.558 0.167 7.37 54.76 7.52
8/20/2021 5:45:00 PM 20.38 68.684 0.164 7.37 55.7 7.57
8/20/2021 6:00:00 PM 20.39 68.702 0.165 7.37 57.17 7.56
8/20/2021 6:15:00 PM 20.43 68.774 0.166 7.38 57.84 7.56
8/20/2021 6:30:00 PM 20.44 68.792 0.166 7.38 57.49 7.55
8/20/2021 6:45:00 PM 20.43 68.774 0.168 7.38 60.71 7.53
8/20/2021 7:00:00 PM 20.42 68.756 0.169 7.38 60.48 7.52
8/20/2021 7:15:00 PM 20.39 68.702 0.17 7.38 58.31 7.5
8/20/2021 7:30:00 PM 20.39 68.702 0.17 7.38 58.43 7.51
8/20/2021 7:45:00 PM 20.38 68.684 0.17 7.38 58.56 7.5
8/20/2021 8:00:00 PM 20.37 68.666 0.171 7.37 58.99 7.49
8/20/2021 8:15:00 PM 20.34 68.612 0.173 7.37 58.29 7.47
8/20/2021 8:30:00 PM 20.35 68.63 0.172 7.37 57.77 7.48
8/20/2021 8:45:00 PM 20.32 68.576 0.174 7.36 56.53 7.46
8/20/2021 9:00:00 PM 20.31 68.558 0.173 7.37 58.7 7.47
8/20/2021 9:15:00 PM 20.28 68.504 0.174 7.37 55.54 7.46
8/20/2021 9:30:00 PM 20.25 68.45 0.175 7.37 54.47 7.45
8/20/2021 9:45:00 PM 20.22 68.396 0.175 7.36 54.8 7.45
8/20/2021 10:00:00 PM 20.19 68.342 0.175 7.37 55.29 7.45
8/20/2021 10:15:00 PM 20.15 68.27 0.177 7.36 55.68 7.46
8/20/2021 10:30:00 PM 20.11 68.198 0.177 7.36 54.18 7.45
8/20/2021 10:45:00 PM 20.07 68.126 0.177 7.36 53.88 7.45
8/20/2021 11:00:00 PM 20.04 68.07201 0.178 7.36 53.4 7.46
8/20/2021 11:15:00 PM 20 68 0.179 7.36 52.84 7.46
8/20/2021 11:30:00 PM 19.96 67.92799 0.179 7.36 52.42 7.47
8/20/2021 11:45:00 PM 19.9 67.82 0.181 7.36 51.83 7.47
8/21/2021 12:00:00 AM 19.86 67.748 0.181 7.35 50.43 7.47
8/21/2021 12:15:00 AM 19.82 67.676 0.182 7.36 50.73 7.47
8/21/2021 12:30:00 AM 19.79 67.622 0.182 7.36 49.32 7.48
8/21/2021 12:45:00 AM 19.76 67.568 0.182 7.36 50.68 7.48
8/21/2021 1:00:00 AM 19.72 67.496 0.183 7.36 48.53 7.49
8/21/2021 1:15:00 AM 19.67 67.406 0.184 7.36 49.18 7.49
8/21/2021 1:30:00 AM 19.63 67.334 0.184 7.36 47.08 7.5
8/21/2021 1:45:00 AM 19.61 67.298 0.184 7.36 47.01 7.51
8/21/2021 2:00:00 AM 19.57 67.226 0.184 7.36 47.01 7.51
8/21/2021 2:15:00 AM 19.54 67.172 0.184 7.36 47.4 7.52
8/21/2021 2:30:00 AM 19.48 67.064 0.185 7.36 45.84 7.51
8/21/2021 2:45:00 AM 19.45 67.01 0.186 7.36 44.01 7.51
8/21/2021 3:00:00 AM 19.41 66.938 0.186 7.36 44.25 7.52
8/21/2021 3:15:00 AM 19.4 66.92 0.185 7.36 43.04 7.54
8/21/2021 3:30:00 AM 19.37 66.866 0.185 7.36 44.67 7.55
8/21/2021 3:45:00 AM 19.33 66.794 0.186 7.36 43.55 7.55
8/21/2021 4:00:00 AM 19.31 66.758 0.185 7.35 42.46 7.56
8/21/2021 4:15:00 AM 19.27 66.686 0.185 7.36 43.09 7.57
8/21/2021 4:30:00 AM 19.23 66.614 0.187 7.35 42.62 7.56
8/21/2021 4:45:00 AM 19.2 66.56 0.186 7.35 41.47 7.57
8/21/2021 5:00:00 AM 19.17 66.506 0.186 7.35 41.51 7.58
8/21/2021 5:15:00 AM 19.16 66.488 0.186 7.35 40.55 7.58
8/21/2021 5:30:00 AM 19.12 66.416 0.187 7.35 40.49 7.59
8/21/2021 5:45:00 AM 19.11 66.398 0.186 7.36 40.19 7.59
8/21/2021 6:00:00 AM 19.08 66.344 0.188 7.35 40.56 7.59
8/21/2021 6:15:00 AM 19.05 66.29 0.188 7.36 40.37 7.6
8/21/2021 6:30:00 AM 19.03 66.254 0.188 7.36 42.48 7.61
8/21/2021 6:45:00 AM 18.99 66.182 0.188 7.35 39.86 7.6
8/21/2021 7:00:00 AM 18.98 66.164 0.188 7.36 40.15 7.6
8/21/2021 7:15:00 AM 18.96 66.128 0.189 7.36 39.82 7.61
8/21/2021 7:30:00 AM 18.94 66.092 0.189 7.36 38.88 7.62
8/21/2021 7:45:00 AM 18.92 66.056 0.189 7.37 39.8 7.63
8/21/2021 8:00:00 AM 18.91 66.038 0.19 7.37 38.97 7.63
8/21/2021 8:15:00 AM 18.91 66.038 0.19 7.37 38.91 7.64
8/21/2021 8:30:00 AM 18.9 66.02 0.19 7.37 38.16 7.66
8/21/2021 8:45:00 AM 18.89 66.002 0.191 7.37 38.42 7.66
8/21/2021 9:00:00 AM 18.88 65.984 0.191 7.38 37.83 7.67
8/21/2021 9:15:00 AM 18.88 65.984 0.192 7.38 37.91 7.67
8/21/2021 9:30:00 AM 18.88 65.984 0.191 7.38 37.84 7.7
8/21/2021 9:45:00 AM 18.88 65.984 0.192 7.39 37.15 7.71
8/21/2021 10:00:00 AM 18.88 65.984 0.192 7.39 37.48 7.72
8/21/2021 10:15:00 AM 18.88 65.984 0.193 7.4 37.55 7.73
8/21/2021 10:30:00 AM 18.89 66.002 0.193 7.4 36.95 7.74
8/21/2021 10:45:00 AM 18.9 66.02 0.194 7.4 36.78 7.74
8/21/2021 11:00:00 AM 18.9 66.02 0.194 7.41 37.47 7.75
8/21/2021 11:15:00 AM 18.91 66.038 0.195 7.4 36.24 7.76
8/21/2021 11:30:00 AM 18.94 66.092 0.195 7.41 36.51 7.78
8/21/2021 11:45:00 AM 18.95 66.11 0.196 7.42 37.37 7.79
8/21/2021 12:00:00 PM 18.97 66.146 0.196 7.42 35.31 7.8
8/21/2021 12:15:00 PM 19 66.2 0.196 7.42 36.24 7.82
8/21/2021 12:30:00 PM 19.04 66.272 0.197 7.43 36.54 7.84
8/21/2021 12:45:00 PM 19.11 66.398 0.197 7.44 37.28 7.86
8/21/2021 1:00:00 PM 19.18 66.524 0.197 7.44 37.98 7.89
8/21/2021 1:15:00 PM 19.25 66.65 0.198 7.45 37.07 7.91
8/21/2021 1:30:00 PM 19.32 66.776 0.198 7.45 36.75 7.92
8/21/2021 1:45:00 PM 19.4 66.92 0.198 7.46 35.79 7.95
8/21/2021 2:00:00 PM 19.51 67.118 0.198 7.46 36.43 7.97
8/21/2021 2:15:00 PM 19.63 67.334 0.198 7.48 36.37 8
8/21/2021 2:30:00 PM 19.74 67.532 0.198 7.48 36.18 8.03
8/21/2021 2:45:00 PM 19.84 67.712 0.198 7.49 36.33 8.03
8/21/2021 3:00:00 PM 19.97 67.946 0.197 7.49 35.81 8.04
8/21/2021 3:15:00 PM 20.04 68.07201 0.198 7.5 35.67 8.02
8/21/2021 3:30:00 PM 20.08 68.144 0.198 7.5 36.01 8
8/21/2021 3:45:00 PM 20.13 68.234 0.199 7.5 36.34 7.99
8/21/2021 4:00:00 PM 20.18 68.324 0.199 7.5 36.33 7.98
8/21/2021 4:15:00 PM 20.25 68.45 0.199 7.5 37.06 7.97
8/21/2021 4:30:00 PM 20.3 68.54 0.2 7.51 40.03 7.93
8/21/2021 4:45:00 PM 20.36 68.648 0.201 7.5 36.93 7.91
8/21/2021 5:00:00 PM 20.41 68.738 0.201 7.5 36.83 7.88
8/21/2021 5:15:00 PM 20.48 68.864 0.201 7.51 37.51 7.87
8/21/2021 5:30:00 PM 20.54 68.972 0.201 7.51 37.33 7.86
8/21/2021 5:45:00 PM 20.58 69.044 0.201 7.51 35.3 7.83
8/21/2021 6:00:00 PM 20.6 69.08 0.201 7.51 35.16 7.82
8/21/2021 6:15:00 PM 20.61 69.098 0.201 7.5 35.27 7.8
8/21/2021 6:30:00 PM 20.62 69.116 0.201 7.5 35.55 7.78
8/21/2021 6:45:00 PM 20.61 69.098 0.201 7.5 35.44 7.76
8/21/2021 7:00:00 PM 20.58 69.044 0.201 7.49 35.51 7.74
8/21/2021 7:15:00 PM 20.56 69.008 0.2 7.49 34.36 7.72
8/21/2021 7:30:00 PM 20.52 68.936 0.2 7.48 34.71 7.7
8/21/2021 7:45:00 PM 20.47 68.846 0.2 7.48 34.19 7.69
8/21/2021 8:00:00 PM 20.41 68.738 0.2 7.48 33.64 7.67
8/21/2021 8:15:00 PM 20.36 68.648 0.201 7.47 33.13 7.65
8/21/2021 8:30:00 PM 20.3 68.54 0.201 7.47 33.59 7.63
8/21/2021 8:45:00 PM 20.25 68.45 0.201 7.46 33.12 7.62
8/21/2021 9:00:00 PM 20.19 68.342 0.202 7.46 33.55 7.6
8/21/2021 9:15:00 PM 20.12 68.216 0.201 7.45 33.69 7.61
8/21/2021 9:30:00 PM 20.05 68.09 0.201 7.45 33 7.6
8/21/2021 9:45:00 PM 19.98 67.964 0.201 7.43 33.11 7.59
8/21/2021 10:00:00 PM 19.9 67.82 0.201 7.44 32.12 7.59
8/21/2021 10:15:00 PM 19.82 67.676 0.202 7.43 32.47 7.58
8/21/2021 10:30:00 PM 19.75 67.55 0.201 7.43 32.7 7.58
8/21/2021 10:45:00 PM 19.68 67.424 0.202 7.43 31.74 7.57
8/21/2021 11:00:00 PM 19.62 67.316 0.203 7.42 32.26 7.58
8/21/2021 11:15:00 PM 19.58 67.244 0.202 7.42 33.09 7.58
8/21/2021 11:30:00 PM 19.53 67.154 0.203 7.41 33.05 7.57
8/21/2021 11:45:00 PM 19.48 67.064 0.204 7.42 32.84 7.56
8/22/2021 12:00:00 AM 19.45 67.01 0.204 7.41 33.39 7.56
8/22/2021 12:15:00 AM 19.4 66.92 0.206 7.41 34.8 7.56
8/22/2021 12:30:00 AM 19.38 66.884 0.207 7.41 34.04 7.55
8/22/2021 12:45:00 AM 19.37 66.866 0.207 7.42 33.84 7.56
8/22/2021 1:00:00 AM 19.35 66.83 0.209 7.42 33.94 7.55
8/22/2021 1:15:00 AM 19.33 66.794 0.21 7.42 33.82 7.55
8/22/2021 1:30:00 AM 19.32 66.776 0.21 7.42 34.7 7.56
8/22/2021 1:45:00 AM 19.31 66.758 0.212 7.43 36.19 7.55
8/22/2021 2:00:00 AM 19.29 66.722 0.213 7.43 35.72 7.55
8/22/2021 2:15:00 AM 19.29 66.722 0.214 7.43 35.88 7.54
8/22/2021 2:30:00 AM 19.27 66.686 0.216 7.44 35.71 7.54
8/22/2021 2:45:00 AM 19.27 66.686 0.216 7.44 35.65 7.54
8/22/2021 3:00:00 AM 19.25 66.65 0.216 7.44 36.52 7.54
8/22/2021 3:15:00 AM 19.23 66.614 0.217 7.43 36.05 7.54
8/22/2021 3:30:00 AM 19.2 66.56 0.218 7.44 35.57 7.54
8/22/2021 3:45:00 AM 19.18 66.524 0.218 7.44 34.87 7.55
8/22/2021 4:00:00 AM 19.15 66.47 0.218 7.45 35.86 7.55
8/22/2021 4:15:00 AM 19.12 66.416 0.218 7.45 35.45 7.56
8/22/2021 4:30:00 AM 19.07 66.326 0.219 7.44 34.47 7.56
8/22/2021 4:45:00 AM 19.05 66.29 0.219 7.45 34.29 7.57
8/22/2021 5:00:00 AM 19.02 66.236 0.219 7.45 33.88 7.58
8/22/2021 5:15:00 AM 18.98 66.164 0.219 7.45 34 7.58
8/22/2021 5:30:00 AM 18.94 66.092 0.22 7.44 33.44 7.58
8/22/2021 5:45:00 AM 18.9 66.02 0.22 7.44 33.6 7.58
8/22/2021 6:00:00 AM 18.85 65.93 0.22 7.45 34.35 7.6
8/22/2021 6:15:00 AM 18.81 65.858 0.22 7.44 33.86 7.6
8/22/2021 6:30:00 AM 18.77 65.786 0.22 7.44 34.61 7.61
8/22/2021 6:45:00 AM 18.74 65.732 0.22 7.45 33.73 7.62
8/22/2021 7:00:00 AM 18.71 65.67799 0.22 7.45 43.96 7.63
8/22/2021 7:15:00 AM 18.68 65.624 0.22 7.44 33.57 7.64
8/22/2021 7:30:00 AM 18.66 65.588 0.22 7.45 32.91 7.64
8/22/2021 7:45:00 AM 18.65 65.57 0.22 7.45 32.27 7.65
8/22/2021 8:00:00 AM 18.64 65.552 0.22 7.45 31.17 7.67
8/22/2021 8:15:00 AM 18.61 65.498 0.221 7.45 31.32 7.68
8/22/2021 8:30:00 AM 18.61 65.498 0.221 7.46 30.12 7.72
8/22/2021 8:45:00 AM 18.62 65.516 0.219 7.46 29.8 7.75
8/22/2021 9:00:00 AM 18.61 65.498 0.22 7.46 29.48 7.78
8/22/2021 9:15:00 AM 18.62 65.516 0.221 7.46 29.74 7.79
8/22/2021 9:30:00 AM 18.65 65.57 0.22 7.47 28.96 7.83
8/22/2021 9:45:00 AM 18.68 65.624 0.221 7.48 29.39 7.85
8/22/2021 10:00:00 AM 18.73 65.714 0.22 7.48 28.79 7.88
8/22/2021 10:15:00 AM 18.76 65.768 0.22 7.49 28.29 7.92
8/22/2021 10:30:00 AM 18.78 65.804 0.221 7.48 28.54 7.94
8/22/2021 10:45:00 AM 18.79 65.82201 0.222 7.49 28.13 7.96
8/22/2021 11:00:00 AM 18.83 65.894 0.221 7.5 27.46 7.98
8/22/2021 11:15:00 AM 18.89 66.002 0.222 7.51 28.4 8
8/22/2021 11:30:00 AM 18.98 66.164 0.222 7.51 27.86 8.03
8/22/2021 11:45:00 AM 19.06 66.308 0.222 7.52 27.7 8.06
8/22/2021 12:00:00 PM 19.14 66.452 0.223 7.53 29.02 8.08
8/22/2021 12:15:00 PM 19.2 66.56 0.223 7.53 28.46 8.08
8/22/2021 12:30:00 PM 19.23 66.614 0.223 7.54 29.27 8.07
8/22/2021 12:45:00 PM 19.24 66.632 0.224 7.54 29 8.07
8/22/2021 1:00:00 PM 19.27 66.686 0.223 7.54 29.65 8.06
8/22/2021 1:15:00 PM 19.29 66.722 0.225 7.54 30.25 8.05
8/22/2021 1:30:00 PM 19.34 66.812 0.225 7.54 30.52 8.04
8/22/2021 1:45:00 PM 19.41 66.938 0.225 7.55 29.93 8.06
8/22/2021 2:00:00 PM 19.46 67.028 0.225 7.55 30.17 8.05
8/22/2021 2:15:00 PM 19.53 67.154 0.226 7.55 30.31 8.03
8/22/2021 2:30:00 PM 19.62 67.316 0.226 7.56 30.18 8.03
8/22/2021 2:45:00 PM 19.68 67.424 0.226 7.56 32.32 8.01
8/22/2021 3:00:00 PM 19.76 67.568 0.226 7.56 33.43 8.01
8/22/2021 3:15:00 PM 19.84 67.712 0.227 7.57 32.39 8.02
8/22/2021 3:30:00 PM 19.92 67.856 0.227 7.57 31.93 8.04
8/22/2021 3:45:00 PM 20.01 68.018 0.227 7.58 32.67 8.03
8/22/2021 4:00:00 PM 20.11 68.198 0.228 7.58 33.07 8.04
8/22/2021 4:15:00 PM 20.2 68.36 0.228 7.58 32.38 8.02
8/22/2021 4:30:00 PM 20.23 68.414 0.23 7.59 32.79 7.99
8/22/2021 4:45:00 PM 20.29 68.522 0.229 7.58 32.65 7.99
8/22/2021 5:00:00 PM 20.31 68.558 0.23 7.59 32.85 7.93
8/22/2021 5:15:00 PM 20.39 68.702 0.231 7.58 33.51 7.92
8/22/2021 5:30:00 PM 20.47 68.846 0.232 7.59 33.67 7.89
8/22/2021 5:45:00 PM 20.53 68.954 0.233 7.59 34.3 7.87
8/22/2021 6:00:00 PM 20.62 69.116 0.234 7.59 34.31 7.84
8/22/2021 6:15:00 PM 20.69 69.242 0.235 7.59 33.62 7.8
8/22/2021 6:30:00 PM 20.76 69.368 0.235 7.59 35.63 7.76
8/22/2021 6:45:00 PM 20.79 69.422 0.236 7.58 36.15 7.73
8/22/2021 7:00:00 PM 20.79 69.422 0.237 7.59 35.91 7.68
8/22/2021 7:15:00 PM 20.79 69.422 0.237 7.59 35.37 7.62
8/22/2021 7:30:00 PM 20.78 69.404 0.237 7.58 35.55 7.61
8/22/2021 7:45:00 PM 20.74 69.332 0.238 7.58 36.36 7.58
8/22/2021 8:00:00 PM 20.72 69.296 0.239 7.57 37.45 7.55
8/22/2021 8:15:00 PM 20.71 69.278 0.239 7.57 37 7.52
8/22/2021 8:30:00 PM 20.7 69.26 0.24 7.57 37.44 7.49
8/22/2021 8:45:00 PM 20.69 69.242 0.241 7.56 37.43 7.46
8/22/2021 9:00:00 PM 20.66 69.188 0.242 7.56 36.87 7.43
8/22/2021 9:15:00 PM 20.68 69.224 0.241 7.55 38.96 7.43
8/22/2021 9:30:00 PM 20.65 69.17 0.242 7.55 37.93 7.41
8/22/2021 9:45:00 PM 20.61 69.098 0.243 7.55 38.23 7.38
8/22/2021 10:00:00 PM 20.58 69.044 0.243 7.55 37.63 7.36
8/22/2021 10:15:00 PM 20.57 69.026 0.243 7.55 37.59 7.35
8/22/2021 10:30:00 PM 20.54 68.972 0.243 7.54 37.33 7.34
8/22/2021 10:45:00 PM 20.5 68.9 0.245 7.54 38.99 7.32
8/22/2021 11:00:00 PM 20.48 68.864 0.245 7.54 38.88 7.31
8/22/2021 11:15:00 PM 20.45 68.81 0.245 7.54 39.03 7.31
8/22/2021 11:30:00 PM 20.43 68.774 0.244 7.54 40.12 7.31
8/22/2021 11:45:00 PM 20.41 68.738 0.245 7.53 40.54 7.29
8/23/2021 12:00:00 AM 20.37 68.666 0.246 7.53 39.73 7.26
8/23/2021 12:15:00 AM 20.33 68.594 0.247 7.52 38.75 7.25
8/23/2021 12:30:00 AM 20.31 68.558 0.248 7.52 39 7.22
8/23/2021 12:45:00 AM 20.26 68.468 0.249 7.52 39.04 7.22
8/23/2021 1:00:00 AM 20.22 68.396 0.251 7.51 39.02 7.21
8/23/2021 1:15:00 AM 20.19 68.342 0.251 7.51 40.78 7.21
8/23/2021 1:30:00 AM 20.16 68.288 0.25 7.52 39.26 7.22
8/23/2021 1:45:00 AM 20.11 68.198 0.251 7.51 40.2 7.2
8/23/2021 2:00:00 AM 20.07 68.126 0.251 7.51 39.86 7.21
8/23/2021 2:15:00 AM 20.02 68.036 0.252 7.51 40.2 7.22
8/23/2021 2:30:00 AM 19.99 67.982 0.252 7.51 39.6 7.22
8/23/2021 2:45:00 AM 19.95 67.91 0.252 7.51 40.23 7.22
8/23/2021 3:00:00 AM 19.9 67.82 0.252 7.51 39.96 7.24
8/23/2021 3:15:00 AM 19.85 67.73 0.254 7.51 40.59 7.23
8/23/2021 3:30:00 AM 19.81 67.658 0.254 7.51 40.02 7.23
8/23/2021 3:45:00 AM 19.78 67.604 0.254 7.51 40.67 7.24
8/23/2021 4:00:00 AM 19.76 67.568 0.254 7.51 40.83 7.24
8/23/2021 4:15:00 AM 19.73 67.514 0.254 7.51 40.04 7.24
8/23/2021 4:30:00 AM 19.7 67.46 0.254 7.52 39.93 7.25
8/23/2021 4:45:00 AM 19.65 67.37 0.255 7.51 40.46 7.26
8/23/2021 5:00:00 AM 19.62 67.316 0.255 7.51 39.52 7.25
8/23/2021 5:15:00 AM 19.59 67.262 0.255 7.52 39.29 7.26
8/23/2021 5:30:00 AM 19.58 67.244 0.255 7.52 39.73 7.29
8/23/2021 5:45:00 AM 19.57 67.226 0.255 7.51 39.18 7.28
8/23/2021 6:00:00 AM 19.55 67.19 0.256 7.52 39.82 7.27
8/23/2021 6:15:00 AM 19.55 67.19 0.256 7.52 40.41 7.28
8/23/2021 6:30:00 AM 19.53 67.154 0.256 7.51 40.83 7.29
8/23/2021 6:45:00 AM 19.52 67.136 0.257 7.52 39.42 7.3
8/23/2021 7:00:00 AM 19.52 67.136 0.256 7.52 40.29 7.31
8/23/2021 7:15:00 AM 19.49 67.082 0.257 7.52 39.69 7.31
8/23/2021 7:30:00 AM 19.49 67.082 0.256 7.52 40.87 7.32
8/23/2021 7:45:00 AM 19.48 67.064 0.257 7.52 39.84 7.33
8/23/2021 8:00:00 AM 19.48 67.064 0.256 7.53 40.53 7.34
8/23/2021 8:15:00 AM 19.46 67.028 0.257 7.53 39.89 7.36
8/23/2021 8:30:00 AM 19.47 67.046 0.256 7.53 39.67 7.38
8/23/2021 8:45:00 AM 19.48 67.064 0.256 7.53 38.87 7.39
8/23/2021 9:00:00 AM 19.49 67.082 0.256 7.54 39.01 7.41
8/23/2021 9:15:00 AM 19.51 67.118 0.256 7.54 38.58 7.44
8/23/2021 9:30:00 AM 19.55 67.19 0.256 7.54 38.7 7.47
8/23/2021 9:45:00 AM 19.61 67.298 0.256 7.55 37.81 7.49
8/23/2021 10:00:00 AM 19.68 67.424 0.256 7.56 38.58 7.55
8/23/2021 10:15:00 AM 19.75 67.55 0.256 7.56 37.54 7.58
8/23/2021 10:30:00 AM 19.79 67.622 0.256 7.56 37.92 7.6
8/23/2021 10:45:00 AM 19.87 67.766 0.256 7.57 37.29 7.63
8/23/2021 11:00:00 AM 19.95 67.91 0.256 7.57 36.69 7.65
8/23/2021 11:15:00 AM 20.04 68.07201 0.256 7.58 38.8 7.7
8/23/2021 11:30:00 AM 20.16 68.288 0.257 7.59 37.24 7.73
8/23/2021 11:45:00 AM 20.25 68.45 0.258 7.6 35.48 7.77
8/23/2021 12:00:00 PM 20.39 68.702 0.257 7.61 35.68 7.82
8/23/2021 12:15:00 PM 20.53 68.954 0.256 7.61 34.38 7.85
8/23/2021 12:30:00 PM 20.66 69.188 0.257 7.62 34.49 7.87
8/23/2021 12:45:00 PM 20.82 69.476 0.257 7.63 35.38 7.92
8/23/2021 1:00:00 PM 20.99 69.782 0.257 7.64 33.78 7.92
8/23/2021 1:15:00 PM 21.11 69.998 0.256 7.65 33.39 7.93
8/23/2021 1:30:00 PM 21.23 70.214 0.257 7.65 32.55 7.9
8/23/2021 1:45:00 PM 21.34 70.412 0.258 7.65 33.36 7.91
8/23/2021 2:00:00 PM 21.48 70.664 0.257 7.66 33.05 7.87
8/23/2021 2:15:00 PM 21.58 70.844 0.258 7.66 32.79 7.85
8/23/2021 2:30:00 PM 21.7 71.06 0.258 7.67 32.88 7.91
8/23/2021 2:45:00 PM 21.78 71.204 0.259 7.66 32.83 7.89
8/23/2021 3:00:00 PM 21.85 71.33 0.259 7.67 33.17 7.88
8/23/2021 3:15:00 PM 21.9 71.42 0.259 7.67 33.82 7.86
8/23/2021 3:30:00 PM 21.9 71.42 0.259 7.67 33.06 7.84
8/23/2021 3:45:00 PM 21.9 71.42 0.258 7.67 32.89 7.79
8/23/2021 4:00:00 PM 21.9 71.42 0.258 7.67 32.61 7.75
8/23/2021 4:15:00 PM 21.91 71.438 0.258 7.67 31.28 7.72
8/23/2021 4:30:00 PM 21.93 71.474 0.258 7.66 30.78 7.69
8/23/2021 4:45:00 PM 21.97 71.546 0.258 7.66 30.51 7.61
8/23/2021 5:00:00 PM 22.03 71.654 0.257 7.65 30.64 7.58
8/23/2021 5:15:00 PM 22.07 71.726 0.258 7.65 29.99 7.55
8/23/2021 5:30:00 PM 22.12 71.816 0.258 7.65 29.65 7.52
8/23/2021 5:45:00 PM 22.14 71.852 0.259 7.64 31.04 7.46
8/23/2021 6:00:00 PM 22.14 71.852 0.26 7.64 30.46 7.45
8/23/2021 6:15:00 PM 22.19 71.942 0.259 7.64 29.95 7.42
8/23/2021 6:30:00 PM 22.19 71.942 0.26 7.63 29.92 7.36
8/23/2021 6:45:00 PM 22.2 71.96 0.26 7.63 31.21 7.34
8/23/2021 7:00:00 PM 22.17 71.906 0.261 7.62 32.08 7.3
8/23/2021 7:15:00 PM 22.12 71.816 0.262 7.62 32 7.23
8/23/2021 7:30:00 PM 22.1 71.78 0.262 7.61 33.19 7.2
8/23/2021 7:45:00 PM 22.1 71.78 0.261 7.6 33.48 7.17
8/23/2021 8:00:00 PM 22.05 71.69 0.261 7.6 33.41 7.1
8/23/2021 8:15:00 PM 22 71.6 0.262 7.59 38.31 7.1
8/23/2021 8:30:00 PM 21.96 71.528 0.264 7.59 35.49 7.04
8/23/2021 8:45:00 PM 21.93 71.474 0.264 7.58 34.98 7.02
8/23/2021 9:00:00 PM 21.89 71.402 0.264 7.58 33.52 7.02
8/23/2021 9:15:00 PM 21.84 71.312 0.264 7.57 33.99 7.02
8/23/2021 9:30:00 PM 21.78 71.204 0.265 7.56 33.65 7
8/23/2021 9:45:00 PM 21.73 71.114 0.264 7.57 34.97 7
8/23/2021 10:00:00 PM 21.67 71.006 0.265 7.56 35.32 6.98
8/23/2021 10:15:00 PM 21.61 70.898 0.265 7.56 36.72 6.98
8/23/2021 10:30:00 PM 21.54 70.772 0.265 7.55 34.24 6.97
8/23/2021 10:45:00 PM 20 68 0.248 7.04 32.13 6.48
8/23/2021 11:00:00 PM 21.2 70.16 0.263 7.48 35.06 6.91
8/23/2021 11:15:00 PM 21.31 70.358 0.266 7.54 35.55 6.96
8/23/2021 11:30:00 PM 21.26 70.268 0.267 7.54 36.07 6.97
8/23/2021 11:45:00 PM 21.19 70.142 0.268 7.54 36.11 6.96
8/24/2021 12:00:00 AM 21.13 70.034 0.268 7.54 36.17 6.96
8/24/2021 12:15:00 AM 21.08 69.944 0.268 7.54 37.57 6.96
8/24/2021 12:30:00 AM 21 69.8 0.269 7.54 37.08 6.96
8/24/2021 12:45:00 AM 20.94 69.692 0.27 7.54 37.45 6.93
8/24/2021 1:00:00 AM 20.87 69.566 0.271 7.53 37.01 6.96
8/24/2021 1:15:00 AM 20.81 69.458 0.271 7.53 37.75 6.95
8/24/2021 1:30:00 AM 20.74 69.332 0.272 7.53 36.92 6.99
8/24/2021 1:45:00 AM 20.69 69.242 0.272 7.53 37.61 6.99
8/24/2021 2:00:00 AM 20.61 69.098 0.272 7.53 38.21 6.99
8/24/2021 2:15:00 AM 20.55 68.99 0.272 7.53 39.39 7.02
8/24/2021 2:30:00 AM 20.48 68.864 0.273 7.53 38.5 7.02
8/24/2021 2:45:00 AM 20.41 68.738 0.273 7.53 39.65 7.03
8/24/2021 3:00:00 AM 20.34 68.612 0.274 7.53 38.61 7.03
8/24/2021 3:15:00 AM 20.27 68.486 0.274 7.53 39.02 7.06
8/24/2021 3:30:00 AM 20.19 68.342 0.274 7.53 39.45 7.07
8/24/2021 3:45:00 AM 20.13 68.234 0.274 7.53 38.1 7.08
8/24/2021 4:00:00 AM 20.05 68.09 0.274 7.53 39.02 7.08
8/24/2021 4:15:00 AM 19.99 67.982 0.274 7.53 37.48 7.1
8/24/2021 4:30:00 AM 19.92 67.856 0.274 7.53 37.43 7.12
8/24/2021 4:45:00 AM 19.85 67.73 0.274 7.52 36.89 7.13
8/24/2021 5:00:00 AM 19.79 67.622 0.274 7.53 35.97 7.16
8/24/2021 5:15:00 AM 19.72 67.496 0.274 7.52 36.18 7.15
8/24/2021 5:30:00 AM 19.64 67.352 0.274 7.52 35.12 7.15
8/24/2021 5:45:00 AM 19.58 67.244 0.274 7.52 36.61 7.19
8/24/2021 6:00:00 AM 19.51 67.118 0.275 7.52 34.97 7.17
8/24/2021 6:15:00 AM 19.45 67.01 0.275 7.52 35.83 7.2
8/24/2021 6:30:00 AM 19.38 66.884 0.275 7.52 37.51 7.21
8/24/2021 6:45:00 AM 19.34 66.812 0.274 7.52 35.64 7.22
8/24/2021 7:00:00 AM 19.28 66.704 0.275 7.53 35.69 7.23
8/24/2021 7:15:00 AM 19.23 66.614 0.276 7.52 36.16 7.27
8/24/2021 7:30:00 AM 19.19 66.542 0.276 7.52 36.38 7.27
8/24/2021 7:45:00 AM 19.13 66.434 0.277 7.53 36.4 7.29
8/24/2021 8:00:00 AM 19.11 66.398 0.278 7.53 35.49 7.32
8/24/2021 8:15:00 AM 19.11 66.398 0.277 7.53 36.61 7.35
8/24/2021 8:30:00 AM 19.08 66.344 0.277 7.54 35.83 7.38
8/24/2021 8:45:00 AM 19.08 66.344 0.277 7.54 36.16 7.42
8/24/2021 9:00:00 AM 19.11 66.398 0.277 7.54 35.54 7.45
8/24/2021 9:15:00 AM 19.14 66.452 0.277 7.56 35.37 7.51
8/24/2021 9:30:00 AM 19.16 66.488 0.278 7.56 34.71 7.55
8/24/2021 9:45:00 AM 19.19 66.542 0.279 7.57 36.84 7.57
8/24/2021 10:00:00 AM 19.23 66.614 0.279 7.57 34.32 7.61
8/24/2021 10:15:00 AM 19.26 66.668 0.28 7.58 33.51 7.64
8/24/2021 10:30:00 AM 19.33 66.794 0.279 7.58 37.17 7.69
8/24/2021 10:45:00 AM 19.38 66.884 0.28 7.59 33.17 7.73
8/24/2021 11:00:00 AM 19.47 67.046 0.279 7.6 32.3 7.76
8/24/2021 11:15:00 AM 19.59 67.262 0.28 7.61 35.65 7.87
8/24/2021 11:30:00 AM 19.72 67.496 0.279 7.62 31.65 7.93
8/24/2021 11:45:00 AM 19.83 67.694 0.28 7.63 31.73 7.97
8/24/2021 12:00:00 PM 19.96 67.92799 0.28 7.64 30.98 8.01
8/24/2021 12:15:00 PM 20.09 68.162 0.28 7.65 33.75 8.06
8/24/2021 12:30:00 PM 20.22 68.396 0.281 7.66 30.78 8.07
8/24/2021 12:45:00 PM 20.36 68.648 0.282 7.67 30.43 8.11
8/24/2021 1:00:00 PM 20.5 68.9 0.281 7.67 31.14 8.11
8/24/2021 1:15:00 PM 20.62 69.116 0.282 7.68 30.37 8.11
8/24/2021 1:30:00 PM 20.8 69.44 0.281 7.69 30.36 8.18
8/24/2021 1:45:00 PM 20.95 69.71 0.282 7.7 32.15 8.16
8/24/2021 2:00:00 PM 21.1 69.98 0.282 7.7 30.3 8.19
8/24/2021 2:15:00 PM 21.21 70.17799 0.284 7.71 29.28 8.25
8/24/2021 2:30:00 PM 21.38 70.484 0.283 7.72 31.71 8.26
8/24/2021 2:45:00 PM 21.51 70.718 0.284 7.72 30.15 8.2
8/24/2021 3:00:00 PM 21.64 70.952 0.283 7.73 28.74 8.19
8/24/2021 3:15:00 PM 21.76 71.168 0.283 7.73 30.46 8.21
8/24/2021 3:30:00 PM 21.84 71.312 0.284 7.74 29.46 8.2
8/24/2021 3:45:00 PM 21.95 71.51 0.284 7.73 29.46 8.15
8/24/2021 4:00:00 PM 22.04 71.672 0.283 7.74 30.04 8.12
8/24/2021 4:15:00 PM 22.12 71.816 0.284 7.74 29.23 8.06
8/24/2021 4:30:00 PM 22.2 71.96 0.283 7.74 29.97 8.05
8/24/2021 4:45:00 PM 22.27 72.086 0.283 7.74 29.53 7.98
8/24/2021 5:00:00 PM 22.32 72.176 0.283 7.74 28.93 7.94
8/24/2021 5:15:00 PM 22.35 72.23 0.285 7.73 29.08 7.88
8/24/2021 5:30:00 PM 22.44 72.392 0.284 7.73 29.7 7.86
8/24/2021 5:45:00 PM 22.46 72.42799 0.285 7.72 29.92 7.79
8/24/2021 6:00:00 PM 22.5 72.5 0.284 7.71 29.69 7.74
8/24/2021 6:15:00 PM 22.49 72.482 0.285 7.71 29.3 7.64
8/24/2021 6:30:00 PM 22.51 72.518 0.285 7.7 29.37 7.56
8/24/2021 6:45:00 PM 22.52 72.536 0.285 7.69 29.65 7.51
8/24/2021 7:00:00 PM 22.52 72.536 0.286 7.68 30.4 7.42
8/24/2021 7:15:00 PM 22.49 72.482 0.287 7.68 30.63 7.3
8/24/2021 7:30:00 PM 22.45 72.41 0.288 7.66 31.39 7.27
8/24/2021 7:45:00 PM 22.46 72.42799 0.287 7.66 32.18 7.2
8/24/2021 8:00:00 PM 22.42 72.356 0.287 7.65 33.01 7.16
8/24/2021 8:15:00 PM 22.35 72.23 0.289 7.64 32.17 7.09
8/24/2021 8:30:00 PM 22.33 72.194 0.289 7.63 32.66 7.04
8/24/2021 8:45:00 PM 22.26 72.068 0.289 7.63 32.81 6.99
8/24/2021 9:00:00 PM 22.21 71.978 0.289 7.62 32.51 6.95
8/24/2021 9:15:00 PM 22.14 71.852 0.289 7.61 31.87 6.92
8/24/2021 9:30:00 PM 22.06 71.708 0.289 7.61 32.28 6.9
8/24/2021 9:45:00 PM 21.97 71.546 0.29 7.6 50.44 6.87
8/24/2021 10:00:00 PM 21.92 71.456 0.284 7.59 34.35 6.84
8/24/2021 10:15:00 PM 21.81 71.258 0.29 7.58 32.37 6.78
8/24/2021 10:30:00 PM 21.78 71.204 0.29 7.58 31.46 6.79
8/24/2021 10:45:00 PM 21.67 71.006 0.292 7.58 31.24 6.78
8/24/2021 11:00:00 PM 21.65 70.97 0.291 7.58 32.04 6.77
8/24/2021 11:15:00 PM 21.55 70.79 0.292 7.57 31.93 6.77
8/24/2021 11:30:00 PM 21.48 70.664 0.293 7.57 33.34 6.74
8/24/2021 11:45:00 PM 21.41 70.538 0.293 7.56 33.06 6.74
8/25/2021 12:00:00 AM 21.36 70.448 0.293 7.56 33.75 6.76
8/25/2021 12:15:00 AM 21.27 70.286 0.295 7.56 33.97 6.79
8/25/2021 12:30:00 AM 21.21 70.17799 0.296 7.55 35.9 6.78
8/25/2021 12:45:00 AM 21.15 70.07 0.296 7.55 35.14 6.77
8/25/2021 1:00:00 AM 21.1 69.98 0.297 7.55 34.82 6.78
8/25/2021 1:15:00 AM 21.03 69.854 0.298 7.55 35.54 6.77
8/25/2021 1:30:00 AM 20.99 69.782 0.298 7.54 35.49 6.78
8/25/2021 1:45:00 AM 20.93 69.674 0.299 7.55 35.73 6.76
8/25/2021 2:00:00 AM 20.86 69.548 0.3 7.54 35.07 6.76
8/25/2021 2:15:00 AM 20.83 69.494 0.3 7.55 34.9 6.76
8/25/2021 2:30:00 AM 20.82 69.476 0.3 7.55 35.92 6.8
8/25/2021 2:45:00 AM 20.77 69.386 0.299 7.55 36.12 6.83
8/25/2021 3:00:00 AM 20.7 69.26 0.3 7.55 35.68 6.82
8/25/2021 3:15:00 AM 20.66 69.188 0.192 7.55 36.06 6.85
8/25/2021 3:30:00 AM 20.62 69.116 0.144 7.55 37.88 6.81
8/25/2021 3:45:00 AM 19.71 67.478 0.115 7.23 32.18 6.49
8/25/2021 4:00:00 AM 20.39 68.702 0.109 7.5 33.15 6.75
8/25/2021 4:15:00 AM 20.4 68.72 0.091 7.54 32.46 6.77
8/25/2021 4:30:00 AM 20.36 68.648 0.105 7.51 33.23 6.77
8/25/2021 4:45:00 AM 20.29 68.522 0.099 7.52 33.23 6.76
8/25/2021 5:00:00 AM 20.23 68.414 0.094 7.53 35.51 6.77
8/25/2021 5:15:00 AM 20.13 68.234 0.097 7.53 33.4 6.8
8/25/2021 5:30:00 AM 20.09 68.162 0.097 7.55 34.08 6.83
8/25/2021 5:45:00 AM 20.02 68.036 0.097 7.53 34.19 6.88
8/25/2021 6:00:00 AM 19.94 67.892 0.097 7.54 36.15 6.81
8/25/2021 6:15:00 AM 19.86 67.748 0.098 7.54 34.69 6.91
8/25/2021 6:30:00 AM 19.79 67.622 0.098 7.54 33.54 6.89
8/25/2021 6:45:00 AM 19.72 67.496 0.085 7.55 55.37 6.91
8/25/2021 7:00:00 AM 19.66 67.388 0.083 7.55 35.19 6.83
8/25/2021 7:15:00 AM 19.6 67.28 0.076 7.54 33.42 6.88
8/25/2021 7:30:00 AM 19.55 67.19 0.073 7.54 33.51 6.95
8/25/2021 7:45:00 AM 19.49 67.082 0.075 7.53 32.23 7.03
8/25/2021 8:00:00 AM 19.45 67.01 0.075 7.54 32.37 7.07
8/25/2021 8:15:00 AM 19.41 66.938 0.075 7.55 443.91 7
8/25/2021 8:30:00 AM 19.37 66.866 0.075 7.54 87.27 7.15
8/25/2021 8:45:00 AM 19.36 66.848 0.067 7.57 37.9 7.24
8/25/2021 9:00:00 AM 19.33 66.794 0.066 7.54 30.36 7.25
8/25/2021 9:15:00 AM 19.31 66.758 0.065 7.57 123.34 7.21
8/25/2021 9:30:00 AM 19.32 66.776 0.065 7.57 43.43 7.33
8/25/2021 9:45:00 AM 19.34 66.812 0.065 7.57 30.42 7.52
8/25/2021 10:00:00 AM 19.36 66.848 0.065 7.58 171.42 7.43
8/25/2021 10:15:00 AM 19.39 66.902 0.065 7.59 47.04 7.45
8/25/2021 10:30:00 AM 19.45 67.01 0.061 7.6 30.18 7.62
8/25/2021 10:45:00 AM 19.52 67.136 0.061 7.61 27.05 7.69
8/25/2021 11:00:00 AM 19.59 67.262 0.06 7.62 26.77 7.73
8/25/2021 11:15:00 AM 19.69 67.442 0.06 7.63 26.42 7.73
8/25/2021 11:30:00 AM 19.78 67.604 0.06 7.64 25.63 7.87
8/25/2021 11:45:00 AM 19.9 67.82 0.06 7.65 25.42 7.99
8/25/2021 12:00:00 PM 20.02 68.036 0.06 7.67 25.21 8.12
8/25/2021 12:15:00 PM 20.14 68.252 0.06 7.68 25.04 8.07
8/25/2021 12:30:00 PM 20.28 68.504 0.06 7.68 24.66 8.08
8/25/2021 12:45:00 PM 20.42 68.756 0.06 7.7 24.93 8.25
8/25/2021 1:00:00 PM 20.58 69.044 0.06 7.71 96.71 8.31
8/25/2021 1:15:00 PM 20.73 69.314 0.06 7.72 34.33 8.27
8/25/2021 1:30:00 PM 20.88 69.584 0.06 7.74 25.87 8.22
8/25/2021 1:45:00 PM 21.04 69.872 0.059 7.74 23.79 8.34
8/25/2021 2:00:00 PM 21.21 70.17799 0.059 7.76 23.16 8.37
8/25/2021 2:15:00 PM 21.38 70.484 0.059 7.76 22.54 8.32
8/25/2021 2:30:00 PM 21.54 70.772 0.056 7.77 22.39 8.39
8/25/2021 2:45:00 PM 21.66 70.988 0.056 7.76 21.16 8.48
8/25/2021 3:00:00 PM 21.79 71.222 0.056 7.78 22.24 8.38
8/25/2021 3:15:00 PM 21.93 71.474 0.056 7.78 24.52 8.48
8/25/2021 3:30:00 PM 22 71.6 0.056 7.78 22.77 8.45
8/25/2021 3:45:00 PM 22.06 71.708 0.056 7.73 21.29 8.33
8/25/2021 4:00:00 PM 22.15 71.87 0.055 7.77 20.44 8.3
8/25/2021 4:15:00 PM 22.23 72.014 0.055 7.76 20.82 8.29
8/25/2021 4:30:00 PM 22.27 72.086 0.055 7.73 20.86 8.18
8/25/2021 4:45:00 PM 22.33 72.194 0.055 7.77 20.89 8.03
8/25/2021 5:00:00 PM 22.37 72.266 0.055 7.77 20.73 8.01
8/25/2021 5:15:00 PM 22.39 72.302 0.055 7.76 20.12 8
8/25/2021 5:30:00 PM 22.45 72.41 0.055 7.77 20.92 7.86
8/25/2021 5:45:00 PM 22.49 72.482 0.055 7.76 20.85 7.89
8/25/2021 6:00:00 PM 22.47 72.446 0.055 7.74 21 7.72
8/25/2021 6:15:00 PM 22.45 72.41 0.055 7.74 21.26 7.57
8/25/2021 6:30:00 PM 22.41 72.338 0.051 7.73 21.05 7.57
8/25/2021 6:45:00 PM 22.38 72.284 0.055 7.7 21.8 7.39
8/25/2021 7:00:00 PM 22.35 72.23 0.053 7.71 19.59 7.54
8/25/2021 7:15:00 PM 22.33 72.194 0.053 7.7 21.01 7.31
8/25/2021 7:30:00 PM 22.29 72.122 0.053 7.69 21.59 7.31
8/25/2021 7:45:00 PM 22.26 72.068 0.053 7.68 20.84 7.22
8/25/2021 8:00:00 PM 22.22 71.996 0.053 7.67 20.86 7.08
8/25/2021 8:15:00 PM 22.17 71.906 0.053 7.66 22.19 6.91
8/25/2021 8:30:00 PM 22.12 71.816 0.053 7.64 28.13 7.02
8/25/2021 8:45:00 PM 22.07 71.726 0.053 7.63 23.91 7
8/25/2021 9:00:00 PM 22 71.6 0.053 7.61 27.23 7.02
8/25/2021 9:15:00 PM 21.95 71.51 0.053 7.61 25.84 6.97
8/25/2021 9:30:00 PM 21.88 71.384 0.053 7.59 23.92 7
8/25/2021 9:45:00 PM 21.82 71.276 0.053 7.58 23.45 6.85
8/25/2021 10:00:00 PM 21.75 71.15 0.054 7.56 23.23 6.85
8/25/2021 10:15:00 PM 21.67 71.006 0.054 7.54 24.66 6.82
8/25/2021 10:30:00 PM 21.61 70.898 0.054 7.56 25.98 6.77
8/25/2021 10:45:00 PM 21.54 70.772 0.054 7.56 199.23 6.85
8/25/2021 11:00:00 PM 21.47 70.646 0.054 7.56 47.01 6.88
8/25/2021 11:15:00 PM 21.38 70.484 0.054 7.55 28.01 6.65
8/25/2021 11:30:00 PM 21.31 70.358 0.054 7.55 31.04 6.69
8/25/2021 11:45:00 PM 21.23 70.214 0.054 7.54 105.42 6.69
8/26/2021 12:00:00 AM 21.15 70.07 0.054 7.52 35.52 6.67
8/26/2021 12:15:00 AM 21.08 69.944 0.054 7.54 26.23 6.81
8/26/2021 12:30:00 AM 21.03 69.854 0.054 7.53 106.5 6.78
8/26/2021 12:45:00 AM 20.97 69.746 0.054 7.5 36.22 6.55
8/26/2021 1:00:00 AM 20.93 69.674 0.054 7.53 26.26 6.43
8/26/2021 1:15:00 AM 20.89 69.602 0.054 7.52 25.31 6.45
8/26/2021 1:30:00 AM 20.85 69.53 0.054 7.51 27.39 6.55
8/26/2021 1:45:00 AM 20.8 69.44 0.054 7.52 25.12 6.5
8/26/2021 2:00:00 AM 20.78 69.404 0.054 7.53 24.64 6.78
8/26/2021 2:15:00 AM 20.73 69.314 0.048 7.53 24.27 6.56
8/26/2021 2:30:00 AM 20.7 69.26 0.054 7.53 500.72 6.54
8/26/2021 2:45:00 AM 20.67 69.206 0.054 7.53 89.32 6.55
8/26/2021 3:00:00 AM 20.62 69.116 0.055 7.53 32.74 6.73
8/26/2021 3:15:00 AM 20.59 69.062 0.055 7.53 29.13 6.77
8/26/2021 3:30:00 AM 20.54 68.972 0.055 7.52 25.66 6.73
8/26/2021 3:45:00 AM 20.51 68.918 0.055 7.47 23.85 6.7
8/26/2021 4:00:00 AM 20.46 68.828 0.055 7.5 23.78 6.64
8/26/2021 4:15:00 AM 20.42 68.756 0.055 7.52 23.55 6.67
8/26/2021 4:30:00 AM 20.38 68.684 0.055 7.53 22.66 6.77
8/26/2021 4:45:00 AM 20.33 68.594 0.055 7.53 22.82 6.8
8/26/2021 5:00:00 AM 20.29 68.522 0.054 7.53 23.61 6.64
8/26/2021 5:15:00 AM 20.23 68.414 0.055 7.53 23.42 6.66
8/26/2021 5:30:00 AM 20.19 68.342 0.055 7.53 23.37 6.5
8/26/2021 5:45:00 AM 20.14 68.252 0.055 7.53 22.32 6.79
8/26/2021 6:00:00 AM 20.09 68.162 0.055 7.53 22.5 6.9
8/26/2021 6:15:00 AM 20.04 68.07201 0.055 7.53 23.03 6.65
8/26/2021 6:30:00 AM 20 68 0.055 7.53 24.45 6.85
8/26/2021 6:45:00 AM 19.96 67.92799 0.055 7.53 24.67 6.79
8/26/2021 7:00:00 AM 19.91 67.838 0.055 7.53 24.66 6.57
8/26/2021 7:15:00 AM 19.88 67.784 0.055 7.53 25.11 6.75
8/26/2021 7:30:00 AM 19.84 67.712 0.055 7.53 24.02 6.75
8/26/2021 7:45:00 AM 19.8 67.64 0.055 7.53 24.53 6.7
8/26/2021 8:00:00 AM 19.78 67.604 0.055 7.54 24.08 6.93
8/26/2021 8:15:00 AM 19.75 67.55 0.055 7.53 23.47 7
8/26/2021 8:30:00 AM 19.72 67.496 0.055 7.54 23.66 7.18
8/26/2021 8:45:00 AM 19.71 67.478 0.055 7.54 23.15 7.18
8/26/2021 9:00:00 AM 19.69 67.442 0.055 7.55 22.93 7.08
8/26/2021 9:15:00 AM 19.69 67.442 0.055 7.55 22.69 7.13
8/26/2021 9:30:00 AM 19.7 67.46 0.055 7.57 22.55 7.23
8/26/2021 9:45:00 AM 19.7 67.46 0.055 7.56 21.85 7.34
8/26/2021 10:00:00 AM 19.71 67.478 0.055 7.57 22.47 7.42
8/26/2021 10:15:00 AM 19.74 67.532 0.055 7.59 21.42 7.47
8/26/2021 10:30:00 AM 19.79 67.622 0.055 7.6 21.53 7.53
8/26/2021 10:45:00 AM 19.86 67.748 0.055 7.61 21.66 7.73
8/26/2021 11:00:00 AM 19.94 67.892 0.055 7.62 21.47 7.74
8/26/2021 11:15:00 AM 20 68 0.055 7.64 20.83 7.9
8/26/2021 11:30:00 AM 20.04 68.07201 0.055 7.63 20.7 7.89
8/26/2021 11:45:00 AM 20.09 68.162 0.054 7.63 20.81 8.01
8/26/2021 12:00:00 PM 20.14 68.252 0.053 7.66 20.97 7.98
8/26/2021 12:15:00 PM 20.21 68.378 0.053 7.68 20.33 8.04
8/26/2021 12:30:00 PM 19.4 66.92 0.051 7.36 20.6 7.86
8/26/2021 12:45:00 PM 20.19 68.342 0.053 7.65 19.36 8.13
8/26/2021 1:00:00 PM 20.33 68.594 0.053 7.69 19.36 8.19
8/26/2021 1:15:00 PM 20.41 68.738 0.053 7.71 19.01 8.18
8/26/2021 1:30:00 PM 20.47 68.846 0.053 7.71 19.84 8.15
8/26/2021 1:45:00 PM 20.54 68.972 0.053 7.72 507.87 8.43
8/26/2021 2:00:00 PM 20.62 69.116 0.053 7.71 81.42 8.52
8/26/2021 2:15:00 PM 20.69 69.242 0.053 7.74 26.56 8.61
8/26/2021 2:30:00 PM 20.77 69.386 0.053 7.75 17.68 8.68
8/26/2021 2:45:00 PM 20.85 69.53 0.053 7.76 17.31 8.67
8/26/2021 3:00:00 PM 20.93 69.674 0.053 7.77 17.15 8.68
8/26/2021 3:15:00 PM 21.04 69.872 0.053 7.78 17.41 8.68
8/26/2021 3:30:00 PM 21.11 69.998 0.053 7.78 17.26 8.75
8/26/2021 3:45:00 PM 21.18 70.124 0.053 7.79 17.02 8.76
8/26/2021 4:00:00 PM 21.24 70.232 0.053 7.8 16.99 8.77
8/26/2021 4:15:00 PM 21.29 70.32201 0.053 7.8 16.93 8.73
8/26/2021 4:30:00 PM 21.33 70.394 0.053 7.81 17.79 8.66
8/26/2021 4:45:00 PM 21.37 70.466 0.053 7.82 17.83 8.64
8/26/2021 5:00:00 PM 21.38 70.484 0.053 7.79 18.02 8.63
8/26/2021 5:15:00 PM 21.41 70.538 0.053 7.8 18.16 8.62
8/26/2021 5:30:00 PM 21.41 70.538 0.053 7.81 18.48 8.55
8/26/2021 5:45:00 PM 21.41 70.538 0.053 7.8 18.79 8.5
8/26/2021 6:00:00 PM 21.41 70.538 0.053 7.79 18.39 8.41
8/26/2021 6:15:00 PM 21.39 70.502 0.053 7.78 18.57 8.35
8/26/2021 6:30:00 PM 21.38 70.484 0.053 7.78 19.01 8.28
8/26/2021 6:45:00 PM 21.38 70.484 0.053 7.77 18.93 8.17
8/26/2021 7:00:00 PM 21.36 70.448 0.053 7.75 19.15 8.11
8/26/2021 7:15:00 PM 21.35 70.43 0.053 7.73 19.46 8
8/26/2021 7:30:00 PM 21.33 70.394 0.053 7.71 22.51 7.86
8/26/2021 7:45:00 PM 21.32 70.376 0.053 7.71 19.7 7.75
8/26/2021 8:00:00 PM 21.29 70.32201 0.051 7.69 18.7 7.64
8/26/2021 8:15:00 PM 21.28 70.304 0.051 7.68 20.2 7.5
8/26/2021 8:30:00 PM 21.26 70.268 0.051 7.67 19 7.51
8/26/2021 8:45:00 PM 21.24 70.232 0.051 7.65 18.85 7.36
8/26/2021 9:00:00 PM 21.21 70.17799 0.051 7.64 355.07 7.25
8/26/2021 9:15:00 PM 21.18 70.124 0.051 7.63 69.39 7.27
8/26/2021 9:30:00 PM 21.14 70.052 0.051 7.62 25.89 7.1
8/26/2021 9:45:00 PM 21.11 69.998 0.051 7.61 20.12 7.08
8/26/2021 10:00:00 PM 21.08 69.944 0.051 7.61 44.24 7.1
8/26/2021 10:15:00 PM 21.03 69.854 0.051 7.59 111.89 7
8/26/2021 10:30:00 PM 21 69.8 0.051 7.59 31.64 6.93
8/26/2021 10:45:00 PM 20.95 69.71 0.051 7.58 20.98 6.93
8/26/2021 11:00:00 PM 20.92 69.656 0.051 7.58 19.26 6.92
8/26/2021 11:15:00 PM 20.87 69.566 0.051 7.56 19.47 6.86
8/26/2021 11:30:00 PM 20.83 69.494 0.051 7.56 150.56 6.95
8/26/2021 11:45:00 PM 20.79 69.422 0.051 7.56 36.78 6.8
8/27/2021 12:00:00 AM 20.76 69.368 0.051 7.55 24.25 6.73
8/27/2021 12:15:00 AM 20.72 69.296 0.052 7.55 21.58 6.71
8/27/2021 12:30:00 AM 20.7 69.26 0.052 7.54 19.16 6.74
8/27/2021 12:45:00 AM 20.67 69.206 0.052 7.54 19.44 6.7
8/27/2021 1:00:00 AM 20.64 69.152 0.051 7.53 19.45 6.73
8/27/2021 1:15:00 AM 20.61 69.098 0.051 7.53 22.45 6.68
8/27/2021 1:30:00 AM 20.6 69.08 0.051 7.52 18.78 6.82
8/27/2021 1:45:00 AM 20.57 69.026 0.05 7.53 18.04 6.75
8/27/2021 2:00:00 AM 20.54 68.972 0.05 7.54 18.98 6.68
8/27/2021 2:15:00 AM 20.51 68.918 0.051 7.53 19.03 6.77
8/27/2021 2:30:00 AM 20.48 68.864 0.051 7.53 19.99 6.83
8/27/2021 2:45:00 AM 20.45 68.81 0.05 7.53 1277.73 6.77
8/27/2021 3:00:00 AM 20.4 68.72 0.049 7.53 184.7 6.8
8/27/2021 3:15:00 AM 20.38 68.684 0.05 7.52 41.27 6.8
8/27/2021 3:30:00 AM 20.35 68.63 0.05 7.53 22.32 6.85
8/27/2021 3:45:00 AM 20.31 68.558 0.05 7.53 18.59 6.81
8/27/2021 4:00:00 AM 20.27 68.486 0.05 7.53 18.72 6.68
8/27/2021 4:15:00 AM 20.24 68.432 0.05 7.53 18.59 6.67
8/27/2021 4:30:00 AM 20.19 68.342 0.051 7.53 548.11 6.82
8/27/2021 4:45:00 AM 20.15 68.27 0.051 7.53 89.61 6.74
8/27/2021 5:00:00 AM 20.12 68.216 0.05 7.53 26.85 6.79
8/27/2021 5:15:00 AM 20.08 68.144 0.05 7.53 19.05 6.74
8/27/2021 5:30:00 AM 20.03 68.054 0.05 7.53 18.3 6.9
8/27/2021 5:45:00 AM 20 68 0.051 7.53 18.41 6.85
8/27/2021 6:00:00 AM 19.95 67.91 0.05 7.54 17.97 6.73
8/27/2021 6:15:00 AM 19.91 67.838 0.05 7.54 19.4 6.71
8/27/2021 6:30:00 AM 19.85 67.73 0.05 7.53 24.34 6.83
8/27/2021 6:45:00 AM 19.81 67.658 0.048 7.52 50.54 6.75
8/27/2021 7:00:00 AM 19.77 67.586 0.048 7.52 24.44 6.79
8/27/2021 7:15:00 AM 19.72 67.496 0.049 7.52 138.17 6.91
8/27/2021 7:30:00 AM 19.69 67.442 0.049 7.52 500.91 6.86
8/27/2021 7:45:00 AM 19.65 67.37 0.049 7.53 2652.49 6.91
8/27/2021 8:00:00 AM 19.62 67.316 0.048 7.53 501.39 6.9
8/27/2021 8:15:00 AM 19.6 67.28 0.048 7.54 3507.1 7.01
8/27/2021 8:30:00 AM 19.58 67.244 0.048 7.54 2176.1 7.04
8/27/2021 8:45:00 AM 19.56 67.208 0.047 7.55 320.77 6.95
8/27/2021 9:00:00 AM 19.55 67.19 0.047 7.55 60.65 7.1
8/27/2021 9:15:00 AM 19.54 67.172 0.047 7.56 59.28 7.15
8/27/2021 9:30:00 AM 19.54 67.172 0.047 7.56 376.37 7.32
8/27/2021 9:45:00 AM 19.54 67.172 0.047 7.56 117.11 7.3
8/27/2021 10:00:00 AM 19.54 67.172 0.047 7.57 51.84 7.42
8/27/2021 10:15:00 AM 19.57 67.226 0.047 7.58 185.21 7.49
8/27/2021 10:30:00 AM 19.59 67.262 0.047 7.59 42.1 7.58
8/27/2021 10:45:00 AM 19.61 67.298 0.047 7.6 19.9 7.74
8/27/2021 11:00:00 AM 19.62 67.316 0.047 7.6 77.46 7.64
8/27/2021 11:15:00 AM 19.64 67.352 0.047 7.61 24.97 7.75
8/27/2021 11:30:00 AM 19.68 67.424 0.047 7.62 21.66 7.86
8/27/2021 11:45:00 AM 19.73 67.514 0.047 7.63 29.13 7.99
8/27/2021 12:00:00 PM 19.81 67.658 0.047 7.65 17.66 8.08
8/27/2021 12:15:00 PM 19.92 67.856 0.047 7.66 71.96 8.24
8/27/2021 12:30:00 PM 20.01 68.018 0.046 7.68 98.89 8.2
8/27/2021 12:45:00 PM 20.15 68.27 0.047 7.7 31.37 8.38
8/27/2021 1:00:00 PM 20.25 68.45 0.046 7.71 39.32 8.49
8/27/2021 1:15:00 PM 20.37 68.666 0.047 7.73 23.72 8.52
8/27/2021 1:30:00 PM 20.47 68.846 0.046 7.75 38.08 8.61
8/27/2021 1:45:00 PM 20.61 69.098 0.046 7.74 81.19 8.75
8/27/2021 2:00:00 PM 20.76 69.368 0.046 7.77 50.01 8.81
8/27/2021 2:15:00 PM 20.86 69.548 0.045 7.79 18.83 8.93
8/27/2021 2:30:00 PM 21 69.8 0.045 7.79 14.09 8.88
8/27/2021 2:45:00 PM 21.08 69.944 0.045 7.8 15.29 8.89
8/27/2021 3:00:00 PM 21.12 70.016 0.045 7.8 29.48 8.8
8/27/2021 3:15:00 PM 21.14 70.052 0.045 7.79 17.37 8.67
8/27/2021 3:30:00 PM 21.16 70.088 0.045 7.79 16.85 8.62
8/27/2021 3:45:00 PM 21.18 70.124 0.045 7.78 1239.96 8.53
8/27/2021 4:00:00 PM 21.21 70.17799 0.045 7.78 189.06 8.45
8/27/2021 4:15:00 PM 21.23 70.214 0.045 7.78 140.72 8.55
8/27/2021 4:30:00 PM 21.23 70.214 0.045 7.78 502.29 8.42
8/27/2021 4:45:00 PM 21.24 70.232 0.045 7.78 129.13 8.27
8/27/2021 5:00:00 PM 21.25 70.25 0.045 7.77 60.86 8.21
8/27/2021 5:15:00 PM 21.25 70.25 0.045 7.76 40.29 8.14
8/27/2021 5:30:00 PM 21.26 70.268 0.045 7.76 180.47 8.12
8/27/2021 5:45:00 PM 21.28 70.304 0.045 7.76 140.42 8
8/27/2021 6:00:00 PM 21.28 70.304 0.045 7.75 58.16 8.03
8/27/2021 6:15:00 PM 21.3 70.34 0.045 7.75 90.36 8
8/27/2021 6:30:00 PM 21.31 70.358 0.045 7.74 290.07 7.78
8/27/2021 6:45:00 PM 21.3 70.34 0.045 7.74 66.09 7.79
8/27/2021 7:00:00 PM 21.27 70.286 0.045 7.73 21.02 7.74
8/27/2021 7:15:00 PM 21.24 70.232 0.045 7.72 594.81 7.75
8/27/2021 7:30:00 PM 21.18 70.124 0.045 7.7 113.91 7.59
8/27/2021 7:45:00 PM 21.13 70.034 0.045 7.7 28.17 7.62
8/27/2021 8:00:00 PM 21.07 69.926 0.045 7.69 87.47 7.42
8/27/2021 8:15:00 PM 21.02 69.836 0.045 7.68 25.21 7.28
8/27/2021 8:30:00 PM 20.94 69.692 0.045 7.67 86.54 7.37
8/27/2021 8:45:00 PM 20.89 69.602 0.045 7.67 54.46 7.35
8/27/2021 9:00:00 PM 20.84 69.512 0.045 7.64 20.66 7.3
8/27/2021 9:15:00 PM 20.8 69.44 0.045 7.65 16.82 7.24
8/27/2021 9:30:00 PM 20.75 69.35 0.045 7.63 16.85 7.17
8/27/2021 9:45:00 PM 20.71 69.278 0.045 7.61 58.74 7.13
8/27/2021 10:00:00 PM 20.68 69.224 0.045 7.61 62.57 7.03
8/27/2021 10:15:00 PM 20.66 69.188 0.045 7.61 2377.15 7.02
8/27/2021 10:30:00 PM 20.64 69.152 0.045 7.61 335.69 7.03
8/27/2021 10:45:00 PM 20.63 69.134 0.045 7.6 80.07 7.01
8/27/2021 11:00:00 PM 20.6 69.08 0.045 7.6 25.28 6.94
8/27/2021 11:15:00 PM 20.58 69.044 0.045 7.59 21.17 7
8/27/2021 11:30:00 PM 20.56 69.008 0.045 7.59 32.64 6.96
8/27/2021 11:45:00 PM 20.54 68.972 0.045 7.58 20.68 6.92
8/28/2021 12:00:00 AM 20.52 68.936 0.045 7.58 19.5 6.89
8/28/2021 12:15:00 AM 20.5 68.9 0.045 7.58 28.83 6.81
8/28/2021 12:30:00 AM 20.47 68.846 0.045 7.58 23.62 6.77
8/28/2021 12:45:00 AM 20.45 68.81 0.045 7.57 1492 6.84
8/28/2021 1:00:00 AM 20.43 68.774 0.045 7.57 756.65 6.82
8/28/2021 1:15:00 AM 20.4 68.72 0.045 7.57 117.44 6.78
8/28/2021 1:30:00 AM 20.38 68.684 0.045 7.57 33.4 6.83
8/28/2021 1:45:00 AM 20.36 68.648 0.045 7.57 39.23 6.77
8/28/2021 2:00:00 AM 20.34 68.612 0.046 7.57 20.26 6.81
8/28/2021 2:15:00 AM 20.33 68.594 0.046 7.56 44.95 6.82
8/28/2021 2:30:00 AM 20.32 68.576 0.046 7.56 538.71 6.82
8/28/2021 2:45:00 AM 20.3 68.54 0.046 7.57 87.43 6.81
8/28/2021 3:00:00 AM 20.28 68.504 0.046 7.56 25.33 6.8
8/28/2021 3:15:00 AM 20.27 68.486 0.046 7.56 16.47 6.8
8/28/2021 3:30:00 AM 20.26 68.468 0.046 7.56 17.75 6.78
8/28/2021 3:45:00 AM 20.25 68.45 0.046 7.56 16.12 6.81
8/28/2021 4:00:00 AM 20.23 68.414 0.046 7.56 132.94 6.86
8/28/2021 4:15:00 AM 20.21 68.378 0.046 7.57 31.9 6.77
8/28/2021 4:30:00 AM 20.18 68.324 0.046 7.56 18.23 6.78
8/28/2021 4:45:00 AM 20.16 68.288 0.046 7.57 16.46 6.71
8/28/2021 5:00:00 AM 20.13 68.234 0.046 7.57 15.87 6.71
8/28/2021 5:15:00 AM 20.11 68.198 0.046 7.57 16.17 6.78
8/28/2021 5:30:00 AM 20.08 68.144 0.046 7.57 17.24 6.81
8/28/2021 5:45:00 AM 20.06 68.108 0.046 7.56 16.46 6.81
8/28/2021 6:00:00 AM 20.04 68.07201 0.046 7.57 15.99 6.89
8/28/2021 6:15:00 AM 20.01 68.018 0.046 7.57 16.73 6.81
8/28/2021 6:30:00 AM 19.97 67.946 0.046 7.57 16.42 6.8
8/28/2021 6:45:00 AM 19.95 67.91 0.046 7.57 15.76 6.85
8/28/2021 7:00:00 AM 19.93 67.874 0.046 7.56 16.08 6.87
8/28/2021 7:15:00 AM 19.9 67.82 0.046 7.57 16.6 6.92
8/28/2021 7:30:00 AM 19.88 67.784 0.046 7.57 16.24 6.91
8/28/2021 7:45:00 AM 19.86 67.748 0.046 7.57 15.72 6.91
8/28/2021 8:00:00 AM 19.85 67.73 0.046 7.58 14.92 6.97
8/28/2021 8:15:00 AM 19.84 67.712 0.046 7.58 14.85 6.98
8/28/2021 8:30:00 AM 19.82 67.676 0.046 7.58 14.82 7.05
8/28/2021 8:45:00 AM 19.81 67.658 0.046 7.59 14.71 7.08
8/28/2021 9:00:00 AM 19.8 67.64 0.046 7.59 57.95 7.11
8/28/2021 9:15:00 AM 19.8 67.64 0.046 7.6 19.92 7.14
8/28/2021 9:30:00 AM 19.79 67.622 0.046 7.6 15.23 7.21
8/28/2021 9:45:00 AM 19.78 67.604 0.046 7.6 14.42 7.22
8/28/2021 10:00:00 AM 19.78 67.604 0.046 7.61 14.34 7.28
8/28/2021 10:15:00 AM 19.77 67.586 0.046 7.61 14.4 7.38
8/28/2021 10:30:00 AM 19.77 67.586 0.046 7.62 13.55 7.36
8/28/2021 10:45:00 AM 19.8 67.64 0.046 7.63 13.93 7.43
8/28/2021 11:00:00 AM 19.82 67.676 0.046 7.64 13.61 7.56
8/28/2021 11:15:00 AM 19.84 67.712 0.046 7.65 13.33 7.64
8/28/2021 11:30:00 AM 19.86 67.748 0.046 7.66 13.19 7.71
8/28/2021 11:45:00 AM 19.88 67.784 0.046 7.67 13.37 7.8
8/28/2021 12:00:00 PM 19.91 67.838 0.046 7.68 13.74 7.8
8/28/2021 12:15:00 PM 19.92 67.856 0.046 7.69 13.21 7.88
8/28/2021 12:30:00 PM 19.96 67.92799 0.046 7.7 12.91 7.99
8/28/2021 12:45:00 PM 20.02 68.036 0.046 7.71 13.06 8.12
8/28/2021 1:00:00 PM 20.06 68.108 0.046 7.72 12.87 8.27
8/28/2021 1:15:00 PM 20.09 68.162 0.046 7.73 12.98 8.27
8/28/2021 1:30:00 PM 20.15 68.27 0.046 7.74 12.91 8.39
8/28/2021 1:45:00 PM 20.2 68.36 0.046 7.76 12.68 8.5
8/28/2021 2:00:00 PM 20.28 68.504 0.046 7.77 12.45 8.57
8/28/2021 2:15:00 PM 20.34 68.612 0.046 7.78 12.41 8.64
8/28/2021 2:30:00 PM 20.4 68.72 0.046 7.8 12.48 8.64
8/28/2021 2:45:00 PM 20.47 68.846 0.046 7.81 12.25 8.76
8/28/2021 3:00:00 PM 20.58 69.044 0.046 7.82 13.43 8.81
8/28/2021 3:15:00 PM 20.68 69.224 0.046 7.83 11.92 8.85
8/28/2021 3:30:00 PM 20.82 69.476 0.046 7.85 12.31 8.96
8/28/2021 3:45:00 PM 20.92 69.656 0.046 7.86 12.27 8.99
8/28/2021 4:00:00 PM 20.98 69.764 0.046 7.86 11.89 9.01
8/28/2021 4:15:00 PM 21.03 69.854 0.046 7.87 11.99 9.02
8/28/2021 4:30:00 PM 21.06 69.908 0.046 7.87 11.79 8.92
8/28/2021 4:45:00 PM 21.06 69.908 0.046 7.87 11.77 8.88
8/28/2021 5:00:00 PM 21.07 69.926 0.046 7.86 261.72 8.81
8/28/2021 5:15:00 PM 21.07 69.926 0.046 7.86 154.25 8.73
8/28/2021 5:30:00 PM 21.08 69.944 0.046 7.85 120.13 8.79
8/28/2021 5:45:00 PM 21.06 69.908 0.046 7.85 26.79 8.67
8/28/2021 6:00:00 PM 21.02 69.836 0.046 7.84 13.85 8.59
8/28/2021 6:15:00 PM 20.98 69.764 0.046 7.83 13.16 8.46
8/28/2021 6:30:00 PM 20.93 69.674 0.046 7.82 11.89 8.33
8/28/2021 6:45:00 PM 20.86 69.548 0.046 7.81 21.21 8.18
8/28/2021 7:00:00 PM 20.79 69.422 0.046 7.8 12.95 8.08
8/28/2021 7:15:00 PM 20.72 69.296 0.046 7.78 11.28 7.97
8/28/2021 7:30:00 PM 20.65 69.17 0.046 7.77 553.81 8.03
8/28/2021 7:45:00 PM 20.6 69.08 0.046 7.75 87.66 7.86
8/28/2021 8:00:00 PM 20.54 68.972 0.046 7.74 23.7 7.72
8/28/2021 8:15:00 PM 20.47 68.846 0.046 7.71 12.97 7.63
8/28/2021 8:30:00 PM 20.42 68.756 0.046 7.72 12.55 7.56
8/28/2021 8:45:00 PM 20.36 68.648 0.045 7.7 12.02 7.45
8/28/2021 9:00:00 PM 20.32 68.576 0.045 7.7 11.86 7.37
8/28/2021 9:15:00 PM 20.29 68.522 0.045 7.69 11.73 7.3
8/28/2021 9:30:00 PM 20.26 68.468 0.045 7.68 12 7.28
8/28/2021 9:45:00 PM 20.22 68.396 0.045 7.67 11.72 7.25
8/28/2021 10:00:00 PM 20.19 68.342 0.045 7.66 11.94 7.19
8/28/2021 10:15:00 PM 20.15 68.27 0.045 7.66 12.25 7.16
8/28/2021 10:30:00 PM 20.1 68.18 0.045 7.65 12.35 7.12
8/28/2021 10:45:00 PM 20.06 68.108 0.045 7.64 12.74 7.06
8/28/2021 11:00:00 PM 20.03 68.054 0.045 7.64 12.61 7.04
8/28/2021 11:15:00 PM 19.98 67.964 0.045 7.63 12.89 7.05
8/28/2021 11:30:00 PM 19.92 67.856 0.045 7.63 13.22 7.05
8/28/2021 11:45:00 PM 19.88 67.784 0.045 7.62 13.64 7.02
8/29/2021 12:00:00 AM 19.83 67.694 0.045 7.62 14.06 6.98
8/29/2021 12:15:00 AM 19.77 67.586 0.045 7.61 14.09 6.91
8/29/2021 12:30:00 AM 19.71 67.478 0.045 7.61 15.03 6.97
8/29/2021 12:45:00 AM 19.66 67.388 0.045 7.61 15.26 6.96
8/29/2021 1:00:00 AM 19.6 67.28 0.045 7.61 15.65 6.98
8/29/2021 1:15:00 AM 19.55 67.19 0.046 7.6 16.24 6.96
8/29/2021 1:30:00 AM 19.5 67.1 0.046 7.6 15.77 6.91
8/29/2021 1:45:00 AM 19.45 67.01 0.046 7.6 16.3 6.89
8/29/2021 2:00:00 AM 19.4 66.92 0.046 7.6 17.38 6.87
8/29/2021 2:15:00 AM 19.35 66.83 0.046 7.59 17.12 6.87
8/29/2021 2:30:00 AM 19.3 66.74 0.046 7.59 17.62 6.79
8/29/2021 2:45:00 AM 19.27 66.686 0.046 7.59 17.87 6.88
8/29/2021 3:00:00 AM 19.23 66.614 0.046 7.59 17.64 6.87
8/29/2021 3:15:00 AM 19.19 66.542 0.046 7.59 18.1 6.94
8/29/2021 3:30:00 AM 19.15 66.47 0.046 7.59 18.34 6.95
8/29/2021 3:45:00 AM 19.12 66.416 0.046 7.59 18.93 6.98
8/29/2021 4:00:00 AM 19.08 66.344 0.046 7.59 18.35 6.99
8/29/2021 4:15:00 AM 19.05 66.29 0.046 7.59 18.43 7.01
8/29/2021 4:30:00 AM 19.01 66.218 0.046 7.59 18.39 7.02
8/29/2021 4:45:00 AM 18.97 66.146 0.046 7.59 18.21 7
8/29/2021 5:00:00 AM 18.94 66.092 0.046 7.59 18.48 6.97
8/29/2021 5:15:00 AM 18.9 66.02 0.046 7.59 17.99 7.01
8/29/2021 5:30:00 AM 18.88 65.984 0.046 7.59 18.48 6.99
8/29/2021 5:45:00 AM 18.84 65.912 0.046 7.59 18.5 7.01
8/29/2021 6:00:00 AM 18.81 65.858 0.046 7.59 18.95 7
8/29/2021 6:15:00 AM 18.79 65.82201 0.046 7.59 18.52 7.06
8/29/2021 6:30:00 AM 18.75 65.75 0.046 7.59 18.35 7.04
8/29/2021 6:45:00 AM 18.73 65.714 0.046 7.59 18.29 7.06
8/29/2021 7:00:00 AM 18.71 65.67799 0.046 7.59 17.92 7.03
8/29/2021 7:15:00 AM 18.69 65.642 0.046 7.59 18.72 7.07
8/29/2021 7:30:00 AM 18.67 65.606 0.046 7.59 18.81 7.1
8/29/2021 7:45:00 AM 18.65 65.57 0.046 7.59 18.4 7.09
8/29/2021 8:00:00 AM 18.65 65.57 0.046 7.6 18.22 7.14
8/29/2021 8:15:00 AM 18.64 65.552 0.046 7.6 16.92 7.14
8/29/2021 8:30:00 AM 18.64 65.552 0.046 7.61 16.16 7.24
8/29/2021 8:45:00 AM 18.66 65.588 0.046 7.61 16 7.35
8/29/2021 9:00:00 AM 18.67 65.606 0.046 7.62 15.36 7.36
8/29/2021 9:15:00 AM 18.69 65.642 0.046 7.63 15.46 7.47
8/29/2021 9:30:00 AM 18.7 65.66 0.046 7.64 15.19 7.53
8/29/2021 9:45:00 AM 18.71 65.67799 0.046 7.64 14.51 7.54
8/29/2021 10:00:00 AM 18.73 65.714 0.046 7.65 14.9 7.63
8/29/2021 10:15:00 AM 18.78 65.804 0.046 7.66 14.29 7.72
8/29/2021 10:30:00 AM 18.81 65.858 0.046 7.67 14.27 7.85
8/29/2021 10:45:00 AM 18.84 65.912 0.046 7.68 13.92 7.9
8/29/2021 11:00:00 AM 18.9 66.02 0.046 7.69 13.88 8
8/29/2021 11:15:00 AM 18.96 66.128 0.046 7.71 13.85 8.14
8/29/2021 11:30:00 AM 19.03 66.254 0.046 7.72 13.7 8.21
8/29/2021 11:45:00 AM 19.11 66.398 0.046 7.73 13.47 8.29
8/29/2021 12:00:00 PM 19.19 66.542 0.046 7.75 13.34 8.48
8/29/2021 12:15:00 PM 19.29 66.722 0.046 7.76 13.3 8.56
8/29/2021 12:30:00 PM 19.41 66.938 0.046 7.78 12.91 8.69
8/29/2021 12:45:00 PM 19.49 67.082 0.046 7.79 12.7 8.71
8/29/2021 1:00:00 PM 19.58 67.244 0.046 7.81 12.63 8.8
8/29/2021 1:15:00 PM 19.68 67.424 0.046 7.82 12.57 8.89
8/29/2021 1:30:00 PM 19.76 67.568 0.046 7.83 12.58 8.95
8/29/2021 1:45:00 PM 19.81 67.658 0.046 7.84 12.24 8.97
8/29/2021 2:00:00 PM 19.9 67.82 0.046 7.85 12.12 9.01
8/29/2021 2:15:00 PM 19.97 67.946 0.046 7.86 12.2 9.07
8/29/2021 2:30:00 PM 20.05 68.09 0.046 7.86 11.88 9.03
8/29/2021 2:45:00 PM 20.13 68.234 0.046 7.87 11.6 8.97
8/29/2021 3:00:00 PM 20.23 68.414 0.046 7.88 11.64 9.08
8/29/2021 3:15:00 PM 20.29 68.522 0.046 7.89 11.59 9.04
8/29/2021 3:30:00 PM 20.35 68.63 0.046 7.89 11.43 9.06
8/29/2021 3:45:00 PM 20.41 68.738 0.046 7.9 11.24 9.11
8/29/2021 4:00:00 PM 20.48 68.864 0.046 7.9 11.13 9.13
8/29/2021 4:15:00 PM 20.53 68.954 0.046 7.9 11.1 9.07
8/29/2021 4:30:00 PM 20.57 69.026 0.046 7.9 11.19 8.98
8/29/2021 4:45:00 PM 20.59 69.062 0.046 7.9 11 8.9
8/29/2021 5:00:00 PM 20.64 69.152 0.046 7.9 10.6 8.8
8/29/2021 5:15:00 PM 20.69 69.242 0.046 7.9 10.59 8.71
8/29/2021 5:30:00 PM 20.74 69.332 0.045 7.89 13.93 8.71
8/29/2021 5:45:00 PM 20.81 69.458 0.044 7.9 11.99 8.69
8/29/2021 6:00:00 PM 20.83 69.494 0.045 7.89 17.91 8.62
8/29/2021 6:15:00 PM 20.83 69.494 0.045 7.88 12.35 8.44
8/29/2021 6:30:00 PM 20.83 69.494 0.045 7.87 13.52 8.26
8/29/2021 6:45:00 PM 20.83 69.494 0.045 7.85 15.25 8.3
8/29/2021 7:00:00 PM 20.82 69.476 0.046 7.84 11.07 7.95
8/29/2021 7:15:00 PM 20.82 69.476 0.046 7.83 28.44 8.03
8/29/2021 7:30:00 PM 20.8 69.44 0.046 7.82 18.12 7.85
8/29/2021 7:45:00 PM 20.78 69.404 0.045 7.81 111.2 7.88
8/29/2021 8:00:00 PM 20.75 69.35 0.045 7.8 41.52 7.76
8/29/2021 8:15:00 PM 20.72 69.296 0.045 7.78 14.75 7.64
8/29/2021 8:30:00 PM 20.69 69.242 0.045 7.77 10.8 7.51
8/29/2021 8:45:00 PM 20.65 69.17 0.044 7.76 10.62 7.42
8/29/2021 9:00:00 PM 20.62 69.116 0.044 7.74 10.75 7.34
8/29/2021 9:15:00 PM 20.56 69.008 0.045 7.73 10.77 7.23
8/29/2021 9:30:00 PM 20.51 68.918 0.308 7.68 31.7 7.19
8/29/2021 9:45:00 PM 20.47 68.846 0.353 7.69 17.34 7.21
8/29/2021 10:00:00 PM 20.41 68.738 0.359 7.68 13.73 7.16
8/29/2021 10:15:00 PM 20.36 68.648 0.36 7.68 12.28 7.15
8/29/2021 10:30:00 PM 20.3 68.54 0.36 7.66 12.2 7.06
8/29/2021 10:45:00 PM 20.26 68.468 0.36 7.66 11.84 7.04
8/29/2021 11:00:00 PM 20.2 68.36 0.361 7.65 27.66 7
8/29/2021 11:15:00 PM 20.15 68.27 0.362 7.65 16.34 6.96
8/29/2021 11:30:00 PM 20.11 68.198 0.361 7.64 14.4 6.96
8/29/2021 11:45:00 PM 20.07 68.126 0.362 7.64 13.84 6.92
8/30/2021 12:00:00 AM 20.04 68.07201 0.362 7.63 13.9 6.94
8/30/2021 12:15:00 AM 19.97 67.946 0.363 7.63 13.94 6.87
8/30/2021 12:30:00 AM 19.92 67.856 0.363 7.63 14.1 6.88
8/30/2021 12:45:00 AM 19.86 67.748 0.363 7.62 13.47 6.85
8/30/2021 1:00:00 AM 19.82 67.676 0.364 7.62 13.62 6.86
8/30/2021 1:15:00 AM 19.78 67.604 0.364 7.61 13.09 6.86
8/30/2021 1:30:00 AM 19.74 67.532 0.364 7.61 12.85 6.88
8/30/2021 1:45:00 AM 19.68 67.424 0.365 7.61 12.98 6.85
8/30/2021 2:00:00 AM 19.65 67.37 0.332 7.6 25.84 6.84
8/30/2021 2:15:00 AM 19.6 67.28 0.359 7.6 15.76 6.84
8/30/2021 2:30:00 AM 19.55 67.19 0.365 7.6 13.96 6.82
8/30/2021 2:45:00 AM 19.5 67.1 0.365 7.6 14.14 6.8
8/30/2021 3:00:00 AM 19.48 67.064 0.365 7.6 15.08 6.83
8/30/2021 3:15:00 AM 19.43 66.974 0.366 7.59 13.87 6.81
8/30/2021 3:30:00 AM 19.4 66.92 0.366 7.59 14.27 6.85
8/30/2021 3:45:00 AM 19.37 66.866 0.366 7.59 14.97 6.86
8/30/2021 4:00:00 AM 19.31 66.758 0.366 7.59 16.62 6.83
8/30/2021 4:15:00 AM 19.29 66.722 0.365 7.59 14.96 6.86
8/30/2021 4:30:00 AM 19.25 66.65 0.366 7.59 14.64 6.9
8/30/2021 4:45:00 AM 19.23 66.614 0.366 7.59 14.77 6.91
8/30/2021 5:00:00 AM 19.2 66.56 0.366 7.59 14.94 6.93
8/30/2021 5:15:00 AM 19.16 66.488 0.367 7.59 15.26 6.92
8/30/2021 5:30:00 AM 19.13 66.434 0.368 7.59 15.63 6.92
8/30/2021 5:45:00 AM 19.09 66.362 0.367 7.59 14.68 6.92
8/30/2021 6:00:00 AM 19.06 66.308 0.367 7.59 14.9 6.92
8/30/2021 6:15:00 AM 19.03 66.254 0.367 7.58 14.39 6.94
8/30/2021 6:30:00 AM 19.01 66.218 0.367 7.59 14.83 6.96
8/30/2021 6:45:00 AM 18.98 66.164 0.367 7.59 15.27 6.96
8/30/2021 7:00:00 AM 18.95 66.11 0.367 7.59 15.25 6.97
8/30/2021 7:15:00 AM 18.95 66.11 0.366 7.59 15.93 6.97
8/30/2021 7:30:00 AM 18.93 66.074 0.365 7.59 16.02 7.01
8/30/2021 7:45:00 AM 18.91 66.038 0.365 7.59 15.34 7.05
8/30/2021 8:00:00 AM 18.88 65.984 0.365 7.59 15.03 7.04
8/30/2021 8:15:00 AM 18.87 65.966 0.365 7.6 14.84 7.12
8/30/2021 8:30:00 AM 18.88 65.984 0.364 7.6 13.72 7.2
8/30/2021 8:45:00 AM 18.9 66.02 0.364 7.61 14.37 7.27
8/30/2021 9:00:00 AM 18.91 66.038 0.365 7.62 14.14 7.33
8/30/2021 9:15:00 AM 18.97 66.146 0.364 7.63 13.48 7.48
8/30/2021 9:30:00 AM 19.03 66.254 0.364 7.65 13.1 7.59
8/30/2021 9:45:00 AM 19.1 66.38 0.363 7.66 13.09 7.75
8/30/2021 10:00:00 AM 19.17 66.506 0.364 7.67 12.71 7.9
8/30/2021 10:15:00 AM 19.22 66.596 0.364 7.69 13.16 7.93
8/30/2021 10:30:00 AM 19.25 66.65 0.364 7.69 12.69 7.97
8/30/2021 10:45:00 AM 19.31 66.758 0.364 7.71 12.47 8.14
8/30/2021 11:00:00 AM 19.4 66.92 0.363 7.73 12.46 8.31
8/30/2021 11:15:00 AM 19.47 67.046 0.363 7.74 12.3 8.42
8/30/2021 11:30:00 AM 19.54 67.172 0.363 7.75 12.25 8.46
8/30/2021 11:45:00 AM 19.67 67.406 0.362 7.77 12.21 8.58
8/30/2021 12:00:00 PM 19.77 67.586 0.362 7.78 12 8.66
8/30/2021 12:15:00 PM 19.83 67.694 0.362 7.79 12.02 8.7
8/30/2021 12:30:00 PM 19.89 67.802 0.361 7.8 11.95 8.72
8/30/2021 12:45:00 PM 19.97 67.946 0.361 7.81 11.93 8.78
8/30/2021 1:00:00 PM 20.05 68.09 0.36 7.82 11.89 8.87
8/30/2021 1:15:00 PM 20.17 68.306 0.361 7.83 11.86 8.94
8/30/2021 1:30:00 PM 20.3 68.54 0.361 7.85 11.49 9.04
8/30/2021 1:45:00 PM 20.4 68.72 0.36 7.86 11.57 9.06
8/30/2021 2:00:00 PM 20.55 68.99 0.362 7.87 11.47 9.16
8/30/2021 2:15:00 PM 20.64 69.152 0.362 7.87 11.24 9.18
8/30/2021 2:30:00 PM 20.76 69.368 0.362 7.89 11.23 9.23
8/30/2021 2:45:00 PM 20.91 69.638 0.361 7.9 11.3 9.3
8/30/2021 3:00:00 PM 21.03 69.854 0.362 7.92 11.14 9.32
8/30/2021 3:15:00 PM 21.17 70.106 0.362 7.94 11.21 9.37
8/30/2021 3:30:00 PM 21.26 70.268 0.362 7.95 10.77 9.38
8/30/2021 3:45:00 PM 21.35 70.43 0.362 7.95 12.47 9.37
8/30/2021 4:00:00 PM 21.4 70.52 0.362 7.96 13 9.32
8/30/2021 4:15:00 PM 21.42 70.556 0.361 7.96 11.48 9.24
8/30/2021 4:30:00 PM 21.42 70.556 0.361 7.95 11.37 9.11
8/30/2021 4:45:00 PM 21.47 70.646 0.361 7.94 10.79 9.06
8/30/2021 5:00:00 PM 21.47 70.646 0.362 7.94 10.74 8.98
8/30/2021 5:15:00 PM 21.47 70.646 0.362 7.94 10.43 8.87
8/30/2021 5:30:00 PM 21.48 70.664 0.362 7.93 11.42 8.78
8/30/2021 5:45:00 PM 21.51 70.718 0.361 7.93 10.22 8.74
8/30/2021 6:00:00 PM 21.51 70.718 0.361 7.92 10.03 8.69
8/30/2021 6:15:00 PM 21.46 70.628 0.362 7.91 9.59 8.56
8/30/2021 6:30:00 PM 21.47 70.646 0.362 7.91 9.63 8.44
8/30/2021 6:45:00 PM 21.46 70.628 0.362 7.9 10.36 8.39
8/30/2021 7:00:00 PM 21.46 70.628 0.361 7.89 9.73 8.28
8/30/2021 7:15:00 PM 21.4 70.52 0.362 7.87 9.5 8.13
8/30/2021 7:30:00 PM 21.37 70.466 0.363 7.86 9.54 8
8/30/2021 7:45:00 PM 21.31 70.358 0.364 7.84 9.88 7.89
8/30/2021 8:00:00 PM 21.27 70.286 0.364 7.83 9.92 7.8
8/30/2021 8:15:00 PM 21.23 70.214 0.363 7.81 70.3 7.69
8/30/2021 8:30:00 PM 21.16 70.088 0.364 7.8 18.61 7.57
8/30/2021 8:45:00 PM 21.1 69.98 0.363 7.78 12.12 7.43
8/30/2021 9:00:00 PM 21.05 69.89 0.364 7.76 10.46 7.35
8/30/2021 9:15:00 PM 20.99 69.782 0.364 7.75 10.71 7.25
8/30/2021 9:30:00 PM 20.92 69.656 0.365 7.73 10.65 7.2
8/30/2021 9:45:00 PM 20.85 69.53 0.366 7.72 10.57 7.12
8/30/2021 10:00:00 PM 20.77 69.386 0.365 7.71 10.81 7.06
8/30/2021 10:15:00 PM 20.7 69.26 0.364 7.69 10.48 7
8/30/2021 10:30:00 PM 20.64 69.152 0.365 7.68 10.51 6.98
8/30/2021 10:45:00 PM 20.56 69.008 0.365 7.68 11.94 6.94
8/30/2021 11:00:00 PM 20.49 68.882 0.366 7.67 10.8 6.9
8/30/2021 11:15:00 PM 20.41 68.738 0.366 7.66 10.52 6.91
8/30/2021 11:30:00 PM 20.33 68.594 0.365 7.66 12.02 6.88
8/30/2021 11:45:00 PM 20.24 68.432 0.367 7.65 11.99 6.85
8/31/2021 12:00:00 AM 20.17 68.306 0.367 7.65 12.41 6.85
8/31/2021 12:15:00 AM 20.09 68.162 0.367 7.65 12.14 6.83
8/31/2021 12:30:00 AM 20.02 68.036 0.367 7.64 12.55 6.82
8/31/2021 12:45:00 AM 19.95 67.91 0.367 7.64 12.19 6.82
8/31/2021 1:00:00 AM 19.86 67.748 0.367 7.63 12.22 6.78
8/31/2021 1:15:00 AM 19.79 67.622 0.366 7.63 12.36 6.79
8/31/2021 1:30:00 AM 19.71 67.478 0.367 7.63 12.15 6.78
8/31/2021 1:45:00 AM 19.62 67.316 0.368 7.62 12.19 6.79
8/31/2021 2:00:00 AM 19.55 67.19 0.369 7.62 12.34 6.79
8/31/2021 2:15:00 AM 19.48 67.064 0.369 7.62 12.6 6.8
8/31/2021 2:30:00 AM 19.42 66.956 0.368 7.62 12.21 6.8
8/31/2021 2:45:00 AM 19.35 66.83 0.368 7.61 12.57 6.81
8/31/2021 3:00:00 AM 19.28 66.704 0.368 7.61 13.35 6.81
8/31/2021 3:15:00 AM 19.25 66.65 0.367 7.61 13.04 6.84
8/31/2021 3:30:00 AM 19.19 66.542 0.367 7.61 12.7 6.83
8/31/2021 3:45:00 AM 19.13 66.434 0.367 7.61 12.78 6.85
8/31/2021 4:00:00 AM 19.08 66.344 0.367 7.61 12.85 6.86
8/31/2021 4:15:00 AM 19.03 66.254 0.367 7.6 13 6.86
8/31/2021 4:30:00 AM 18.97 66.146 0.368 7.6 12.74 6.85
8/31/2021 4:45:00 AM 18.93 66.074 0.368 7.6 12.46 6.88
8/31/2021 5:00:00 AM 18.87 65.966 0.367 7.6 12.21 6.9
8/31/2021 5:15:00 AM 18.82 65.876 0.368 7.6 12.41 6.9
8/31/2021 5:30:00 AM 18.77 65.786 0.368 7.6 12.33 6.91
8/31/2021 5:45:00 AM 18.72 65.696 0.369 7.6 12.28 6.91
8/31/2021 6:00:00 AM 18.69 65.642 0.368 7.6 12.34 6.93
8/31/2021 6:15:00 AM 18.64 65.552 0.368 7.6 12.21 6.93
8/31/2021 6:30:00 AM 18.59 65.462 0.368 7.6 12.24 6.92
8/31/2021 6:45:00 AM 18.56 65.408 0.368 7.6 12.48 6.94
8/31/2021 7:00:00 AM 18.51 65.318 0.368 7.6 13.07 6.96
8/31/2021 7:15:00 AM 18.48 65.264 0.368 7.6 13.07 7
8/31/2021 7:30:00 AM 18.44 65.192 0.369 7.6 12.73 7.03
8/31/2021 7:45:00 AM 18.41 65.138 0.369 7.61 12.48 7.09
8/31/2021 8:00:00 AM 18.38 65.084 0.37 7.61 12.48 7.17
8/31/2021 8:15:00 AM 18.36 65.048 0.37 7.61 13.11 7.22
8/31/2021 8:30:00 AM 18.35 65.03 0.369 7.62 12.29 7.28
8/31/2021 8:45:00 AM 18.33 64.994 0.369 7.63 11.98 7.36
8/31/2021 9:00:00 AM 18.33 64.994 0.369 7.63 11.9 7.44
8/31/2021 9:15:00 AM 18.33 64.994 0.369 7.65 11.18 7.51
8/31/2021 9:30:00 AM 18.35 65.03 0.369 7.66 11.67 7.62
8/31/2021 9:45:00 AM 18.37 65.066 0.369 7.67 11.1 7.73
8/31/2021 10:00:00 AM 18.4 65.12 0.369 7.68 10.67 7.86
8/31/2021 10:15:00 AM 18.48 65.264 0.369 7.7 10.92 8.01
8/31/2021 10:30:00 AM 18.53 65.354 0.368 7.71 11.13 8.12
8/31/2021 10:45:00 AM 18.58 65.444 0.369 7.72 10.64 8.21
8/31/2021 11:00:00 AM 18.68 65.624 0.369 7.74 10.89 8.33
8/31/2021 11:15:00 AM 18.75 65.75 0.368 7.75 10.61 8.41
8/31/2021 11:30:00 AM 18.84 65.912 0.367 7.76 10.78 8.52
8/31/2021 11:45:00 AM 18.95 66.11 0.367 7.78 10.97 8.65
8/31/2021 12:00:00 PM 19.06 66.308 0.367 7.79 10.9 8.75
8/31/2021 12:15:00 PM 19.23 66.614 0.368 7.81 10.73 8.93
8/31/2021 12:30:00 PM 19.37 66.866 0.368 7.83 10.26 9.08
8/31/2021 12:45:00 PM 19.51 67.118 0.367 7.85 10.22 9.18
8/31/2021 1:00:00 PM 19.62 67.316 0.366 7.87 10.37 9.25
8/31/2021 1:15:00 PM 19.71 67.478 0.367 7.88 10.2 9.25
8/31/2021 1:30:00 PM 19.81 67.658 0.367 7.89 10.09 9.38
8/31/2021 1:45:00 PM 19.89 67.802 0.367 7.91 10.03 9.37
8/31/2021 2:00:00 PM 20.01 68.018 0.367 7.92 9.95 9.5
8/31/2021 2:15:00 PM 20.08 68.144 0.366 7.93 9.91 9.53
8/31/2021 2:30:00 PM 20.14 68.252 0.366 7.94 9.89 9.5
8/31/2021 2:45:00 PM 20.2 68.36 0.366 7.94 9.87 9.46
8/31/2021 3:00:00 PM 20.28 68.504 0.366 7.95 9.77 9.37
8/31/2021 3:15:00 PM 20.36 68.648 0.365 7.96 9.75 9.52
8/31/2021 3:30:00 PM 20.39 68.702 0.365 7.97 9.63 9.5
8/31/2021 3:45:00 PM 20.45 68.81 0.365 7.97 9.7 9.48
8/31/2021 4:00:00 PM 20.54 68.972 0.365 7.98 9.74 9.48
8/31/2021 4:15:00 PM 20.65 69.17 0.365 7.99 9.53 9.48
8/31/2021 4:30:00 PM 20.72 69.296 0.364 7.99 9.54 9.47
8/31/2021 4:45:00 PM 20.75 69.35 0.365 8 9.48 9.37
8/31/2021 5:00:00 PM 20.8 69.44 0.365 7.99 9.24 9.28
8/31/2021 5:15:00 PM 20.83 69.494 0.364 7.98 9.28 9.11
8/31/2021 5:30:00 PM 20.87 69.566 0.364 7.97 9.27 8.92
8/31/2021 5:45:00 PM 20.88 69.584 0.365 7.96 9.35 8.78
8/31/2021 6:00:00 PM 20.92 69.656 0.365 7.95 10.03 8.73
8/31/2021 6:15:00 PM 20.93 69.674 0.365 7.95 9.29 8.67
8/31/2021 6:30:00 PM 20.9 69.62 0.365 7.93 9.34 8.55
8/31/2021 6:45:00 PM 20.87 69.566 0.365 7.92 9.12 8.39
8/31/2021 7:00:00 PM 20.82 69.476 0.366 7.89 9.14 8.23
8/31/2021 7:15:00 PM 20.77 69.386 0.366 7.88 9.03 8.1
8/31/2021 7:30:00 PM 20.72 69.296 0.366 7.86 9.16 7.98
8/31/2021 7:45:00 PM 20.68 69.224 0.366 7.85 9.35 7.85
8/31/2021 8:00:00 PM 20.64 69.152 0.367 7.84 9.33 7.81
8/31/2021 8:15:00 PM 20.59 69.062 0.368 7.83 9.53 7.72
8/31/2021 8:30:00 PM 20.52 68.936 0.367 7.81 9.92 7.63
8/31/2021 8:45:00 PM 20.48 68.864 0.367 7.8 10.16 7.56
8/31/2021 9:00:00 PM 20.43 68.774 0.366 7.78 9.9 7.47
8/31/2021 9:15:00 PM 20.37 68.666 0.367 7.77 12.21 7.39
8/31/2021 9:30:00 PM 20.32 68.576 0.368 7.75 10.55 7.3
8/31/2021 9:45:00 PM 20.27 68.486 0.369 7.74 10.43 7.23
8/31/2021 10:00:00 PM 20.22 68.396 0.368 7.72 10.31 7.11
8/31/2021 10:15:00 PM 20.17 68.306 0.369 7.72 10.27 7.1
8/31/2021 10:30:00 PM 20.14 68.252 0.369 7.71 10.27 7.06
8/31/2021 10:45:00 PM 20.09 68.162 0.37 7.69 10.34 7.01
8/31/2021 11:00:00 PM 20.06 68.108 0.37 7.69 10.16 6.98
8/31/2021 11:15:00 PM 20.02 68.036 0.37 7.68 10.19 6.95
8/31/2021 11:30:00 PM 19.99 67.982 0.371 7.67 10.06 6.93
8/31/2021 11:45:00 PM 19.94 67.892 0.37 7.67 10.15 6.9
9/1/2021 12:00:00 AM 19.89 67.802 0.371 7.66 10.23 6.89
9/1/2021 12:15:00 AM 19.82 67.676 0.372 7.65 10.26 6.85
9/1/2021 12:30:00 AM 19.77 67.586 0.371 7.65 11.68 6.85
9/1/2021 12:45:00 AM 19.71 67.478 0.372 7.65 10.63 6.85
9/1/2021 1:00:00 AM 19.66 67.388 0.372 7.64 10.77 6.83
9/1/2021 1:15:00 AM 19.61 67.298 0.372 7.63 10.64 6.81
9/1/2021 1:30:00 AM 19.55 67.19 0.371 7.63 11 6.81
9/1/2021 1:45:00 AM 19.49 67.082 0.37 7.63 11.02 6.81
9/1/2021 2:00:00 AM 19.44 66.992 0.372 7.63 10.79 6.81
9/1/2021 2:15:00 AM 19.39 66.902 0.372 7.63 10.69 6.82
9/1/2021 2:30:00 AM 19.33 66.794 0.372 7.62 11.1 6.81
9/1/2021 2:45:00 AM 19.27 66.686 0.373 7.62 11.15 6.81
9/1/2021 3:00:00 AM 19.21 66.578 0.373 7.62 11.11 6.81
9/1/2021 3:15:00 AM 19.17 66.506 0.373 7.62 11.62 6.83
9/1/2021 3:30:00 AM 19.13 66.434 0.373 7.61 12.43 6.83
9/1/2021 3:45:00 AM 19.07 66.326 0.374 7.61 11.86 6.83
9/1/2021 4:00:00 AM 19.03 66.254 0.373 7.61 11.33 6.83
9/1/2021 4:15:00 AM 18.99 66.182 0.374 7.61 11.29 6.83
9/1/2021 4:30:00 AM 18.96 66.128 0.374 7.61 11.54 6.85
9/1/2021 4:45:00 AM 18.92 66.056 0.375 7.61 11.78 6.85
9/1/2021 5:00:00 AM 18.88 65.984 0.376 7.61 11.54 6.86
9/1/2021 5:15:00 AM 18.85 65.93 0.376 7.61 11.83 6.86
9/1/2021 5:30:00 AM 18.8 65.84 0.374 7.61 11.64 6.87
9/1/2021 5:45:00 AM 18.77 65.786 0.373 7.61 11.41 6.89
9/1/2021 6:00:00 AM 18.73 65.714 0.375 7.61 11.41 6.86
9/1/2021 6:15:00 AM 18.7 65.66 0.376 7.61 11.53 6.88
9/1/2021 6:30:00 AM 18.67 65.606 0.375 7.6 11.77 6.88
9/1/2021 6:45:00 AM 18.64 65.552 0.375 7.61 16.38 6.9
9/1/2021 7:00:00 AM 18.6 65.48 0.375 7.61 12.82 6.89
9/1/2021 7:15:00 AM 18.57 65.426 0.376 7.61 12.47 6.93
9/1/2021 7:30:00 AM 18.54 65.372 0.376 7.61 11.72 6.95
9/1/2021 7:45:00 AM 18.5 65.3 0.376 7.61 11.58 6.9
9/1/2021 8:00:00 AM 18.49 65.282 0.376 7.61 11.29 6.98
9/1/2021 8:15:00 AM 18.47 65.246 0.375 7.61 11.23 7.01
9/1/2021 8:30:00 AM 18.44 65.192 0.376 7.61 10.88 7.05
9/1/2021 8:45:00 AM 18.42 65.156 0.377 7.62 11.1 7.06
9/1/2021 9:00:00 AM 18.39 65.102 0.376 7.62 10.72 7.13
9/1/2021 9:15:00 AM 18.37 65.066 0.377 7.62 10.24 7.16
9/1/2021 9:30:00 AM 18.34 65.012 0.377 7.63 13.84 7.21
9/1/2021 9:45:00 AM 18.32 64.976 0.377 7.63 11.18 7.25
9/1/2021 10:00:00 AM 18.3 64.94 0.377 7.64 10.23 7.3
9/1/2021 10:15:00 AM 18.29 64.922 0.377 7.65 9.98 7.37
9/1/2021 10:30:00 AM 18.28 64.904 0.377 7.66 11.05 7.42
9/1/2021 10:45:00 AM 18.27 64.886 0.376 7.66 9.68 7.52
9/1/2021 11:00:00 AM 18.28 64.904 0.377 7.67 9.78 7.61
9/1/2021 11:15:00 AM 18.27 64.886 0.377 7.68 9.83 7.71
9/1/2021 11:30:00 AM 18.27 64.886 0.377 7.69 11.13 7.81
9/1/2021 11:45:00 AM 18.28 64.904 0.377 7.7 9.94 7.91
9/1/2021 12:00:00 PM 18.28 64.904 0.377 7.71 9.57 7.95
9/1/2021 12:15:00 PM 18.28 64.904 0.376 7.71 9.65 8.01
9/1/2021 12:30:00 PM 18.29 64.922 0.376 7.72 9.73 8.04
9/1/2021 12:45:00 PM 18.3 64.94 0.376 7.73 9.42 8.14
9/1/2021 1:00:00 PM 18.3 64.94 0.376 7.74 9.46 8.2
9/1/2021 1:15:00 PM 18.31 64.958 0.376 7.75 9.3 8.31
9/1/2021 1:30:00 PM 18.31 64.958 0.376 7.75 9.44 8.3
9/1/2021 1:45:00 PM 18.3 64.94 0.376 7.76 9.32 8.34
9/1/2021 2:00:00 PM 18.3 64.94 0.376 7.76 9.14 8.36
9/1/2021 2:15:00 PM 18.28 64.904 0.376 7.76 10.17 8.34
9/1/2021 2:30:00 PM 18.28 64.904 0.374 7.76 12.12 8.34
9/1/2021 2:45:00 PM 18.26 64.868 0.374 7.76 9.79 8.33
9/1/2021 3:00:00 PM 18.24 64.832 0.374 7.76 9.14 8.33
9/1/2021 3:15:00 PM 18.22 64.796 0.373 7.76 9.04 8.31
9/1/2021 3:30:00 PM 18.22 64.796 0.372 7.77 9.17 8.33
9/1/2021 3:45:00 PM 18.21 64.778 0.372 7.77 9 8.27
9/1/2021 4:00:00 PM 18.18 64.724 0.371 7.76 8.88 8.21
9/1/2021 4:15:00 PM 18.16 64.688 0.371 7.76 9.24 8.2
9/1/2021 4:30:00 PM 18.14 64.652 0.371 7.75 9.22 8.15
9/1/2021 4:45:00 PM 18.12 64.616 0.37 7.76 10.36 8.17
9/1/2021 5:00:00 PM 18.09 64.562 0.369 7.75 10.24 8.1
9/1/2021 5:15:00 PM 18.07 64.526 0.369 7.75 9.9 8.09
9/1/2021 5:30:00 PM 18.06 64.508 0.367 7.75 10.32 8.06
9/1/2021 5:45:00 PM 18.04 64.472 0.366 7.74 9.76 8.05
9/1/2021 6:00:00 PM 18.04 64.472 0.365 7.74 9.84 7.99
9/1/2021 6:15:00 PM 18.02 64.436 0.365 7.73 9.99 7.88
9/1/2021 6:30:00 PM 18 64.4 0.365 7.72 10.13 7.89
9/1/2021 6:45:00 PM 17.98 64.364 0.364 7.71 10.17 7.83
9/1/2021 7:00:00 PM 17.96 64.328 0.364 7.7 10.18 7.78
9/1/2021 7:15:00 PM 17.94 64.292 0.364 7.69 10.21 7.71
9/1/2021 7:30:00 PM 17.92 64.256 0.364 7.68 10.02 7.66
9/1/2021 7:45:00 PM 17.88 64.184 0.365 7.68 15.21 7.64
9/1/2021 8:00:00 PM 17.86 64.148 0.365 7.67 10.26 7.58
9/1/2021 8:15:00 PM 17.83 64.094 0.365 7.66 9.6 7.56
9/1/2021 8:30:00 PM 17.79 64.022 0.365 7.65 9.78 7.53
9/1/2021 8:45:00 PM 17.75 63.95 0.365 7.65 9.74 7.48
9/1/2021 9:00:00 PM 17.71 63.878 0.365 7.64 10.15 7.46
9/1/2021 9:15:00 PM 17.67 63.806 0.365 7.64 9.91 7.44
9/1/2021 9:30:00 PM 17.64 63.752 0.364 7.63 9.8 7.41
9/1/2021 9:45:00 PM 17.6 63.68 0.365 7.63 9.93 7.4
9/1/2021 10:00:00 PM 17.56 63.608 0.365 7.63 9.83 7.37
9/1/2021 10:15:00 PM 17.51 63.518 0.365 7.63 9.87 7.37
9/1/2021 10:30:00 PM 17.47 63.446 0.365 7.63 10.23 7.36
9/1/2021 10:45:00 PM 17.43 63.374 0.366 7.62 9.83 7.34
9/1/2021 11:00:00 PM 17.39 63.302 0.364 7.62 9.95 7.34
9/1/2021 11:15:00 PM 17.35 63.23 0.364 7.62 10.08 7.35
9/1/2021 11:30:00 PM 17.3 63.14 0.365 7.62 10.22 7.35
9/1/2021 11:45:00 PM 17.27 63.086 0.364 7.62 10.29 7.36
9/2/2021 12:00:00 AM 17.22 62.996 0.364 7.62 10.45 7.36
9/2/2021 12:15:00 AM 17.18 62.924 0.364 7.62 10.7 7.37
9/2/2021 12:30:00 AM 17.13 62.834 0.363 7.62 11.3 7.37
9/2/2021 12:45:00 AM 17.08 62.744 0.362 7.62 10.71 7.39
9/2/2021 1:00:00 AM 17.04 62.672 0.361 7.62 10.96 7.4
9/2/2021 1:15:00 AM 16.98 62.564 0.36 7.63 10.85 7.4
9/2/2021 1:30:00 AM 16.93 62.474 0.36 7.63 10.67 7.41
9/2/2021 1:45:00 AM 16.86 62.348 0.359 7.62 10.81 7.42
9/2/2021 2:00:00 AM 16.8 62.24 0.357 7.62 11.13 7.45
9/2/2021 2:15:00 AM 16.74 62.132 0.356 7.62 11.14 7.47
9/2/2021 2:30:00 AM 16.68 62.024 0.355 7.62 11.36 7.5
9/2/2021 2:45:00 AM 16.6 61.88 0.354 7.62 11.05 7.5
9/2/2021 3:00:00 AM 16.54 61.772 0.353 7.62 11.25 7.52
9/2/2021 3:15:00 AM 16.49 61.682 0.352 7.62 11.62 7.56
9/2/2021 3:30:00 AM 16.43 61.574 0.351 7.63 11.41 7.58
9/2/2021 3:45:00 AM 16.36 61.448 0.35 7.63 11.37 7.6
9/2/2021 4:00:00 AM 16.3 61.34 0.349 7.63 11.9 7.63
9/2/2021 4:15:00 AM 16.23 61.214 0.348 7.63 11.91 7.65
9/2/2021 4:30:00 AM 16.16 61.088 0.347 7.63 11.75 7.69
9/2/2021 4:45:00 AM 16.08 60.944 0.346 7.63 12.76 7.7
9/2/2021 5:00:00 AM 16.01 60.818 0.345 7.63 11.96 7.73
9/2/2021 5:15:00 AM 15.94 60.692 0.344 7.63 12.13 7.76
9/2/2021 5:30:00 AM 15.87 60.566 0.343 7.64 11.89 7.79
9/2/2021 5:45:00 AM 15.8 60.44 0.342 7.63 11.79 7.79
9/2/2021 6:00:00 AM 15.72 60.296 0.342 7.63 17.19 7.81
9/2/2021 6:15:00 AM 15.65 60.17 0.341 7.63 12.75 7.83
9/2/2021 6:30:00 AM 15.59 60.062 0.34 7.63 12.29 7.84
9/2/2021 6:45:00 AM 15.52 59.936 0.339 7.63 12.14 7.85
9/2/2021 7:00:00 AM 15.46 59.828 0.338 7.63 11.95 7.88
9/2/2021 7:15:00 AM 15.4 59.72 0.338 7.63 11.82 7.89
9/2/2021 7:30:00 AM 15.34 59.612 0.338 7.63 11.8 7.92
9/2/2021 7:45:00 AM 15.28 59.504 0.337 7.63 12 7.93
9/2/2021 8:00:00 AM 15.24 59.432 0.337 7.63 11.59 7.97
9/2/2021 8:15:00 AM 15.21 59.378 0.336 7.64 11.43 8.02
9/2/2021 8:30:00 AM 15.19 59.342 0.336 7.64 11.28 8.06
9/2/2021 8:45:00 AM 15.18 59.324 0.336 7.65 11.39 8.14
9/2/2021 9:00:00 AM 15.18 59.324 0.336 7.65 11.11 8.2
9/2/2021 9:15:00 AM 15.19 59.342 0.336 7.66 10.88 8.31
9/2/2021 9:30:00 AM 15.23 59.414 0.335 7.67 10.16 8.39